<?xml version="1.0" encoding="UTF-8" standalone="no" ?>
<gpx xmlns="http://www.topografix.com/GPX/1/1" xmlns:xsi="http://www.w3.org/2001/XMLSchema-instance" xsi:schemaLocation="http://www.topografix.com/GPX/1/1 http://www.topografix.com/GPX/1/1/gpx.xsd" version="1.1" creator="VisuGPX - https://www.visugpx.com">
  <metadata>
    <name>Cornivier et Sagnes Longues</name>
  </metadata>
  <trk>
    <name><![CDATA[Move]]></name>
    <trkseg>
      <trkpt lat="44.719" lon="6.90434">
        <ele>2031.6999511719</ele>
        <time>2020-02-17T07:52:33.010Z</time>
      </trkpt>
      <trkpt lat="44.719" lon="6.90435">
        <ele>2025</ele>
        <time>2020-02-17T07:52:35.010Z</time>
      </trkpt>
      <trkpt lat="44.71902" lon="6.90432">
        <ele>1983.88200064</ele>
        <time>2020-02-17T07:55:12.010Z</time>
      </trkpt>
      <trkpt lat="44.71893" lon="6.90441">
        <ele>1983.8176347462</ele>
        <time>2020-02-17T07:57:39.010Z</time>
      </trkpt>
      <trkpt lat="44.7189" lon="6.90454">
        <ele>1984</ele>
        <time>2020-02-17T07:57:46.010Z</time>
      </trkpt>
      <trkpt lat="44.71884" lon="6.90465">
        <ele>1984</ele>
        <time>2020-02-17T07:57:58.010Z</time>
      </trkpt>
      <trkpt lat="44.71876" lon="6.90472">
        <ele>1984.48200064</ele>
        <time>2020-02-17T07:58:16.010Z</time>
      </trkpt>
      <trkpt lat="44.71871" lon="6.90483">
        <ele>1985</ele>
        <time>2020-02-17T07:59:24.010Z</time>
      </trkpt>
      <trkpt lat="44.71862" lon="6.90486">
        <ele>1984.9158882107</ele>
        <time>2020-02-17T07:59:32.010Z</time>
      </trkpt>
      <trkpt lat="44.71872" lon="6.90489">
        <ele>1985</ele>
        <time>2020-02-17T07:59:53.010Z</time>
      </trkpt>
      <trkpt lat="44.7188" lon="6.90495">
        <ele>1985</ele>
        <time>2020-02-17T07:59:59.010Z</time>
      </trkpt>
      <trkpt lat="44.71882" lon="6.90508">
        <ele>1985.81799936</ele>
        <time>2020-02-17T08:00:09.010Z</time>
      </trkpt>
      <trkpt lat="44.71879" lon="6.90521">
        <ele>1986.71799936</ele>
        <time>2020-02-17T08:00:18.010Z</time>
      </trkpt>
      <trkpt lat="44.71876" lon="6.90533">
        <ele>1987</ele>
        <time>2020-02-17T08:00:25.010Z</time>
      </trkpt>
      <trkpt lat="44.7187" lon="6.90545">
        <ele>1987</ele>
        <time>2020-02-17T08:00:33.010Z</time>
      </trkpt>
      <trkpt lat="44.71864" lon="6.90555">
        <ele>1987.01799936</ele>
        <time>2020-02-17T08:00:41.010Z</time>
      </trkpt>
      <trkpt lat="44.71865" lon="6.90571">
        <ele>1988</ele>
        <time>2020-02-17T08:00:51.040Z</time>
      </trkpt>
      <trkpt lat="44.71858" lon="6.90581">
        <ele>1988</ele>
        <time>2020-02-17T08:00:59.040Z</time>
      </trkpt>
      <trkpt lat="44.71849" lon="6.90587">
        <ele>1988.71799936</ele>
        <time>2020-02-17T08:01:08.010Z</time>
      </trkpt>
      <trkpt lat="44.71854" lon="6.90598">
        <ele>1989</ele>
        <time>2020-02-17T08:01:15.040Z</time>
      </trkpt>
      <trkpt lat="44.7185" lon="6.9061">
        <ele>1989.83599872</ele>
        <time>2020-02-17T08:01:25.010Z</time>
      </trkpt>
      <trkpt lat="44.71845" lon="6.90621">
        <ele>1991</ele>
        <time>2020-02-17T08:01:33.010Z</time>
      </trkpt>
      <trkpt lat="44.71841" lon="6.90633">
        <ele>1991</ele>
        <time>2020-02-17T08:01:45.010Z</time>
      </trkpt>
      <trkpt lat="44.71842" lon="6.90646">
        <ele>1991</ele>
        <time>2020-02-17T08:01:51.010Z</time>
      </trkpt>
      <trkpt lat="44.71842" lon="6.9066">
        <ele>1991</ele>
        <time>2020-02-17T08:02:00.010Z</time>
      </trkpt>
      <trkpt lat="44.71842" lon="6.90673">
        <ele>1992.01799936</ele>
        <time>2020-02-17T08:02:11.010Z</time>
      </trkpt>
      <trkpt lat="44.71841" lon="6.90687">
        <ele>1992.91799936</ele>
        <time>2020-02-17T08:02:20.010Z</time>
      </trkpt>
      <trkpt lat="44.71837" lon="6.90699">
        <ele>1993</ele>
        <time>2020-02-17T08:02:28.010Z</time>
      </trkpt>
      <trkpt lat="44.71838" lon="6.90712">
        <ele>1993</ele>
        <time>2020-02-17T08:02:38.010Z</time>
      </trkpt>
      <trkpt lat="44.71832" lon="6.90727">
        <ele>1994.32099968</ele>
        <time>2020-02-17T08:02:54.040Z</time>
      </trkpt>
      <trkpt lat="44.71822" lon="6.9073">
        <ele>1995.01799936</ele>
        <time>2020-02-17T08:03:01.010Z</time>
      </trkpt>
      <trkpt lat="44.71817" lon="6.90741">
        <ele>1995.81799936</ele>
        <time>2020-02-17T08:03:09.010Z</time>
      </trkpt>
      <trkpt lat="44.71818" lon="6.90757">
        <ele>1996</ele>
        <time>2020-02-17T08:03:20.040Z</time>
      </trkpt>
      <trkpt lat="44.71821" lon="6.9077">
        <ele>1996.01799936</ele>
        <time>2020-02-17T08:03:31.010Z</time>
      </trkpt>
      <trkpt lat="44.71821" lon="6.90784">
        <ele>1997.03599872</ele>
        <time>2020-02-17T08:03:41.010Z</time>
      </trkpt>
      <trkpt lat="44.71825" lon="6.90796">
        <ele>1998.43599872</ele>
        <time>2020-02-17T08:03:48.010Z</time>
      </trkpt>
      <trkpt lat="44.71827" lon="6.90809">
        <ele>1999</ele>
        <time>2020-02-17T08:03:56.010Z</time>
      </trkpt>
      <trkpt lat="44.7183" lon="6.90822">
        <ele>1999.31799936</ele>
        <time>2020-02-17T08:04:04.010Z</time>
      </trkpt>
      <trkpt lat="44.71819" lon="6.90829">
        <ele>2000</ele>
        <time>2020-02-17T08:04:13.040Z</time>
      </trkpt>
      <trkpt lat="44.71827" lon="6.90838">
        <ele>2000</ele>
        <time>2020-02-17T08:04:23.010Z</time>
      </trkpt>
      <trkpt lat="44.71833" lon="6.90848">
        <ele>2000</ele>
        <time>2020-02-17T08:04:29.010Z</time>
      </trkpt>
      <trkpt lat="44.71838" lon="6.9086">
        <ele>2000.51799936</ele>
        <time>2020-02-17T08:04:36.010Z</time>
      </trkpt>
      <trkpt lat="44.7184" lon="6.90872">
        <ele>2001</ele>
        <time>2020-02-17T08:04:45.010Z</time>
      </trkpt>
      <trkpt lat="44.71842" lon="6.90886">
        <ele>2001.6052884953</ele>
        <time>2020-02-17T08:04:57.010Z</time>
      </trkpt>
      <trkpt lat="44.71838" lon="6.90898">
        <ele>2002</ele>
        <time>2020-02-17T08:05:05.010Z</time>
      </trkpt>
      <trkpt lat="44.71828" lon="6.90899">
        <ele>2002</ele>
        <time>2020-02-17T08:05:09.040Z</time>
      </trkpt>
      <trkpt lat="44.71815" lon="6.90898">
        <ele>2002</ele>
        <time>2020-02-17T08:05:11.010Z</time>
      </trkpt>
      <trkpt lat="44.71814" lon="6.90913">
        <ele>2002.248</ele>
        <time>2020-02-17T08:05:23.310Z</time>
      </trkpt>
      <trkpt lat="44.71812" lon="6.90928">
        <ele>2002.81799936</ele>
        <time>2020-02-17T08:05:29.010Z</time>
      </trkpt>
      <trkpt lat="44.71802" lon="6.90935">
        <ele>2003</ele>
        <time>2020-02-17T08:05:36.010Z</time>
      </trkpt>
      <trkpt lat="44.71805" lon="6.90948">
        <ele>2003</ele>
        <time>2020-02-17T08:05:42.010Z</time>
      </trkpt>
      <trkpt lat="44.71805" lon="6.90961">
        <ele>2003</ele>
        <time>2020-02-17T08:05:50.010Z</time>
      </trkpt>
      <trkpt lat="44.71801" lon="6.90972">
        <ele>2003.708074065</ele>
        <time>2020-02-17T08:05:58.010Z</time>
      </trkpt>
      <trkpt lat="44.71798" lon="6.90985">
        <ele>2004.61799936</ele>
        <time>2020-02-17T08:06:07.010Z</time>
      </trkpt>
      <trkpt lat="44.71796" lon="6.90998">
        <ele>2005</ele>
        <time>2020-02-17T08:06:16.010Z</time>
      </trkpt>
      <trkpt lat="44.71791" lon="6.9101">
        <ele>2005</ele>
        <time>2020-02-17T08:06:25.010Z</time>
      </trkpt>
      <trkpt lat="44.71793" lon="6.91024">
        <ele>2005.4162479169</ele>
        <time>2020-02-17T08:06:35.010Z</time>
      </trkpt>
      <trkpt lat="44.71793" lon="6.91038">
        <ele>2006.52099968</ele>
        <time>2020-02-17T08:06:46.040Z</time>
      </trkpt>
      <trkpt lat="44.71785" lon="6.91046">
        <ele>2007</ele>
        <time>2020-02-17T08:06:54.010Z</time>
      </trkpt>
      <trkpt lat="44.71776" lon="6.91042">
        <ele>2007</ele>
        <time>2020-02-17T08:06:56.010Z</time>
      </trkpt>
      <trkpt lat="44.7177" lon="6.91053">
        <ele>2007</ele>
        <time>2020-02-17T08:07:05.040Z</time>
      </trkpt>
      <trkpt lat="44.7176" lon="6.91053">
        <ele>2007</ele>
        <time>2020-02-17T08:07:09.010Z</time>
      </trkpt>
      <trkpt lat="44.71746" lon="6.91051">
        <ele>2007</ele>
        <time>2020-02-17T08:07:19.010Z</time>
      </trkpt>
      <trkpt lat="44.71738" lon="6.91057">
        <ele>2007</ele>
        <time>2020-02-17T08:07:28.010Z</time>
      </trkpt>
      <trkpt lat="44.71731" lon="6.91066">
        <ele>2008.0339315187</ele>
        <time>2020-02-17T08:07:36.010Z</time>
      </trkpt>
      <trkpt lat="44.71727" lon="6.91077">
        <ele>2009</ele>
        <time>2020-02-17T08:07:47.010Z</time>
      </trkpt>
      <trkpt lat="44.7173" lon="6.91089">
        <ele>2009.71799936</ele>
        <time>2020-02-17T08:07:58.010Z</time>
      </trkpt>
      <trkpt lat="44.71724" lon="6.91099">
        <ele>2010.81799936</ele>
        <time>2020-02-17T08:08:09.010Z</time>
      </trkpt>
      <trkpt lat="44.71716" lon="6.9111">
        <ele>2011</ele>
        <time>2020-02-17T08:08:17.010Z</time>
      </trkpt>
      <trkpt lat="44.7171" lon="6.91121">
        <ele>2011</ele>
        <time>2020-02-17T08:08:25.040Z</time>
      </trkpt>
      <trkpt lat="44.71702" lon="6.91126">
        <ele>2011.01799936</ele>
        <time>2020-02-17T08:08:31.010Z</time>
      </trkpt>
      <trkpt lat="44.71694" lon="6.91136">
        <ele>2011.92099968</ele>
        <time>2020-02-17T08:08:40.040Z</time>
      </trkpt>
      <trkpt lat="44.71689" lon="6.91147">
        <ele>2012</ele>
        <time>2020-02-17T08:08:51.010Z</time>
      </trkpt>
      <trkpt lat="44.71686" lon="6.9116">
        <ele>2012</ele>
        <time>2020-02-17T08:08:58.480Z</time>
      </trkpt>
      <trkpt lat="44.71684" lon="6.91174">
        <ele>2012.5015506924</ele>
        <time>2020-02-17T08:09:06.010Z</time>
      </trkpt>
      <trkpt lat="44.71682" lon="6.91187">
        <ele>2013.71799936</ele>
        <time>2020-02-17T08:09:18.010Z</time>
      </trkpt>
      <trkpt lat="44.71686" lon="6.91199">
        <ele>2014</ele>
        <time>2020-02-17T08:09:28.010Z</time>
      </trkpt>
      <trkpt lat="44.71692" lon="6.91209">
        <ele>2014</ele>
        <time>2020-02-17T08:09:34.010Z</time>
      </trkpt>
      <trkpt lat="44.71694" lon="6.91222">
        <ele>2014.11799936</ele>
        <time>2020-02-17T08:09:42.010Z</time>
      </trkpt>
      <trkpt lat="44.71694" lon="6.91235">
        <ele>2015</ele>
        <time>2020-02-17T08:09:52.010Z</time>
      </trkpt>
      <trkpt lat="44.71697" lon="6.91248">
        <ele>2015.41799936</ele>
        <time>2020-02-17T08:10:05.010Z</time>
      </trkpt>
      <trkpt lat="44.71701" lon="6.91261">
        <ele>2016</ele>
        <time>2020-02-17T08:10:14.010Z</time>
      </trkpt>
      <trkpt lat="44.71705" lon="6.91273">
        <ele>2016.01799936</ele>
        <time>2020-02-17T08:10:21.010Z</time>
      </trkpt>
      <trkpt lat="44.71701" lon="6.91285">
        <ele>2016.81499904</ele>
        <time>2020-02-17T08:10:28.980Z</time>
      </trkpt>
      <trkpt lat="44.71691" lon="6.91293">
        <ele>2017.41799936</ele>
        <time>2020-02-17T08:10:35.010Z</time>
      </trkpt>
      <trkpt lat="44.71686" lon="6.91304">
        <ele>2018</ele>
        <time>2020-02-17T08:10:43.040Z</time>
      </trkpt>
      <trkpt lat="44.71675" lon="6.91306">
        <ele>2018</ele>
        <time>2020-02-17T08:10:45.010Z</time>
      </trkpt>
      <trkpt lat="44.71664" lon="6.91307">
        <ele>2018</ele>
        <time>2020-02-17T08:10:47.010Z</time>
      </trkpt>
      <trkpt lat="44.71653" lon="6.9131">
        <ele>2018</ele>
        <time>2020-02-17T08:10:50.010Z</time>
      </trkpt>
      <trkpt lat="44.71643" lon="6.91312">
        <ele>2018.21799936</ele>
        <time>2020-02-17T08:10:53.010Z</time>
      </trkpt>
      <trkpt lat="44.71634" lon="6.91319">
        <ele>2018.81799936</ele>
        <time>2020-02-17T08:10:59.010Z</time>
      </trkpt>
      <trkpt lat="44.71628" lon="6.9133">
        <ele>2019</ele>
        <time>2020-02-17T08:11:08.010Z</time>
      </trkpt>
      <trkpt lat="44.71624" lon="6.91344">
        <ele>2019.72099968</ele>
        <time>2020-02-17T08:11:18.040Z</time>
      </trkpt>
      <trkpt lat="44.71618" lon="6.91356">
        <ele>2020</ele>
        <time>2020-02-17T08:11:28.010Z</time>
      </trkpt>
      <trkpt lat="44.71618" lon="6.9137">
        <ele>2020.81799936</ele>
        <time>2020-02-17T08:11:39.010Z</time>
      </trkpt>
      <trkpt lat="44.71619" lon="6.91383">
        <ele>2021.96499968</ele>
        <time>2020-02-17T08:11:50.480Z</time>
      </trkpt>
      <trkpt lat="44.71615" lon="6.91396">
        <ele>2022</ele>
        <time>2020-02-17T08:11:59.010Z</time>
      </trkpt>
      <trkpt lat="44.71606" lon="6.91401">
        <ele>2022.7926350388</ele>
        <time>2020-02-17T08:12:09.010Z</time>
      </trkpt>
      <trkpt lat="44.71597" lon="6.91403">
        <ele>2024.1962790083</ele>
        <time>2020-02-17T08:12:15.010Z</time>
      </trkpt>
      <trkpt lat="44.71587" lon="6.91407">
        <ele>2026</ele>
        <time>2020-02-17T08:12:25.010Z</time>
      </trkpt>
      <trkpt lat="44.71579" lon="6.91414">
        <ele>2026.6347296669</ele>
        <time>2020-02-17T08:12:34.010Z</time>
      </trkpt>
      <trkpt lat="44.71571" lon="6.91421">
        <ele>2028</ele>
        <time>2020-02-17T08:12:43.010Z</time>
      </trkpt>
      <trkpt lat="44.71565" lon="6.91433">
        <ele>2028.03599872</ele>
        <time>2020-02-17T08:12:51.010Z</time>
      </trkpt>
      <trkpt lat="44.71561" lon="6.91445">
        <ele>2029.43599872</ele>
        <time>2020-02-17T08:12:58.010Z</time>
      </trkpt>
      <trkpt lat="44.71556" lon="6.91457">
        <ele>2030.61699968</ele>
        <time>2020-02-17T08:13:07.000Z</time>
      </trkpt>
      <trkpt lat="44.71549" lon="6.91468">
        <ele>2031</ele>
        <time>2020-02-17T08:13:17.010Z</time>
      </trkpt>
      <trkpt lat="44.71544" lon="6.91479">
        <ele>2031.6168497867</ele>
        <time>2020-02-17T08:13:27.010Z</time>
      </trkpt>
      <trkpt lat="44.71538" lon="6.91491">
        <ele>2032.61799936</ele>
        <time>2020-02-17T08:13:37.010Z</time>
      </trkpt>
      <trkpt lat="44.71534" lon="6.91502">
        <ele>2033</ele>
        <time>2020-02-17T08:13:48.010Z</time>
      </trkpt>
      <trkpt lat="44.71531" lon="6.91514">
        <ele>2033</ele>
        <time>2020-02-17T08:13:59.010Z</time>
      </trkpt>
      <trkpt lat="44.71527" lon="6.91526">
        <ele>2035</ele>
        <time>2020-02-17T08:14:11.010Z</time>
      </trkpt>
      <trkpt lat="44.71524" lon="6.91538">
        <ele>2035</ele>
        <time>2020-02-17T08:14:20.010Z</time>
      </trkpt>
      <trkpt lat="44.71522" lon="6.91552">
        <ele>2035.9177525915</ele>
        <time>2020-02-17T08:14:30.010Z</time>
      </trkpt>
      <trkpt lat="44.71519" lon="6.91564">
        <ele>2035.28200064</ele>
        <time>2020-02-17T08:14:38.010Z</time>
      </trkpt>
      <trkpt lat="44.71517" lon="6.91577">
        <ele>2035</ele>
        <time>2020-02-17T08:14:46.010Z</time>
      </trkpt>
      <trkpt lat="44.71511" lon="6.91586">
        <ele>2035</ele>
        <time>2020-02-17T08:15:00.010Z</time>
      </trkpt>
      <trkpt lat="44.71507" lon="6.91598">
        <ele>2035.7086770248</ele>
        <time>2020-02-17T08:15:08.010Z</time>
      </trkpt>
      <trkpt lat="44.71504" lon="6.91611">
        <ele>2036</ele>
        <time>2020-02-17T08:15:17.010Z</time>
      </trkpt>
      <trkpt lat="44.71498" lon="6.91622">
        <ele>2036</ele>
        <time>2020-02-17T08:15:24.010Z</time>
      </trkpt>
      <trkpt lat="44.71493" lon="6.91633">
        <ele>2036</ele>
        <time>2020-02-17T08:15:31.010Z</time>
      </trkpt>
      <trkpt lat="44.71487" lon="6.91644">
        <ele>2036</ele>
        <time>2020-02-17T08:15:39.010Z</time>
      </trkpt>
      <trkpt lat="44.71481" lon="6.91654">
        <ele>2036</ele>
        <time>2020-02-17T08:15:48.010Z</time>
      </trkpt>
      <trkpt lat="44.71474" lon="6.91662">
        <ele>2035.5014556737</ele>
        <time>2020-02-17T08:15:56.010Z</time>
      </trkpt>
      <trkpt lat="44.71465" lon="6.91671">
        <ele>2035</ele>
        <time>2020-02-17T08:16:04.040Z</time>
      </trkpt>
      <trkpt lat="44.71457" lon="6.91677">
        <ele>2035.01799936</ele>
        <time>2020-02-17T08:16:11.010Z</time>
      </trkpt>
      <trkpt lat="44.71449" lon="6.91685">
        <ele>2035.81799936</ele>
        <time>2020-02-17T08:16:19.010Z</time>
      </trkpt>
      <trkpt lat="44.71441" lon="6.91693">
        <ele>2036</ele>
        <time>2020-02-17T08:16:28.010Z</time>
      </trkpt>
      <trkpt lat="44.71433" lon="6.917">
        <ele>2036</ele>
        <time>2020-02-17T08:16:36.010Z</time>
      </trkpt>
      <trkpt lat="44.71426" lon="6.91709">
        <ele>2036.31799936</ele>
        <time>2020-02-17T08:16:44.010Z</time>
      </trkpt>
      <trkpt lat="44.71419" lon="6.91717">
        <ele>2036.7826527513</ele>
        <time>2020-02-17T08:16:53.010Z</time>
      </trkpt>
      <trkpt lat="44.71412" lon="6.91728">
        <ele>2036.2156460471</ele>
        <time>2020-02-17T08:17:03.010Z</time>
      </trkpt>
      <trkpt lat="44.71402" lon="6.91743">
        <ele>2037</ele>
        <time>2020-02-17T08:17:16.040Z</time>
      </trkpt>
      <trkpt lat="44.71394" lon="6.91752">
        <ele>2037</ele>
        <time>2020-02-17T08:17:25.010Z</time>
      </trkpt>
      <trkpt lat="44.71386" lon="6.91759">
        <ele>2037.3164173744</ele>
        <time>2020-02-17T08:17:34.010Z</time>
      </trkpt>
      <trkpt lat="44.71378" lon="6.91767">
        <ele>2038</ele>
        <time>2020-02-17T08:17:42.010Z</time>
      </trkpt>
      <trkpt lat="44.71373" lon="6.91778">
        <ele>2038</ele>
        <time>2020-02-17T08:17:49.010Z</time>
      </trkpt>
      <trkpt lat="44.71366" lon="6.91787">
        <ele>2038.81799936</ele>
        <time>2020-02-17T08:17:59.010Z</time>
      </trkpt>
      <trkpt lat="44.7136" lon="6.91796">
        <ele>2039</ele>
        <time>2020-02-17T08:18:09.010Z</time>
      </trkpt>
      <trkpt lat="44.71353" lon="6.91808">
        <ele>2039</ele>
        <time>2020-02-17T08:18:15.010Z</time>
      </trkpt>
      <trkpt lat="44.71346" lon="6.91817">
        <ele>2039</ele>
        <time>2020-02-17T08:18:22.010Z</time>
      </trkpt>
      <trkpt lat="44.71338" lon="6.91825">
        <ele>2039</ele>
        <time>2020-02-17T08:18:31.010Z</time>
      </trkpt>
      <trkpt lat="44.7133" lon="6.91832">
        <ele>2039</ele>
        <time>2020-02-17T08:18:38.010Z</time>
      </trkpt>
      <trkpt lat="44.71324" lon="6.91842">
        <ele>2040.03599872</ele>
        <time>2020-02-17T08:18:46.010Z</time>
      </trkpt>
      <trkpt lat="44.71316" lon="6.91847">
        <ele>2040.68200064</ele>
        <time>2020-02-17T08:18:54.010Z</time>
      </trkpt>
      <trkpt lat="44.71309" lon="6.91858">
        <ele>2040</ele>
        <time>2020-02-17T08:19:10.010Z</time>
      </trkpt>
      <trkpt lat="44.713" lon="6.91861">
        <ele>2041.391050448</ele>
        <time>2020-02-17T08:19:18.010Z</time>
      </trkpt>
      <trkpt lat="44.71294" lon="6.91871">
        <ele>2042</ele>
        <time>2020-02-17T08:19:27.010Z</time>
      </trkpt>
      <trkpt lat="44.71287" lon="6.91881">
        <ele>2042</ele>
        <time>2020-02-17T08:19:39.010Z</time>
      </trkpt>
      <trkpt lat="44.7128" lon="6.9189">
        <ele>2042.6172340731</ele>
        <time>2020-02-17T08:19:47.010Z</time>
      </trkpt>
      <trkpt lat="44.71274" lon="6.919">
        <ele>2043.41799936</ele>
        <time>2020-02-17T08:19:55.010Z</time>
      </trkpt>
      <trkpt lat="44.71268" lon="6.91909">
        <ele>2044</ele>
        <time>2020-02-17T08:20:05.010Z</time>
      </trkpt>
      <trkpt lat="44.71261" lon="6.91919">
        <ele>2044.2156460471</ele>
        <time>2020-02-17T08:20:13.010Z</time>
      </trkpt>
      <trkpt lat="44.71256" lon="6.9193">
        <ele>2045.01799936</ele>
        <time>2020-02-17T08:20:21.010Z</time>
      </trkpt>
      <trkpt lat="44.71252" lon="6.91942">
        <ele>2046.01799936</ele>
        <time>2020-02-17T08:20:31.010Z</time>
      </trkpt>
      <trkpt lat="44.71248" lon="6.91955">
        <ele>2047</ele>
        <time>2020-02-17T08:20:41.010Z</time>
      </trkpt>
      <trkpt lat="44.71245" lon="6.91968">
        <ele>2046.9820365554</ele>
        <time>2020-02-17T08:20:51.010Z</time>
      </trkpt>
      <trkpt lat="44.71236" lon="6.91975">
        <ele>2046</ele>
        <time>2020-02-17T08:21:01.010Z</time>
      </trkpt>
      <trkpt lat="44.71228" lon="6.91982">
        <ele>2046</ele>
        <time>2020-02-17T08:21:09.010Z</time>
      </trkpt>
      <trkpt lat="44.71222" lon="6.91992">
        <ele>2046</ele>
        <time>2020-02-17T08:21:17.010Z</time>
      </trkpt>
      <trkpt lat="44.71216" lon="6.92003">
        <ele>2046.41799936</ele>
        <time>2020-02-17T08:21:25.010Z</time>
      </trkpt>
      <trkpt lat="44.71208" lon="6.92013">
        <ele>2047</ele>
        <time>2020-02-17T08:21:35.010Z</time>
      </trkpt>
      <trkpt lat="44.71201" lon="6.9202">
        <ele>2047</ele>
        <time>2020-02-17T08:21:44.010Z</time>
      </trkpt>
      <trkpt lat="44.71194" lon="6.9203">
        <ele>2047.63599872</ele>
        <time>2020-02-17T08:21:54.010Z</time>
      </trkpt>
      <trkpt lat="44.71188" lon="6.92039">
        <ele>2049</ele>
        <time>2020-02-17T08:22:03.010Z</time>
      </trkpt>
      <trkpt lat="44.71181" lon="6.92047">
        <ele>2049</ele>
        <time>2020-02-17T08:22:11.010Z</time>
      </trkpt>
      <trkpt lat="44.71173" lon="6.92057">
        <ele>2049</ele>
        <time>2020-02-17T08:22:18.010Z</time>
      </trkpt>
      <trkpt lat="44.71165" lon="6.92065">
        <ele>2049.8324958339</ele>
        <time>2020-02-17T08:22:25.010Z</time>
      </trkpt>
      <trkpt lat="44.71157" lon="6.92074">
        <ele>2051.31799936</ele>
        <time>2020-02-17T08:22:34.010Z</time>
      </trkpt>
      <trkpt lat="44.71151" lon="6.92083">
        <ele>2052</ele>
        <time>2020-02-17T08:22:44.010Z</time>
      </trkpt>
      <trkpt lat="44.71144" lon="6.92092">
        <ele>2052</ele>
        <time>2020-02-17T08:22:53.010Z</time>
      </trkpt>
      <trkpt lat="44.71135" lon="6.92094">
        <ele>2052.217781648</ele>
        <time>2020-02-17T08:23:03.010Z</time>
      </trkpt>
      <trkpt lat="44.71125" lon="6.92098">
        <ele>2053.2172168273</ele>
        <time>2020-02-17T08:23:13.010Z</time>
      </trkpt>
      <trkpt lat="44.71116" lon="6.92103">
        <ele>2054</ele>
        <time>2020-02-17T08:23:21.010Z</time>
      </trkpt>
      <trkpt lat="44.71108" lon="6.92108">
        <ele>2054</ele>
        <time>2020-02-17T08:23:28.010Z</time>
      </trkpt>
      <trkpt lat="44.711" lon="6.92115">
        <ele>2054</ele>
        <time>2020-02-17T08:23:37.010Z</time>
      </trkpt>
      <trkpt lat="44.71091" lon="6.92118">
        <ele>2054</ele>
        <time>2020-02-17T08:23:50.010Z</time>
      </trkpt>
      <trkpt lat="44.71082" lon="6.92117">
        <ele>2055</ele>
        <time>2020-02-17T08:24:01.010Z</time>
      </trkpt>
      <trkpt lat="44.71073" lon="6.9212">
        <ele>2055.0160320538</ele>
        <time>2020-02-17T08:24:11.010Z</time>
      </trkpt>
      <trkpt lat="44.71064" lon="6.92123">
        <ele>2056</ele>
        <time>2020-02-17T08:24:24.010Z</time>
      </trkpt>
      <trkpt lat="44.71055" lon="6.9213">
        <ele>2056</ele>
        <time>2020-02-17T08:24:34.010Z</time>
      </trkpt>
      <trkpt lat="44.71047" lon="6.92137">
        <ele>2056</ele>
        <time>2020-02-17T08:24:42.010Z</time>
      </trkpt>
      <trkpt lat="44.71038" lon="6.9214">
        <ele>2056</ele>
        <time>2020-02-17T08:24:50.010Z</time>
      </trkpt>
      <trkpt lat="44.7103" lon="6.92148">
        <ele>2057.43599872</ele>
        <time>2020-02-17T08:25:03.010Z</time>
      </trkpt>
      <trkpt lat="44.71025" lon="6.9216">
        <ele>2059</ele>
        <time>2020-02-17T08:25:15.010Z</time>
      </trkpt>
      <trkpt lat="44.71018" lon="6.9217">
        <ele>2059.31405717</ele>
        <time>2020-02-17T08:25:24.010Z</time>
      </trkpt>
      <trkpt lat="44.71008" lon="6.92176">
        <ele>2060</ele>
        <time>2020-02-17T08:25:32.010Z</time>
      </trkpt>
      <trkpt lat="44.70999" lon="6.92177">
        <ele>2060</ele>
        <time>2020-02-17T08:25:40.010Z</time>
      </trkpt>
      <trkpt lat="44.70989" lon="6.92176">
        <ele>2060</ele>
        <time>2020-02-17T08:25:48.010Z</time>
      </trkpt>
      <trkpt lat="44.7098" lon="6.92179">
        <ele>2060.71799936</ele>
        <time>2020-02-17T08:25:58.010Z</time>
      </trkpt>
      <trkpt lat="44.7097" lon="6.9218">
        <ele>2061.71799936</ele>
        <time>2020-02-17T08:26:08.010Z</time>
      </trkpt>
      <trkpt lat="44.70962" lon="6.92186">
        <ele>2062</ele>
        <time>2020-02-17T08:26:19.010Z</time>
      </trkpt>
      <trkpt lat="44.70954" lon="6.92177">
        <ele>2062.61799936</ele>
        <time>2020-02-17T08:26:27.010Z</time>
      </trkpt>
      <trkpt lat="44.70948" lon="6.92188">
        <ele>2063.5165488519</ele>
        <time>2020-02-17T08:26:46.010Z</time>
      </trkpt>
      <trkpt lat="44.70943" lon="6.922">
        <ele>2065.2335324446</ele>
        <time>2020-02-17T08:26:57.010Z</time>
      </trkpt>
      <trkpt lat="44.70941" lon="6.92213">
        <ele>2066</ele>
        <time>2020-02-17T08:27:07.010Z</time>
      </trkpt>
      <trkpt lat="44.70938" lon="6.92225">
        <ele>2066</ele>
        <time>2020-02-17T08:27:17.010Z</time>
      </trkpt>
      <trkpt lat="44.70929" lon="6.92234">
        <ele>2066</ele>
        <time>2020-02-17T08:27:25.040Z</time>
      </trkpt>
      <trkpt lat="44.70926" lon="6.92247">
        <ele>2066</ele>
        <time>2020-02-17T08:27:30.010Z</time>
      </trkpt>
      <trkpt lat="44.70918" lon="6.92253">
        <ele>2066.7934045797</ele>
        <time>2020-02-17T08:27:39.010Z</time>
      </trkpt>
      <trkpt lat="44.70911" lon="6.92262">
        <ele>2067.8121770282</ele>
        <time>2020-02-17T08:27:49.010Z</time>
      </trkpt>
      <trkpt lat="44.70902" lon="6.92265">
        <ele>2068</ele>
        <time>2020-02-17T08:28:01.010Z</time>
      </trkpt>
      <trkpt lat="44.70894" lon="6.92272">
        <ele>2070.83599872</ele>
        <time>2020-02-17T08:28:20.010Z</time>
      </trkpt>
      <trkpt lat="44.70885" lon="6.9228">
        <ele>2071.0359268892</ele>
        <time>2020-02-17T08:28:31.010Z</time>
      </trkpt>
      <trkpt lat="44.70875" lon="6.92284">
        <ele>2073</ele>
        <time>2020-02-17T08:28:46.010Z</time>
      </trkpt>
      <trkpt lat="44.70873" lon="6.92298">
        <ele>2074</ele>
        <time>2020-02-17T08:29:05.010Z</time>
      </trkpt>
      <trkpt lat="44.70885" lon="6.92306">
        <ele>2076.1818155372</ele>
        <time>2020-02-17T08:29:54.010Z</time>
      </trkpt>
      <trkpt lat="44.70879" lon="6.92317">
        <ele>2079.01799936</ele>
        <time>2020-02-17T08:30:11.010Z</time>
      </trkpt>
      <trkpt lat="44.70876" lon="6.92331">
        <ele>2080.21799936</ele>
        <time>2020-02-17T08:30:23.010Z</time>
      </trkpt>
      <trkpt lat="44.70868" lon="6.92337">
        <ele>2081.11799936</ele>
        <time>2020-02-17T08:30:32.010Z</time>
      </trkpt>
      <trkpt lat="44.70862" lon="6.92348">
        <ele>2082.21799936</ele>
        <time>2020-02-17T08:30:43.010Z</time>
      </trkpt>
      <trkpt lat="44.70857" lon="6.92363">
        <ele>2084.04199936</ele>
        <time>2020-02-17T08:30:56.040Z</time>
      </trkpt>
      <trkpt lat="44.7085" lon="6.92372">
        <ele>2085</ele>
        <time>2020-02-17T08:31:06.010Z</time>
      </trkpt>
      <trkpt lat="44.70847" lon="6.92384">
        <ele>2085.4999993361</ele>
        <time>2020-02-17T08:31:16.010Z</time>
      </trkpt>
      <trkpt lat="44.70844" lon="6.92398">
        <ele>2087.64199936</ele>
        <time>2020-02-17T08:31:29.040Z</time>
      </trkpt>
      <trkpt lat="44.70835" lon="6.92403">
        <ele>2087.7171507216</ele>
        <time>2020-02-17T08:31:48.010Z</time>
      </trkpt>
      <trkpt lat="44.70825" lon="6.92409">
        <ele>2088.11799936</ele>
        <time>2020-02-17T08:31:52.010Z</time>
      </trkpt>
      <trkpt lat="44.70816" lon="6.92416">
        <ele>2089.01799936</ele>
        <time>2020-02-17T08:32:01.010Z</time>
      </trkpt>
      <trkpt lat="44.70807" lon="6.92421">
        <ele>2089.61799936</ele>
        <time>2020-02-17T08:32:07.010Z</time>
      </trkpt>
      <trkpt lat="44.70806" lon="6.92434">
        <ele>2090</ele>
        <time>2020-02-17T08:32:13.010Z</time>
      </trkpt>
      <trkpt lat="44.70805" lon="6.92446">
        <ele>2090.6305208032</ele>
        <time>2020-02-17T08:32:24.010Z</time>
      </trkpt>
      <trkpt lat="44.70801" lon="6.92458">
        <ele>2091.6826351665</ele>
        <time>2020-02-17T08:32:34.010Z</time>
      </trkpt>
      <trkpt lat="44.70795" lon="6.92469">
        <ele>2091.4168334</ele>
        <time>2020-02-17T08:32:45.010Z</time>
      </trkpt>
      <trkpt lat="44.70787" lon="6.92478">
        <ele>2092</ele>
        <time>2020-02-17T08:32:53.010Z</time>
      </trkpt>
      <trkpt lat="44.70782" lon="6.9249">
        <ele>2092</ele>
        <time>2020-02-17T08:33:03.010Z</time>
      </trkpt>
      <trkpt lat="44.70774" lon="6.92496">
        <ele>2092.03599872</ele>
        <time>2020-02-17T08:33:11.010Z</time>
      </trkpt>
      <trkpt lat="44.70764" lon="6.925">
        <ele>2093.83599872</ele>
        <time>2020-02-17T08:33:20.010Z</time>
      </trkpt>
      <trkpt lat="44.70755" lon="6.92505">
        <ele>2094.11799936</ele>
        <time>2020-02-17T08:33:32.010Z</time>
      </trkpt>
      <trkpt lat="44.70749" lon="6.92515">
        <ele>2095</ele>
        <time>2020-02-17T08:33:42.010Z</time>
      </trkpt>
      <trkpt lat="44.70741" lon="6.92524">
        <ele>2095.0179813844</ele>
        <time>2020-02-17T08:33:51.010Z</time>
      </trkpt>
      <trkpt lat="44.70736" lon="6.92535">
        <ele>2095.9170825709</ele>
        <time>2020-02-17T08:34:00.010Z</time>
      </trkpt>
      <trkpt lat="44.70736" lon="6.92548">
        <ele>2097</ele>
        <time>2020-02-17T08:34:14.010Z</time>
      </trkpt>
      <trkpt lat="44.70734" lon="6.92561">
        <ele>2099.21799936</ele>
        <time>2020-02-17T08:34:33.010Z</time>
      </trkpt>
      <trkpt lat="44.70728" lon="6.92571">
        <ele>2100</ele>
        <time>2020-02-17T08:34:46.010Z</time>
      </trkpt>
      <trkpt lat="44.70726" lon="6.92584">
        <ele>2100</ele>
        <time>2020-02-17T08:35:01.010Z</time>
      </trkpt>
      <trkpt lat="44.70719" lon="6.92594">
        <ele>2100</ele>
        <time>2020-02-17T08:35:11.010Z</time>
      </trkpt>
      <trkpt lat="44.70716" lon="6.92606">
        <ele>2100</ele>
        <time>2020-02-17T08:35:20.010Z</time>
      </trkpt>
      <trkpt lat="44.70713" lon="6.92618">
        <ele>2100.61799936</ele>
        <time>2020-02-17T08:35:27.010Z</time>
      </trkpt>
      <trkpt lat="44.70709" lon="6.92631">
        <ele>2101</ele>
        <time>2020-02-17T08:35:36.010Z</time>
      </trkpt>
      <trkpt lat="44.70704" lon="6.92647">
        <ele>2102.24199936</ele>
        <time>2020-02-17T08:35:47.040Z</time>
      </trkpt>
      <trkpt lat="44.70707" lon="6.92659">
        <ele>2103.3173648335</ele>
        <time>2020-02-17T08:36:04.010Z</time>
      </trkpt>
      <trkpt lat="44.70705" lon="6.92671">
        <ele>2104.4168334</ele>
        <time>2020-02-17T08:36:15.010Z</time>
      </trkpt>
      <trkpt lat="44.70702" lon="6.92684">
        <ele>2104.2841484238</ele>
        <time>2020-02-17T08:36:28.010Z</time>
      </trkpt>
      <trkpt lat="44.70695" lon="6.92693">
        <ele>2104.7201600707</ele>
        <time>2020-02-17T08:36:38.040Z</time>
      </trkpt>
      <trkpt lat="44.70693" lon="6.92706">
        <ele>2105</ele>
        <time>2020-02-17T08:36:45.010Z</time>
      </trkpt>
      <trkpt lat="44.70686" lon="6.92716">
        <ele>2105</ele>
        <time>2020-02-17T08:36:55.010Z</time>
      </trkpt>
      <trkpt lat="44.70676" lon="6.92722">
        <ele>2105.51799936</ele>
        <time>2020-02-17T08:37:06.010Z</time>
      </trkpt>
      <trkpt lat="44.70682" lon="6.92732">
        <ele>2107</ele>
        <time>2020-02-17T08:37:29.010Z</time>
      </trkpt>
      <trkpt lat="44.70677" lon="6.92744">
        <ele>2106</ele>
        <time>2020-02-17T08:37:44.010Z</time>
      </trkpt>
      <trkpt lat="44.7067" lon="6.92754">
        <ele>2106.2181816771</ele>
        <time>2020-02-17T08:37:52.010Z</time>
      </trkpt>
      <trkpt lat="44.70664" lon="6.92764">
        <ele>2108.2173472487</ele>
        <time>2020-02-17T08:38:03.010Z</time>
      </trkpt>
      <trkpt lat="44.70656" lon="6.92769">
        <ele>2109</ele>
        <time>2020-02-17T08:38:17.010Z</time>
      </trkpt>
      <trkpt lat="44.70652" lon="6.92782">
        <ele>2110</ele>
        <time>2020-02-17T08:38:41.040Z</time>
      </trkpt>
      <trkpt lat="44.70646" lon="6.92793">
        <ele>2113.8348339268</ele>
        <time>2020-02-17T08:39:05.010Z</time>
      </trkpt>
      <trkpt lat="44.70643" lon="6.92805">
        <ele>2115</ele>
        <time>2020-02-17T08:39:23.040Z</time>
      </trkpt>
      <trkpt lat="44.70637" lon="6.92814">
        <ele>2115</ele>
        <time>2020-02-17T08:39:35.010Z</time>
      </trkpt>
      <trkpt lat="44.70629" lon="6.92821">
        <ele>2117.15399808</ele>
        <time>2020-02-17T08:39:48.010Z</time>
      </trkpt>
      <trkpt lat="44.70627" lon="6.92834">
        <ele>2118</ele>
        <time>2020-02-17T08:39:59.010Z</time>
      </trkpt>
      <trkpt lat="44.70621" lon="6.92844">
        <ele>2119.03599872</ele>
        <time>2020-02-17T08:40:11.010Z</time>
      </trkpt>
      <trkpt lat="44.70613" lon="6.9285">
        <ele>2121.31799936</ele>
        <time>2020-02-17T08:40:24.010Z</time>
      </trkpt>
      <trkpt lat="44.70609" lon="6.92863">
        <ele>2122.3104447569</ele>
        <time>2020-02-17T08:40:34.040Z</time>
      </trkpt>
      <trkpt lat="44.70599" lon="6.92868">
        <ele>2123.2939956644</ele>
        <time>2020-02-17T08:40:44.010Z</time>
      </trkpt>
      <trkpt lat="44.70592" lon="6.92877">
        <ele>2124.41799936</ele>
        <time>2020-02-17T08:40:55.010Z</time>
      </trkpt>
      <trkpt lat="44.70584" lon="6.92883">
        <ele>2125.4167489797</ele>
        <time>2020-02-17T08:41:05.010Z</time>
      </trkpt>
      <trkpt lat="44.70577" lon="6.92892">
        <ele>2126.0539441531</ele>
        <time>2020-02-17T08:41:21.010Z</time>
      </trkpt>
      <trkpt lat="44.70569" lon="6.92901">
        <ele>2128.7512477127</ele>
        <time>2020-02-17T08:41:30.010Z</time>
      </trkpt>
      <trkpt lat="44.7056" lon="6.92903">
        <ele>2129.9179173036</ele>
        <time>2020-02-17T08:41:40.010Z</time>
      </trkpt>
      <trkpt lat="44.70551" lon="6.9291">
        <ele>2130.71799936</ele>
        <time>2020-02-17T08:41:48.010Z</time>
      </trkpt>
      <trkpt lat="44.70545" lon="6.929">
        <ele>2131.1096021195</ele>
        <time>2020-02-17T08:42:40.010Z</time>
      </trkpt>
      <trkpt lat="44.70538" lon="6.92891">
        <ele>2131</ele>
        <time>2020-02-17T08:42:45.980Z</time>
      </trkpt>
      <trkpt lat="44.70548" lon="6.92895">
        <ele>2131</ele>
        <time>2020-02-17T08:43:38.980Z</time>
      </trkpt>
      <trkpt lat="44.7054" lon="6.92887">
        <ele>2131</ele>
        <time>2020-02-17T08:44:13.010Z</time>
      </trkpt>
      <trkpt lat="44.70549" lon="6.92894">
        <ele>2131</ele>
        <time>2020-02-17T08:46:40.140Z</time>
      </trkpt>
      <trkpt lat="44.70546" lon="6.92882">
        <ele>2136.0340333825</ele>
        <time>2020-02-17T08:48:51.010Z</time>
      </trkpt>
      <trkpt lat="44.70537" lon="6.9288">
        <ele>2138</ele>
        <time>2020-02-17T08:49:03.010Z</time>
      </trkpt>
      <trkpt lat="44.70528" lon="6.92883">
        <ele>2139.2344681462</ele>
        <time>2020-02-17T08:49:17.010Z</time>
      </trkpt>
      <trkpt lat="44.70519" lon="6.92888">
        <ele>2141.23599872</ele>
        <time>2020-02-17T08:49:32.010Z</time>
      </trkpt>
      <trkpt lat="44.7051" lon="6.92889">
        <ele>2143.4171652964</ele>
        <time>2020-02-17T08:49:45.010Z</time>
      </trkpt>
      <trkpt lat="44.70502" lon="6.92896">
        <ele>2145.6352694924</ele>
        <time>2020-02-17T08:49:59.010Z</time>
      </trkpt>
      <trkpt lat="44.70494" lon="6.92901">
        <ele>2146.7903373015</ele>
        <time>2020-02-17T08:50:09.010Z</time>
      </trkpt>
      <trkpt lat="44.70486" lon="6.92908">
        <ele>2148.43599872</ele>
        <time>2020-02-17T08:50:23.010Z</time>
      </trkpt>
      <trkpt lat="44.70484" lon="6.92922">
        <ele>2150.2324647808</ele>
        <time>2020-02-17T08:50:42.010Z</time>
      </trkpt>
      <trkpt lat="44.70479" lon="6.92911">
        <ele>2155.1171167593</ele>
        <time>2020-02-17T08:51:02.010Z</time>
      </trkpt>
      <trkpt lat="44.70479" lon="6.92897">
        <ele>2157.0160320538</ele>
        <time>2020-02-17T08:51:21.010Z</time>
      </trkpt>
      <trkpt lat="44.7048" lon="6.92884">
        <ele>2158.7172823072</ele>
        <time>2020-02-17T08:51:38.010Z</time>
      </trkpt>
      <trkpt lat="44.70471" lon="6.92882">
        <ele>2162.0320641077</ele>
        <time>2020-02-17T08:52:01.010Z</time>
      </trkpt>
      <trkpt lat="44.70463" lon="6.9289">
        <ele>2164.3173648335</ele>
        <time>2020-02-17T08:52:14.010Z</time>
      </trkpt>
      <trkpt lat="44.70454" lon="6.92892">
        <ele>2165.1162323904</ele>
        <time>2020-02-17T08:52:22.010Z</time>
      </trkpt>
      <trkpt lat="44.70445" lon="6.92895">
        <ele>2166.21799936</ele>
        <time>2020-02-17T08:52:33.010Z</time>
      </trkpt>
      <trkpt lat="44.70437" lon="6.92901">
        <ele>2167</ele>
        <time>2020-02-17T08:52:45.010Z</time>
      </trkpt>
      <trkpt lat="44.7043" lon="6.92909">
        <ele>2168</ele>
        <time>2020-02-17T08:53:10.010Z</time>
      </trkpt>
      <trkpt lat="44.70422" lon="6.92917">
        <ele>2169.9671479135</ele>
        <time>2020-02-17T08:53:21.010Z</time>
      </trkpt>
      <trkpt lat="44.70413" lon="6.92921">
        <ele>2171.23599872</ele>
        <time>2020-02-17T08:53:32.010Z</time>
      </trkpt>
      <trkpt lat="44.70413" lon="6.92907">
        <ele>2173.1171167593</ele>
        <time>2020-02-17T08:53:52.010Z</time>
      </trkpt>
      <trkpt lat="44.70417" lon="6.92895">
        <ele>2174.5164498452</ele>
        <time>2020-02-17T08:54:06.010Z</time>
      </trkpt>
      <trkpt lat="44.70413" lon="6.92883">
        <ele>2178.81799936</ele>
        <time>2020-02-17T08:54:49.010Z</time>
      </trkpt>
      <trkpt lat="44.70409" lon="6.92895">
        <ele>2181</ele>
        <time>2020-02-17T08:55:06.010Z</time>
      </trkpt>
      <trkpt lat="44.70401" lon="6.92904">
        <ele>2181.63599872</ele>
        <time>2020-02-17T08:55:14.010Z</time>
      </trkpt>
      <trkpt lat="44.70392" lon="6.92909">
        <ele>2183</ele>
        <time>2020-02-17T08:55:26.010Z</time>
      </trkpt>
      <trkpt lat="44.70389" lon="6.92922">
        <ele>2184</ele>
        <time>2020-02-17T08:55:42.010Z</time>
      </trkpt>
      <trkpt lat="44.70384" lon="6.92935">
        <ele>2185.5407840615</ele>
        <time>2020-02-17T08:55:56.010Z</time>
      </trkpt>
      <trkpt lat="44.70382" lon="6.92949">
        <ele>2187.2172168273</ele>
        <time>2020-02-17T08:56:03.010Z</time>
      </trkpt>
      <trkpt lat="44.70376" lon="6.9296">
        <ele>2188.51799936</ele>
        <time>2020-02-17T08:56:16.010Z</time>
      </trkpt>
      <trkpt lat="44.70368" lon="6.92966">
        <ele>2190.7756284878</ele>
        <time>2020-02-17T08:56:30.010Z</time>
      </trkpt>
      <trkpt lat="44.70361" lon="6.92959">
        <ele>2194.41799936</ele>
        <time>2020-02-17T08:56:55.010Z</time>
      </trkpt>
      <trkpt lat="44.7036" lon="6.92946">
        <ele>2196.4162479169</ele>
        <time>2020-02-17T08:57:15.010Z</time>
      </trkpt>
      <trkpt lat="44.70357" lon="6.92933">
        <ele>2198.4345646145</ele>
        <time>2020-02-17T08:57:28.010Z</time>
      </trkpt>
      <trkpt lat="44.70358" lon="6.9292">
        <ele>2199</ele>
        <time>2020-02-17T08:57:36.010Z</time>
      </trkpt>
      <trkpt lat="44.70365" lon="6.92905">
        <ele>2199</ele>
        <time>2020-02-17T08:57:40.010Z</time>
      </trkpt>
      <trkpt lat="44.70365" lon="6.92892">
        <ele>2199.41799936</ele>
        <time>2020-02-17T08:57:45.010Z</time>
      </trkpt>
      <trkpt lat="44.70359" lon="6.92901">
        <ele>2201.9178350828</ele>
        <time>2020-02-17T08:58:10.010Z</time>
      </trkpt>
      <trkpt lat="44.70354" lon="6.9289">
        <ele>2210.11799936</ele>
        <time>2020-02-17T08:59:12.010Z</time>
      </trkpt>
      <trkpt lat="44.70355" lon="6.92877">
        <ele>2211.91799936</ele>
        <time>2020-02-17T08:59:30.010Z</time>
      </trkpt>
      <trkpt lat="44.70346" lon="6.92884">
        <ele>2214.21799936</ele>
        <time>2020-02-17T08:59:53.010Z</time>
      </trkpt>
      <trkpt lat="44.70339" lon="6.92874">
        <ele>2218</ele>
        <time>2020-02-17T09:00:24.010Z</time>
      </trkpt>
      <trkpt lat="44.7033" lon="6.92879">
        <ele>2221.7177171675</ele>
        <time>2020-02-17T09:00:58.010Z</time>
      </trkpt>
      <trkpt lat="44.70327" lon="6.92891">
        <ele>2222</ele>
        <time>2020-02-17T09:01:09.010Z</time>
      </trkpt>
      <trkpt lat="44.70323" lon="6.92902">
        <ele>2223</ele>
        <time>2020-02-17T09:01:28.010Z</time>
      </trkpt>
      <trkpt lat="44.70313" lon="6.92901">
        <ele>2224</ele>
        <time>2020-02-17T09:01:47.010Z</time>
      </trkpt>
      <trkpt lat="44.7031" lon="6.92913">
        <ele>2224.41799936</ele>
        <time>2020-02-17T09:01:55.010Z</time>
      </trkpt>
      <trkpt lat="44.70304" lon="6.92925">
        <ele>2225</ele>
        <time>2020-02-17T09:02:05.010Z</time>
      </trkpt>
      <trkpt lat="44.703" lon="6.92938">
        <ele>2227.1141193743</ele>
        <time>2020-02-17T09:02:42.010Z</time>
      </trkpt>
      <trkpt lat="44.70291" lon="6.92942">
        <ele>2232.63599872</ele>
        <time>2020-02-17T09:03:29.010Z</time>
      </trkpt>
      <trkpt lat="44.70291" lon="6.92929">
        <ele>2234.9176700402</ele>
        <time>2020-02-17T09:03:50.010Z</time>
      </trkpt>
      <trkpt lat="44.70293" lon="6.92916">
        <ele>2236.71799936</ele>
        <time>2020-02-17T09:04:08.010Z</time>
      </trkpt>
      <trkpt lat="44.70287" lon="6.92905">
        <ele>2240.31799936</ele>
        <time>2020-02-17T09:04:34.010Z</time>
      </trkpt>
      <trkpt lat="44.7028" lon="6.92914">
        <ele>2243.5169657593</ele>
        <time>2020-02-17T09:04:56.010Z</time>
      </trkpt>
      <trkpt lat="44.70273" lon="6.92922">
        <ele>2244.8176347462</ele>
        <time>2020-02-17T09:05:09.010Z</time>
      </trkpt>
      <trkpt lat="44.70265" lon="6.92928">
        <ele>2246.63599872</ele>
        <time>2020-02-17T09:05:24.010Z</time>
      </trkpt>
      <trkpt lat="44.70264" lon="6.92916">
        <ele>2250.0173906806</ele>
        <time>2020-02-17T09:05:51.010Z</time>
      </trkpt>
      <trkpt lat="44.70255" lon="6.92912">
        <ele>2253.22099968</ele>
        <time>2020-02-17T09:06:33.040Z</time>
      </trkpt>
      <trkpt lat="44.70245" lon="6.92912">
        <ele>2254.5174820435</ele>
        <time>2020-02-17T09:06:46.010Z</time>
      </trkpt>
      <trkpt lat="44.70235" lon="6.92912">
        <ele>2260.3170481142</ele>
        <time>2020-02-17T09:07:24.010Z</time>
      </trkpt>
      <trkpt lat="44.70235" lon="6.92899">
        <ele>2263.83599872</ele>
        <time>2020-02-17T09:07:55.010Z</time>
      </trkpt>
      <trkpt lat="44.70228" lon="6.92909">
        <ele>2267.61799936</ele>
        <time>2020-02-17T09:08:27.010Z</time>
      </trkpt>
      <trkpt lat="44.70232" lon="6.92897">
        <ele>2270.6168497868</ele>
        <time>2020-02-17T09:08:57.010Z</time>
      </trkpt>
      <trkpt lat="44.70233" lon="6.92881">
        <ele>2271.21799936</ele>
        <time>2020-02-17T09:09:23.010Z</time>
      </trkpt>
      <trkpt lat="44.7023" lon="6.92869">
        <ele>2270.11799936</ele>
        <time>2020-02-17T09:10:02.010Z</time>
      </trkpt>
      <trkpt lat="44.70226" lon="6.92882">
        <ele>2271.31799936</ele>
        <time>2020-02-17T09:10:14.010Z</time>
      </trkpt>
      <trkpt lat="44.70232" lon="6.92893">
        <ele>2271.4829662634</ele>
        <time>2020-02-17T09:10:46.010Z</time>
      </trkpt>
      <trkpt lat="44.70233" lon="6.92905">
        <ele>2272</ele>
        <time>2020-02-17T09:11:11.010Z</time>
      </trkpt>
      <trkpt lat="44.70224" lon="6.92908">
        <ele>2275.03599872</ele>
        <time>2020-02-17T09:11:46.010Z</time>
      </trkpt>
      <trkpt lat="44.70219" lon="6.92899">
        <ele>2279.2947255281</ele>
        <time>2020-02-17T09:12:24.010Z</time>
      </trkpt>
      <trkpt lat="44.70222" lon="6.92885">
        <ele>2281.23599872</ele>
        <time>2020-02-17T09:12:37.010Z</time>
      </trkpt>
      <trkpt lat="44.70217" lon="6.92875">
        <ele>2284.43599872</ele>
        <time>2020-02-17T09:13:18.010Z</time>
      </trkpt>
      <trkpt lat="44.70219" lon="6.92862">
        <ele>2286.0160320538</ele>
        <time>2020-02-17T09:13:31.010Z</time>
      </trkpt>
      <trkpt lat="44.70213" lon="6.92874">
        <ele>2288</ele>
        <time>2020-02-17T09:14:06.010Z</time>
      </trkpt>
      <trkpt lat="44.70206" lon="6.92883">
        <ele>2291.72099968</ele>
        <time>2020-02-17T09:14:48.040Z</time>
      </trkpt>
      <trkpt lat="44.70199" lon="6.92892">
        <ele>2292.81799936</ele>
        <time>2020-02-17T09:14:59.010Z</time>
      </trkpt>
      <trkpt lat="44.70193" lon="6.92901">
        <ele>2294.11799936</ele>
        <time>2020-02-17T09:15:12.010Z</time>
      </trkpt>
      <trkpt lat="44.70186" lon="6.92911">
        <ele>2295.421662466</ele>
        <time>2020-02-17T09:15:23.010Z</time>
      </trkpt>
      <trkpt lat="44.70181" lon="6.92922">
        <ele>2297.708074065</ele>
        <time>2020-02-17T09:15:38.010Z</time>
      </trkpt>
      <trkpt lat="44.70173" lon="6.92927">
        <ele>2301.21799936</ele>
        <time>2020-02-17T09:16:03.010Z</time>
      </trkpt>
      <trkpt lat="44.70167" lon="6.92937">
        <ele>2303.0150441773</ele>
        <time>2020-02-17T09:16:21.010Z</time>
      </trkpt>
      <trkpt lat="44.70161" lon="6.92948">
        <ele>2305.0328996904</ele>
        <time>2020-02-17T09:16:36.010Z</time>
      </trkpt>
      <trkpt lat="44.70157" lon="6.92959">
        <ele>2308</ele>
        <time>2020-02-17T09:16:54.010Z</time>
      </trkpt>
      <trkpt lat="44.7015" lon="6.92951">
        <ele>2316.71799936</ele>
        <time>2020-02-17T09:17:48.010Z</time>
      </trkpt>
      <trkpt lat="44.70143" lon="6.92943">
        <ele>2322.4034742857</ele>
        <time>2020-02-17T09:18:35.010Z</time>
      </trkpt>
      <trkpt lat="44.70134" lon="6.92942">
        <ele>2326.0179455177</ele>
        <time>2020-02-17T09:19:11.010Z</time>
      </trkpt>
      <trkpt lat="44.70126" lon="6.92951">
        <ele>2327.6168497868</ele>
        <time>2020-02-17T09:19:27.010Z</time>
      </trkpt>
      <trkpt lat="44.70121" lon="6.9294">
        <ele>2333.31799936</ele>
        <time>2020-02-17T09:20:04.010Z</time>
      </trkpt>
      <trkpt lat="44.70112" lon="6.9294">
        <ele>2335.8173366515</ele>
        <time>2020-02-17T09:20:37.010Z</time>
      </trkpt>
      <trkpt lat="44.70108" lon="6.92952">
        <ele>2337.5164498452</ele>
        <time>2020-02-17T09:20:46.010Z</time>
      </trkpt>
      <trkpt lat="44.701" lon="6.92959">
        <ele>2339.2336995735</ele>
        <time>2020-02-17T09:20:57.010Z</time>
      </trkpt>
      <trkpt lat="44.70099" lon="6.92946">
        <ele>2342.9152533072</ele>
        <time>2020-02-17T09:21:30.010Z</time>
      </trkpt>
      <trkpt lat="44.70091" lon="6.92953">
        <ele>2346.43599872</ele>
        <time>2020-02-17T09:22:03.010Z</time>
      </trkpt>
      <trkpt lat="44.70084" lon="6.92962">
        <ele>2348.23599872</ele>
        <time>2020-02-17T09:22:22.010Z</time>
      </trkpt>
      <trkpt lat="44.70077" lon="6.9297">
        <ele>2350.3170481142</ele>
        <time>2020-02-17T09:22:34.010Z</time>
      </trkpt>
      <trkpt lat="44.70072" lon="6.92981">
        <ele>2352</ele>
        <time>2020-02-17T09:22:52.010Z</time>
      </trkpt>
      <trkpt lat="44.70064" lon="6.92987">
        <ele>2353.03599872</ele>
        <time>2020-02-17T09:23:06.010Z</time>
      </trkpt>
      <trkpt lat="44.70062" lon="6.93">
        <ele>2358.0179634446</ele>
        <time>2020-02-17T09:23:31.010Z</time>
      </trkpt>
      <trkpt lat="44.70052" lon="6.92998">
        <ele>2362.83399936</ele>
        <time>2020-02-17T09:24:10.010Z</time>
      </trkpt>
      <trkpt lat="44.70046" lon="6.92989">
        <ele>2364.7171507216</ele>
        <time>2020-02-17T09:24:28.010Z</time>
      </trkpt>
      <trkpt lat="44.70037" lon="6.9299">
        <ele>2367.01799936</ele>
        <time>2020-02-17T09:24:41.010Z</time>
      </trkpt>
      <trkpt lat="44.70037" lon="6.93003">
        <ele>2369.1942012926</ele>
        <time>2020-02-17T09:24:57.010Z</time>
      </trkpt>
      <trkpt lat="44.70035" lon="6.93016">
        <ele>2370.01799936</ele>
        <time>2020-02-17T09:25:11.010Z</time>
      </trkpt>
      <trkpt lat="44.7004" lon="6.93026">
        <ele>2371</ele>
        <time>2020-02-17T09:25:26.010Z</time>
      </trkpt>
      <trkpt lat="44.70037" lon="6.93013">
        <ele>2370</ele>
        <time>2020-02-17T09:26:39.010Z</time>
      </trkpt>
      <trkpt lat="44.70044" lon="6.93021">
        <ele>2370.81799936</ele>
        <time>2020-02-17T09:26:59.010Z</time>
      </trkpt>
      <trkpt lat="44.70046" lon="6.93034">
        <ele>2373.03599872</ele>
        <time>2020-02-17T09:28:26.010Z</time>
      </trkpt>
      <trkpt lat="44.70039" lon="6.93043">
        <ele>2375.03599872</ele>
        <time>2020-02-17T09:28:36.010Z</time>
      </trkpt>
      <trkpt lat="44.70027" lon="6.93044">
        <ele>2376.2271349621</ele>
        <time>2020-02-17T09:28:52.010Z</time>
      </trkpt>
      <trkpt lat="44.70021" lon="6.93053">
        <ele>2378.63599872</ele>
        <time>2020-02-17T09:29:04.010Z</time>
      </trkpt>
      <trkpt lat="44.70015" lon="6.93066">
        <ele>2380.5169657593</ele>
        <time>2020-02-17T09:29:16.010Z</time>
      </trkpt>
      <trkpt lat="44.70009" lon="6.93076">
        <ele>2381</ele>
        <time>2020-02-17T09:29:25.010Z</time>
      </trkpt>
      <trkpt lat="44.70003" lon="6.93085">
        <ele>2381.63599872</ele>
        <time>2020-02-17T09:29:34.010Z</time>
      </trkpt>
      <trkpt lat="44.69997" lon="6.93095">
        <ele>2383.41799936</ele>
        <time>2020-02-17T09:29:45.010Z</time>
      </trkpt>
      <trkpt lat="44.6999" lon="6.93105">
        <ele>2384.83599872</ele>
        <time>2020-02-17T09:29:55.010Z</time>
      </trkpt>
      <trkpt lat="44.69983" lon="6.93113">
        <ele>2386</ele>
        <time>2020-02-17T09:30:07.010Z</time>
      </trkpt>
      <trkpt lat="44.69976" lon="6.93121">
        <ele>2386.71799936</ele>
        <time>2020-02-17T09:30:18.010Z</time>
      </trkpt>
      <trkpt lat="44.6997" lon="6.93131">
        <ele>2390.217781648</ele>
        <time>2020-02-17T09:30:33.010Z</time>
      </trkpt>
      <trkpt lat="44.69966" lon="6.93142">
        <ele>2390</ele>
        <time>2020-02-17T09:31:13.040Z</time>
      </trkpt>
      <trkpt lat="44.69972" lon="6.93126">
        <ele>2390</ele>
        <time>2020-02-17T09:31:30.010Z</time>
      </trkpt>
      <trkpt lat="44.69973" lon="6.93112">
        <ele>2390</ele>
        <time>2020-02-17T09:32:01.010Z</time>
      </trkpt>
      <trkpt lat="44.69978" lon="6.93122">
        <ele>2391</ele>
        <time>2020-02-17T09:32:24.010Z</time>
      </trkpt>
      <trkpt lat="44.69969" lon="6.93126">
        <ele>2390</ele>
        <time>2020-02-17T09:33:03.010Z</time>
      </trkpt>
      <trkpt lat="44.69976" lon="6.93118">
        <ele>2392</ele>
        <time>2020-02-17T09:35:56.010Z</time>
      </trkpt>
      <trkpt lat="44.69967" lon="6.93121">
        <ele>2392</ele>
        <time>2020-02-17T09:36:41.010Z</time>
      </trkpt>
      <trkpt lat="44.69959" lon="6.93114">
        <ele>2395.01799936</ele>
        <time>2020-02-17T09:38:41.010Z</time>
      </trkpt>
      <trkpt lat="44.6995" lon="6.93118">
        <ele>2396.81799936</ele>
        <time>2020-02-17T09:38:59.010Z</time>
      </trkpt>
      <trkpt lat="44.69942" lon="6.93124">
        <ele>2398.01799936</ele>
        <time>2020-02-17T09:39:11.010Z</time>
      </trkpt>
      <trkpt lat="44.69933" lon="6.93128">
        <ele>2400.03599872</ele>
        <time>2020-02-17T09:39:26.010Z</time>
      </trkpt>
      <trkpt lat="44.69924" lon="6.9313">
        <ele>2401</ele>
        <time>2020-02-17T09:39:37.010Z</time>
      </trkpt>
      <trkpt lat="44.69915" lon="6.93135">
        <ele>2403.23599872</ele>
        <time>2020-02-17T09:39:52.010Z</time>
      </trkpt>
      <trkpt lat="44.69906" lon="6.93139">
        <ele>2406.91799936</ele>
        <time>2020-02-17T09:40:20.010Z</time>
      </trkpt>
      <trkpt lat="44.69898" lon="6.93131">
        <ele>2409.03599872</ele>
        <time>2020-02-17T09:40:36.010Z</time>
      </trkpt>
      <trkpt lat="44.69893" lon="6.93121">
        <ele>2412.0879003639</ele>
        <time>2020-02-17T09:40:52.010Z</time>
      </trkpt>
      <trkpt lat="44.69887" lon="6.93112">
        <ele>2414.23599872</ele>
        <time>2020-02-17T09:41:07.010Z</time>
      </trkpt>
      <trkpt lat="44.69878" lon="6.93113">
        <ele>2416.71799936</ele>
        <time>2020-02-17T09:41:28.010Z</time>
      </trkpt>
      <trkpt lat="44.69869" lon="6.93116">
        <ele>2418.43599872</ele>
        <time>2020-02-17T09:41:43.010Z</time>
      </trkpt>
      <trkpt lat="44.69859" lon="6.93117">
        <ele>2420.31799936</ele>
        <time>2020-02-17T09:41:54.010Z</time>
      </trkpt>
      <trkpt lat="44.6985" lon="6.9312">
        <ele>2421.21799936</ele>
        <time>2020-02-17T09:42:03.010Z</time>
      </trkpt>
      <trkpt lat="44.6984" lon="6.93122">
        <ele>2422.41799936</ele>
        <time>2020-02-17T09:42:15.010Z</time>
      </trkpt>
      <trkpt lat="44.69831" lon="6.9312">
        <ele>2425</ele>
        <time>2020-02-17T09:42:31.010Z</time>
      </trkpt>
      <trkpt lat="44.69822" lon="6.93119">
        <ele>2426.8355051829</ele>
        <time>2020-02-17T09:42:50.010Z</time>
      </trkpt>
      <trkpt lat="44.69812" lon="6.9312">
        <ele>2429.41799936</ele>
        <time>2020-02-17T09:43:05.010Z</time>
      </trkpt>
      <trkpt lat="44.69803" lon="6.93115">
        <ele>2431.2345913222</ele>
        <time>2020-02-17T09:43:22.010Z</time>
      </trkpt>
      <trkpt lat="44.69794" lon="6.93116">
        <ele>2433.1126759838</ele>
        <time>2020-02-17T09:43:32.010Z</time>
      </trkpt>
      <trkpt lat="44.69785" lon="6.93113">
        <ele>2435.03599872</ele>
        <time>2020-02-17T09:43:46.010Z</time>
      </trkpt>
      <trkpt lat="44.69777" lon="6.93106">
        <ele>2436.6950625193</ele>
        <time>2020-02-17T09:43:58.010Z</time>
      </trkpt>
      <trkpt lat="44.69777" lon="6.93092">
        <ele>2437.9183037292</ele>
        <time>2020-02-17T09:44:10.040Z</time>
      </trkpt>
      <trkpt lat="44.69768" lon="6.93087">
        <ele>2440.6343648781</ele>
        <time>2020-02-17T09:44:29.010Z</time>
      </trkpt>
      <trkpt lat="44.69759" lon="6.93082">
        <ele>2442.8324958339</ele>
        <time>2020-02-17T09:44:45.010Z</time>
      </trkpt>
      <trkpt lat="44.69752" lon="6.93073">
        <ele>2444.81799936</ele>
        <time>2020-02-17T09:44:59.010Z</time>
      </trkpt>
      <trkpt lat="44.69743" lon="6.9307">
        <ele>2447.31799936</ele>
        <time>2020-02-17T09:45:14.010Z</time>
      </trkpt>
      <trkpt lat="44.69735" lon="6.93065">
        <ele>2448.91799936</ele>
        <time>2020-02-17T09:45:30.010Z</time>
      </trkpt>
      <trkpt lat="44.69725" lon="6.93064">
        <ele>2451.2165664086</ele>
        <time>2020-02-17T09:45:43.010Z</time>
      </trkpt>
      <trkpt lat="44.69716" lon="6.93068">
        <ele>2453.8355051829</ele>
        <time>2020-02-17T09:46:00.010Z</time>
      </trkpt>
      <trkpt lat="44.69708" lon="6.93076">
        <ele>2455.8334979594</ele>
        <time>2020-02-17T09:46:15.010Z</time>
      </trkpt>
      <trkpt lat="44.697" lon="6.9308">
        <ele>2457.8174516566</ele>
        <time>2020-02-17T09:46:29.010Z</time>
      </trkpt>
      <trkpt lat="44.69691" lon="6.93086">
        <ele>2460</ele>
        <time>2020-02-17T09:48:03.010Z</time>
      </trkpt>
      <trkpt lat="44.697" lon="6.93085">
        <ele>2460</ele>
        <time>2020-02-17T09:49:17.010Z</time>
      </trkpt>
      <trkpt lat="44.69691" lon="6.93084">
        <ele>2464.1965141364</ele>
        <time>2020-02-17T09:50:17.010Z</time>
      </trkpt>
      <trkpt lat="44.69686" lon="6.93095">
        <ele>2467.1251275698</ele>
        <time>2020-02-17T09:50:28.010Z</time>
      </trkpt>
      <trkpt lat="44.69678" lon="6.93102">
        <ele>2469.83599872</ele>
        <time>2020-02-17T09:50:40.010Z</time>
      </trkpt>
      <trkpt lat="44.6967" lon="6.93108">
        <ele>2470.2173472487</ele>
        <time>2020-02-17T09:50:53.010Z</time>
      </trkpt>
      <trkpt lat="44.69662" lon="6.93102">
        <ele>2473.63599872</ele>
        <time>2020-02-17T09:51:14.010Z</time>
      </trkpt>
      <trkpt lat="44.69655" lon="6.93093">
        <ele>2475.7172823072</ele>
        <time>2020-02-17T09:51:28.010Z</time>
      </trkpt>
      <trkpt lat="44.69646" lon="6.93094">
        <ele>2478.31799936</ele>
        <time>2020-02-17T09:51:44.010Z</time>
      </trkpt>
      <trkpt lat="44.6964" lon="6.93106">
        <ele>2479.6161507107</ele>
        <time>2020-02-17T09:51:57.010Z</time>
      </trkpt>
      <trkpt lat="44.69634" lon="6.93117">
        <ele>2482.21799936</ele>
        <time>2020-02-17T09:52:13.010Z</time>
      </trkpt>
      <trkpt lat="44.69628" lon="6.93127">
        <ele>2483.7172823072</ele>
        <time>2020-02-17T09:52:28.010Z</time>
      </trkpt>
      <trkpt lat="44.69619" lon="6.93132">
        <ele>2485.11799936</ele>
        <time>2020-02-17T09:52:42.010Z</time>
      </trkpt>
      <trkpt lat="44.69611" lon="6.93137">
        <ele>2486.51799936</ele>
        <time>2020-02-17T09:52:56.010Z</time>
      </trkpt>
      <trkpt lat="44.69601" lon="6.93139">
        <ele>2489.1171167593</ele>
        <time>2020-02-17T09:53:12.010Z</time>
      </trkpt>
      <trkpt lat="44.69591" lon="6.93141">
        <ele>2491.213938498</ele>
        <time>2020-02-17T09:53:25.010Z</time>
      </trkpt>
      <trkpt lat="44.69587" lon="6.9313">
        <ele>2494.8304020416</ele>
        <time>2020-02-17T09:53:40.010Z</time>
      </trkpt>
      <trkpt lat="44.69584" lon="6.93118">
        <ele>2497</ele>
        <time>2020-02-17T09:53:53.010Z</time>
      </trkpt>
      <trkpt lat="44.69576" lon="6.93111">
        <ele>2498.4317031524</ele>
        <time>2020-02-17T09:54:08.010Z</time>
      </trkpt>
      <trkpt lat="44.69571" lon="6.931">
        <ele>2501</ele>
        <time>2020-02-17T09:54:23.010Z</time>
      </trkpt>
      <trkpt lat="44.69562" lon="6.93095">
        <ele>2502.2335324446</ele>
        <time>2020-02-17T09:54:37.010Z</time>
      </trkpt>
      <trkpt lat="44.69553" lon="6.93091">
        <ele>2504.01799936</ele>
        <time>2020-02-17T09:54:51.010Z</time>
      </trkpt>
      <trkpt lat="44.69545" lon="6.93096">
        <ele>2505</ele>
        <time>2020-02-17T09:55:12.010Z</time>
      </trkpt>
      <trkpt lat="44.69554" lon="6.93094">
        <ele>2505</ele>
        <time>2020-02-17T09:55:26.010Z</time>
      </trkpt>
      <trkpt lat="44.69548" lon="6.93105">
        <ele>2506.3176817799</ele>
        <time>2020-02-17T09:55:54.010Z</time>
      </trkpt>
      <trkpt lat="44.69539" lon="6.93109">
        <ele>2507.5175170314</ele>
        <time>2020-02-17T09:56:06.010Z</time>
      </trkpt>
      <trkpt lat="44.69529" lon="6.93115">
        <ele>2511.31799936</ele>
        <time>2020-02-17T09:56:24.010Z</time>
      </trkpt>
      <trkpt lat="44.6952" lon="6.93119">
        <ele>2513.7773468429</ele>
        <time>2020-02-17T09:56:40.010Z</time>
      </trkpt>
      <trkpt lat="44.69511" lon="6.93122">
        <ele>2515.43599872</ele>
        <time>2020-02-17T09:56:58.010Z</time>
      </trkpt>
      <trkpt lat="44.69502" lon="6.93126">
        <ele>2517.61799936</ele>
        <time>2020-02-17T09:57:17.010Z</time>
      </trkpt>
      <trkpt lat="44.69493" lon="6.9313">
        <ele>2519.8341651418</ele>
        <time>2020-02-17T09:57:30.010Z</time>
      </trkpt>
      <trkpt lat="44.69485" lon="6.93124">
        <ele>2521.83599872</ele>
        <time>2020-02-17T09:57:45.010Z</time>
      </trkpt>
      <trkpt lat="44.69476" lon="6.93118">
        <ele>2524.23599872</ele>
        <time>2020-02-17T09:57:57.010Z</time>
      </trkpt>
      <trkpt lat="44.69467" lon="6.93121">
        <ele>2525.8178172355</ele>
        <time>2020-02-17T09:58:19.010Z</time>
      </trkpt>
      <trkpt lat="44.6946" lon="6.93128">
        <ele>2526.91799936</ele>
        <time>2020-02-17T09:58:30.010Z</time>
      </trkpt>
      <trkpt lat="44.69451" lon="6.93134">
        <ele>2529.2091375017</ele>
        <time>2020-02-17T09:58:42.010Z</time>
      </trkpt>
      <trkpt lat="44.69442" lon="6.93135">
        <ele>2533.2514958892</ele>
        <time>2020-02-17T09:59:05.010Z</time>
      </trkpt>
      <trkpt lat="44.69435" lon="6.93126">
        <ele>2535.7167164871</ele>
        <time>2020-02-17T09:59:18.010Z</time>
      </trkpt>
      <trkpt lat="44.69429" lon="6.93117">
        <ele>2538.21799936</ele>
        <time>2020-02-17T09:59:33.010Z</time>
      </trkpt>
      <trkpt lat="44.69437" lon="6.93111">
        <ele>2538.91799936</ele>
        <time>2020-02-17T09:59:40.010Z</time>
      </trkpt>
      <trkpt lat="44.69431" lon="6.93101">
        <ele>2541.41799936</ele>
        <time>2020-02-17T10:00:05.010Z</time>
      </trkpt>
      <trkpt lat="44.69422" lon="6.93103">
        <ele>2543.0179455177</ele>
        <time>2020-02-17T10:00:21.010Z</time>
      </trkpt>
      <trkpt lat="44.69417" lon="6.93116">
        <ele>2546.4523549697</ele>
        <time>2020-02-17T10:00:39.010Z</time>
      </trkpt>
      <trkpt lat="44.6941" lon="6.93124">
        <ele>2547.81799936</ele>
        <time>2020-02-17T10:00:49.010Z</time>
      </trkpt>
      <trkpt lat="44.694" lon="6.93126">
        <ele>2549.23599872</ele>
        <time>2020-02-17T10:01:02.010Z</time>
      </trkpt>
      <trkpt lat="44.69397" lon="6.93114">
        <ele>2552.8521465262</ele>
        <time>2020-02-17T10:01:17.010Z</time>
      </trkpt>
      <trkpt lat="44.6939" lon="6.93107">
        <ele>2555.51799936</ele>
        <time>2020-02-17T10:01:36.010Z</time>
      </trkpt>
      <trkpt lat="44.69381" lon="6.93111">
        <ele>2557.2073157724</ele>
        <time>2020-02-17T10:01:52.010Z</time>
      </trkpt>
      <trkpt lat="44.69373" lon="6.93118">
        <ele>2559.61799936</ele>
        <time>2020-02-17T10:02:07.010Z</time>
      </trkpt>
      <trkpt lat="44.69368" lon="6.93102">
        <ele>2561</ele>
        <time>2020-02-17T10:03:04.010Z</time>
      </trkpt>
      <trkpt lat="44.69364" lon="6.93115">
        <ele>2562.81799936</ele>
        <time>2020-02-17T10:03:39.010Z</time>
      </trkpt>
      <trkpt lat="44.69355" lon="6.93113">
        <ele>2564</ele>
        <time>2020-02-17T10:04:37.010Z</time>
      </trkpt>
      <trkpt lat="44.69347" lon="6.93105">
        <ele>2566.83599872</ele>
        <time>2020-02-17T10:05:10.010Z</time>
      </trkpt>
      <trkpt lat="44.69338" lon="6.93104">
        <ele>2568.4355632961</ele>
        <time>2020-02-17T10:05:23.010Z</time>
      </trkpt>
      <trkpt lat="44.69329" lon="6.93102">
        <ele>2570</ele>
        <time>2020-02-17T10:05:38.010Z</time>
      </trkpt>
      <trkpt lat="44.69321" lon="6.93096">
        <ele>2573.23599872</ele>
        <time>2020-02-17T10:05:52.010Z</time>
      </trkpt>
      <trkpt lat="44.69311" lon="6.93092">
        <ele>2575.5014516171</ele>
        <time>2020-02-17T10:06:06.010Z</time>
      </trkpt>
      <trkpt lat="44.69302" lon="6.93089">
        <ele>2576</ele>
        <time>2020-02-17T10:06:20.010Z</time>
      </trkpt>
      <trkpt lat="44.69294" lon="6.93081">
        <ele>2578.4355632961</ele>
        <time>2020-02-17T10:06:33.010Z</time>
      </trkpt>
      <trkpt lat="44.69286" lon="6.93074">
        <ele>2580.4174169634</ele>
        <time>2020-02-17T10:06:45.010Z</time>
      </trkpt>
      <trkpt lat="44.69278" lon="6.93067">
        <ele>2581.05399808</ele>
        <time>2020-02-17T10:07:01.010Z</time>
      </trkpt>
      <trkpt lat="44.69269" lon="6.93064">
        <ele>2584.63599872</ele>
        <time>2020-02-17T10:07:14.010Z</time>
      </trkpt>
      <trkpt lat="44.69262" lon="6.93056">
        <ele>2587.1027463348</ele>
        <time>2020-02-17T10:07:32.010Z</time>
      </trkpt>
      <trkpt lat="44.69254" lon="6.93048">
        <ele>2588.51799936</ele>
        <time>2020-02-17T10:07:46.010Z</time>
      </trkpt>
      <trkpt lat="44.69247" lon="6.93039">
        <ele>2589.81799936</ele>
        <time>2020-02-17T10:07:59.010Z</time>
      </trkpt>
      <trkpt lat="44.69241" lon="6.93029">
        <ele>2592</ele>
        <time>2020-02-17T10:08:11.010Z</time>
      </trkpt>
      <trkpt lat="44.69232" lon="6.93024">
        <ele>2592.83599872</ele>
        <time>2020-02-17T10:08:25.010Z</time>
      </trkpt>
      <trkpt lat="44.69237" lon="6.93011">
        <ele>2597.71799936</ele>
        <time>2020-02-17T10:08:48.010Z</time>
      </trkpt>
      <trkpt lat="44.69231" lon="6.92999">
        <ele>2598.412</ele>
        <time>2020-02-17T10:08:54.950Z</time>
      </trkpt>
      <trkpt lat="44.69222" lon="6.92993">
        <ele>2600.6144913269</ele>
        <time>2020-02-17T10:09:14.010Z</time>
      </trkpt>
      <trkpt lat="44.69212" lon="6.92992">
        <ele>2602.3968903285</ele>
        <time>2020-02-17T10:09:25.010Z</time>
      </trkpt>
      <trkpt lat="44.69203" lon="6.92992">
        <ele>2603</ele>
        <time>2020-02-17T10:09:38.010Z</time>
      </trkpt>
      <trkpt lat="44.69194" lon="6.92994">
        <ele>2605.11799936</ele>
        <time>2020-02-17T10:09:52.010Z</time>
      </trkpt>
      <trkpt lat="44.69185" lon="6.93">
        <ele>2606.23599872</ele>
        <time>2020-02-17T10:10:02.010Z</time>
      </trkpt>
      <trkpt lat="44.69177" lon="6.93008">
        <ele>2609.03599872</ele>
        <time>2020-02-17T10:10:16.010Z</time>
      </trkpt>
      <trkpt lat="44.69168" lon="6.93014">
        <ele>2611.43599872</ele>
        <time>2020-02-17T10:10:33.010Z</time>
      </trkpt>
      <trkpt lat="44.69162" lon="6.93023">
        <ele>2613</ele>
        <time>2020-02-17T10:10:49.010Z</time>
      </trkpt>
      <trkpt lat="44.69156" lon="6.93032">
        <ele>2614.4312920943</ele>
        <time>2020-02-17T10:11:03.010Z</time>
      </trkpt>
      <trkpt lat="44.69147" lon="6.93029">
        <ele>2617.23599872</ele>
        <time>2020-02-17T10:11:17.010Z</time>
      </trkpt>
      <trkpt lat="44.69141" lon="6.93019">
        <ele>2619.43599872</ele>
        <time>2020-02-17T10:11:28.010Z</time>
      </trkpt>
      <trkpt lat="44.69135" lon="6.93009">
        <ele>2621.31799936</ele>
        <time>2020-02-17T10:11:44.010Z</time>
      </trkpt>
      <trkpt lat="44.69128" lon="6.92999">
        <ele>2622.91799936</ele>
        <time>2020-02-17T10:12:00.010Z</time>
      </trkpt>
      <trkpt lat="44.69121" lon="6.92991">
        <ele>2625.31799936</ele>
        <time>2020-02-17T10:12:14.010Z</time>
      </trkpt>
      <trkpt lat="44.69115" lon="6.92981">
        <ele>2626.8886734215</ele>
        <time>2020-02-17T10:12:30.010Z</time>
      </trkpt>
      <trkpt lat="44.69109" lon="6.9297">
        <ele>2629.23599872</ele>
        <time>2020-02-17T10:12:47.010Z</time>
      </trkpt>
      <trkpt lat="44.691" lon="6.92972">
        <ele>2632.1162323904</ele>
        <time>2020-02-17T10:13:02.010Z</time>
      </trkpt>
      <trkpt lat="44.69091" lon="6.92967">
        <ele>2634.83599872</ele>
        <time>2020-02-17T10:13:20.010Z</time>
      </trkpt>
      <trkpt lat="44.69083" lon="6.92961">
        <ele>2636</ele>
        <time>2020-02-17T10:13:33.010Z</time>
      </trkpt>
      <trkpt lat="44.69075" lon="6.92957">
        <ele>2638.43599872</ele>
        <time>2020-02-17T10:13:53.010Z</time>
      </trkpt>
      <trkpt lat="44.69065" lon="6.92959">
        <ele>2640.6161507107</ele>
        <time>2020-02-17T10:14:07.010Z</time>
      </trkpt>
      <trkpt lat="44.69056" lon="6.92963">
        <ele>2643.25399808</ele>
        <time>2020-02-17T10:14:25.010Z</time>
      </trkpt>
      <trkpt lat="44.69053" lon="6.92975">
        <ele>2645.8171824391</ele>
        <time>2020-02-17T10:14:39.010Z</time>
      </trkpt>
      <trkpt lat="44.69056" lon="6.92987">
        <ele>2648.23599872</ele>
        <time>2020-02-17T10:14:52.010Z</time>
      </trkpt>
      <trkpt lat="44.69056" lon="6.93">
        <ele>2650.105476605</ele>
        <time>2020-02-17T10:15:12.010Z</time>
      </trkpt>
      <trkpt lat="44.69048" lon="6.93007">
        <ele>2651.51799936</ele>
        <time>2020-02-17T10:15:26.010Z</time>
      </trkpt>
      <trkpt lat="44.69039" lon="6.9301">
        <ele>2653.5015506924</ele>
        <time>2020-02-17T10:15:46.010Z</time>
      </trkpt>
      <trkpt lat="44.69031" lon="6.93018">
        <ele>2658</ele>
        <time>2020-02-17T10:16:01.010Z</time>
      </trkpt>
      <trkpt lat="44.69025" lon="6.93008">
        <ele>2660.2156460472</ele>
        <time>2020-02-17T10:16:23.010Z</time>
      </trkpt>
      <trkpt lat="44.69019" lon="6.92997">
        <ele>2662.83599872</ele>
        <time>2020-02-17T10:16:40.010Z</time>
      </trkpt>
      <trkpt lat="44.69013" lon="6.92988">
        <ele>2664.03599872</ele>
        <time>2020-02-17T10:16:56.010Z</time>
      </trkpt>
      <trkpt lat="44.69005" lon="6.92981">
        <ele>2665.4162479169</ele>
        <time>2020-02-17T10:17:15.010Z</time>
      </trkpt>
      <trkpt lat="44.68997" lon="6.92976">
        <ele>2668.45399808</ele>
        <time>2020-02-17T10:17:29.010Z</time>
      </trkpt>
      <trkpt lat="44.68989" lon="6.92969">
        <ele>2672.03599872</ele>
        <time>2020-02-17T10:17:51.010Z</time>
      </trkpt>
      <trkpt lat="44.68982" lon="6.9296">
        <ele>2674.3176817799</ele>
        <time>2020-02-17T10:18:04.010Z</time>
      </trkpt>
      <trkpt lat="44.68976" lon="6.9295">
        <ele>2675</ele>
        <time>2020-02-17T10:18:19.010Z</time>
      </trkpt>
      <trkpt lat="44.68967" lon="6.92957">
        <ele>2680.7739112583</ele>
        <time>2020-02-17T10:18:50.010Z</time>
      </trkpt>
      <trkpt lat="44.68963" lon="6.92968">
        <ele>2682.91799936</ele>
        <time>2020-02-17T10:19:10.010Z</time>
      </trkpt>
      <trkpt lat="44.68956" lon="6.92976">
        <ele>2683.8176347462</ele>
        <time>2020-02-17T10:19:29.010Z</time>
      </trkpt>
      <trkpt lat="44.6895" lon="6.92986">
        <ele>2686.435434335</ele>
        <time>2020-02-17T10:19:48.010Z</time>
      </trkpt>
      <trkpt lat="44.68944" lon="6.92996">
        <ele>2688.0320641077</ele>
        <time>2020-02-17T10:20:01.010Z</time>
      </trkpt>
      <trkpt lat="44.6894" lon="6.93009">
        <ele>2690.6167662223</ele>
        <time>2020-02-17T10:20:17.010Z</time>
      </trkpt>
      <trkpt lat="44.68933" lon="6.93">
        <ele>2695.11799936</ele>
        <time>2020-02-17T10:20:52.010Z</time>
      </trkpt>
      <trkpt lat="44.68931" lon="6.92986">
        <ele>2697.11799936</ele>
        <time>2020-02-17T10:21:12.010Z</time>
      </trkpt>
      <trkpt lat="44.68927" lon="6.92974">
        <ele>2699.03599872</ele>
        <time>2020-02-17T10:21:26.010Z</time>
      </trkpt>
      <trkpt lat="44.68924" lon="6.92962">
        <ele>2701.21799936</ele>
        <time>2020-02-17T10:21:43.010Z</time>
      </trkpt>
      <trkpt lat="44.68927" lon="6.9295">
        <ele>2702.5971006463</ele>
        <time>2020-02-17T10:21:57.010Z</time>
      </trkpt>
      <trkpt lat="44.68931" lon="6.92939">
        <ele>2704.4155425212</ele>
        <time>2020-02-17T10:22:08.010Z</time>
      </trkpt>
      <trkpt lat="44.68933" lon="6.92925">
        <ele>2706</ele>
        <time>2020-02-17T10:22:21.010Z</time>
      </trkpt>
      <trkpt lat="44.68917" lon="6.9292">
        <ele>2707.6024577049</ele>
        <time>2020-02-17T10:22:44.010Z</time>
      </trkpt>
      <trkpt lat="44.68907" lon="6.92916">
        <ele>2708.2172118033</ele>
        <time>2020-02-17T10:22:47.010Z</time>
      </trkpt>
      <trkpt lat="44.68898" lon="6.92912">
        <ele>2710.03599872</ele>
        <time>2020-02-17T10:22:56.010Z</time>
      </trkpt>
      <trkpt lat="44.68889" lon="6.92916">
        <ele>2711.81799936</ele>
        <time>2020-02-17T10:23:09.010Z</time>
      </trkpt>
      <trkpt lat="44.68899" lon="6.92925">
        <ele>2712.21799936</ele>
        <time>2020-02-17T10:23:13.010Z</time>
      </trkpt>
      <trkpt lat="44.68894" lon="6.92937">
        <ele>2712.91799936</ele>
        <time>2020-02-17T10:23:20.010Z</time>
      </trkpt>
      <trkpt lat="44.68891" lon="6.9295">
        <ele>2714.3536445486</ele>
        <time>2020-02-17T10:23:32.010Z</time>
      </trkpt>
      <trkpt lat="44.68887" lon="6.92962">
        <ele>2718.6164652209</ele>
        <time>2020-02-17T10:23:57.010Z</time>
      </trkpt>
      <trkpt lat="44.68884" lon="6.92974">
        <ele>2720.23599872</ele>
        <time>2020-02-17T10:24:12.010Z</time>
      </trkpt>
      <trkpt lat="44.6888" lon="6.92986">
        <ele>2722.7172823072</ele>
        <time>2020-02-17T10:24:28.010Z</time>
      </trkpt>
      <trkpt lat="44.68873" lon="6.92996">
        <ele>2723.63599872</ele>
        <time>2020-02-17T10:24:44.010Z</time>
      </trkpt>
      <trkpt lat="44.68867" lon="6.93006">
        <ele>2725.61799936</ele>
        <time>2020-02-17T10:24:57.010Z</time>
      </trkpt>
      <trkpt lat="44.68862" lon="6.93017">
        <ele>2729.745339796</ele>
        <time>2020-02-17T10:25:20.010Z</time>
      </trkpt>
      <trkpt lat="44.68855" lon="6.93025">
        <ele>2732.0328996904</ele>
        <time>2020-02-17T10:25:46.010Z</time>
      </trkpt>
      <trkpt lat="44.68852" lon="6.93038">
        <ele>2735.63599872</ele>
        <time>2020-02-17T10:26:09.010Z</time>
      </trkpt>
      <trkpt lat="44.68843" lon="6.93039">
        <ele>2739</ele>
        <time>2020-02-17T10:26:31.010Z</time>
      </trkpt>
      <trkpt lat="44.68835" lon="6.93031">
        <ele>2742</ele>
        <time>2020-02-17T10:26:53.010Z</time>
      </trkpt>
      <trkpt lat="44.68828" lon="6.93023">
        <ele>2743.11799936</ele>
        <time>2020-02-17T10:27:12.010Z</time>
      </trkpt>
      <trkpt lat="44.68822" lon="6.93013">
        <ele>2744.51799936</ele>
        <time>2020-02-17T10:27:26.010Z</time>
      </trkpt>
      <trkpt lat="44.6882" lon="6.93001">
        <ele>2747</ele>
        <time>2020-02-17T10:27:45.010Z</time>
      </trkpt>
      <trkpt lat="44.68811" lon="6.93004">
        <ele>2750</ele>
        <time>2020-02-17T10:28:13.010Z</time>
      </trkpt>
      <trkpt lat="44.68804" lon="6.93013">
        <ele>2750.6049632745</ele>
        <time>2020-02-17T10:28:27.010Z</time>
      </trkpt>
      <trkpt lat="44.68796" lon="6.9302">
        <ele>2753.45399808</ele>
        <time>2020-02-17T10:28:39.010Z</time>
      </trkpt>
      <trkpt lat="44.68789" lon="6.93028">
        <ele>2754.81799936</ele>
        <time>2020-02-17T10:28:49.010Z</time>
      </trkpt>
      <trkpt lat="44.6879" lon="6.93011">
        <ele>2756.7171507216</ele>
        <time>2020-02-17T10:29:08.010Z</time>
      </trkpt>
      <trkpt lat="44.6879" lon="6.93025">
        <ele>2759.63599872</ele>
        <time>2020-02-17T10:29:29.010Z</time>
      </trkpt>
      <trkpt lat="44.68786" lon="6.93037">
        <ele>2760.91799936</ele>
        <time>2020-02-17T10:29:40.010Z</time>
      </trkpt>
      <trkpt lat="44.68777" lon="6.9304">
        <ele>2764.24199936</ele>
        <time>2020-02-17T10:30:07.040Z</time>
      </trkpt>
      <trkpt lat="44.68768" lon="6.93041">
        <ele>2772.1141193743</ele>
        <time>2020-02-17T10:31:22.010Z</time>
      </trkpt>
      <trkpt lat="44.6876" lon="6.93032">
        <ele>2774</ele>
        <time>2020-02-17T10:32:12.010Z</time>
      </trkpt>
      <trkpt lat="44.68767" lon="6.93042">
        <ele>2773.6318939641</ele>
        <time>2020-02-17T10:32:44.010Z</time>
      </trkpt>
      <trkpt lat="44.68758" lon="6.93035">
        <ele>2774</ele>
        <time>2020-02-17T10:33:22.010Z</time>
      </trkpt>
      <trkpt lat="44.68756" lon="6.93048">
        <ele>2773.81799936</ele>
        <time>2020-02-17T10:37:09.010Z</time>
      </trkpt>
      <trkpt lat="44.68754" lon="6.93061">
        <ele>2774.0522730849</ele>
        <time>2020-02-17T10:37:41.010Z</time>
      </trkpt>
      <trkpt lat="44.68751" lon="6.93074">
        <ele>2778.5925524409</ele>
        <time>2020-02-17T10:37:55.010Z</time>
      </trkpt>
      <trkpt lat="44.68759" lon="6.9308">
        <ele>2779</ele>
        <time>2020-02-17T10:40:25.010Z</time>
      </trkpt>
      <trkpt lat="44.68766" lon="6.93089">
        <ele>2782.91799936</ele>
        <time>2020-02-17T10:41:20.010Z</time>
      </trkpt>
      <trkpt lat="44.68771" lon="6.93101">
        <ele>2783.882470757</ele>
        <time>2020-02-17T10:41:32.010Z</time>
      </trkpt>
      <trkpt lat="44.68777" lon="6.9311">
        <ele>2784.63599872</ele>
        <time>2020-02-17T10:41:54.010Z</time>
      </trkpt>
      <trkpt lat="44.68785" lon="6.93118">
        <ele>2784.3656351219</ele>
        <time>2020-02-17T10:42:09.010Z</time>
      </trkpt>
      <trkpt lat="44.68793" lon="6.93124">
        <ele>2784</ele>
        <time>2020-02-17T10:42:21.010Z</time>
      </trkpt>
      <trkpt lat="44.68799" lon="6.93136">
        <ele>2784</ele>
        <time>2020-02-17T10:42:28.010Z</time>
      </trkpt>
      <trkpt lat="44.68805" lon="6.93146">
        <ele>2783.38200064</ele>
        <time>2020-02-17T10:42:37.010Z</time>
      </trkpt>
      <trkpt lat="44.68809" lon="6.93157">
        <ele>2783.51799936</ele>
        <time>2020-02-17T10:42:46.010Z</time>
      </trkpt>
      <trkpt lat="44.68811" lon="6.93171">
        <ele>2784</ele>
        <time>2020-02-17T10:42:56.010Z</time>
      </trkpt>
      <trkpt lat="44.68812" lon="6.93184">
        <ele>2783.0349640871</ele>
        <time>2020-02-17T10:43:26.010Z</time>
      </trkpt>
      <trkpt lat="44.68818" lon="6.93194">
        <ele>2784.5175170314</ele>
        <time>2020-02-17T10:43:36.010Z</time>
      </trkpt>
      <trkpt lat="44.68824" lon="6.93204">
        <ele>2783.96400128</ele>
        <time>2020-02-17T10:43:56.010Z</time>
      </trkpt>
      <trkpt lat="44.68815" lon="6.93199">
        <ele>2782</ele>
        <time>2020-02-17T10:45:16.010Z</time>
      </trkpt>
      <trkpt lat="44.68824" lon="6.93202">
        <ele>2779.1828175609</ele>
        <time>2020-02-17T10:46:59.010Z</time>
      </trkpt>
      <trkpt lat="44.6883" lon="6.93212">
        <ele>2778</ele>
        <time>2020-02-17T10:47:38.010Z</time>
      </trkpt>
      <trkpt lat="44.68829" lon="6.93226">
        <ele>2780.2175643705</ele>
        <time>2020-02-17T10:48:03.010Z</time>
      </trkpt>
      <trkpt lat="44.68836" lon="6.93233">
        <ele>2782</ele>
        <time>2020-02-17T10:48:39.010Z</time>
      </trkpt>
      <trkpt lat="44.68842" lon="6.93243">
        <ele>2784</ele>
        <time>2020-02-17T10:50:20.010Z</time>
      </trkpt>
      <trkpt lat="44.68842" lon="6.93257">
        <ele>2788</ele>
        <time>2020-02-17T10:50:52.010Z</time>
      </trkpt>
      <trkpt lat="44.68847" lon="6.93267">
        <ele>2795.61799936</ele>
        <time>2020-02-17T10:51:57.010Z</time>
      </trkpt>
      <trkpt lat="44.68851" lon="6.93279">
        <ele>2797.3826178246</ele>
        <time>2020-02-17T10:52:57.010Z</time>
      </trkpt>
      <trkpt lat="44.68854" lon="6.93292">
        <ele>2800.23599872</ele>
        <time>2020-02-17T10:53:52.010Z</time>
      </trkpt>
      <trkpt lat="44.68856" lon="6.93304">
        <ele>2802</ele>
        <time>2020-02-17T10:54:01.010Z</time>
      </trkpt>
      <trkpt lat="44.68858" lon="6.93317">
        <ele>2802</ele>
        <time>2020-02-17T10:54:11.010Z</time>
      </trkpt>
      <trkpt lat="44.68857" lon="6.9333">
        <ele>2801.64600192</ele>
        <time>2020-02-17T10:54:22.010Z</time>
      </trkpt>
      <trkpt lat="44.68861" lon="6.93342">
        <ele>2798.78200064</ele>
        <time>2020-02-17T10:54:43.010Z</time>
      </trkpt>
      <trkpt lat="44.68865" lon="6.93353">
        <ele>2799</ele>
        <time>2020-02-17T10:55:21.010Z</time>
      </trkpt>
      <trkpt lat="44.68867" lon="6.93339">
        <ele>2799</ele>
        <time>2020-02-17T10:55:41.010Z</time>
      </trkpt>
      <trkpt lat="44.68876" lon="6.93345">
        <ele>2799</ele>
        <time>2020-02-17T10:55:54.010Z</time>
      </trkpt>
      <trkpt lat="44.68883" lon="6.93355">
        <ele>2799</ele>
        <time>2020-02-17T10:56:01.010Z</time>
      </trkpt>
      <trkpt lat="44.68884" lon="6.93368">
        <ele>2799.0170166912</ele>
        <time>2020-02-17T10:56:11.010Z</time>
      </trkpt>
      <trkpt lat="44.6888" lon="6.9338">
        <ele>2800</ele>
        <time>2020-02-17T10:56:22.010Z</time>
      </trkpt>
      <trkpt lat="44.68875" lon="6.93392">
        <ele>2799.94600192</ele>
        <time>2020-02-17T10:56:31.010Z</time>
      </trkpt>
      <trkpt lat="44.68867" lon="6.93398">
        <ele>2797</ele>
        <time>2020-02-17T10:57:04.010Z</time>
      </trkpt>
      <trkpt lat="44.68858" lon="6.93399">
        <ele>2797</ele>
        <time>2020-02-17T10:58:29.010Z</time>
      </trkpt>
      <trkpt lat="44.6885" lon="6.93406">
        <ele>2797.7940876725</ele>
        <time>2020-02-17T11:00:02.010Z</time>
      </trkpt>
      <trkpt lat="44.68859" lon="6.93403">
        <ele>2795.71799936</ele>
        <time>2020-02-17T11:00:18.010Z</time>
      </trkpt>
      <trkpt lat="44.68858" lon="6.9339">
        <ele>2796.9151687568</ele>
        <time>2020-02-17T11:00:40.010Z</time>
      </trkpt>
      <trkpt lat="44.68853" lon="6.93401">
        <ele>2797</ele>
        <time>2020-02-17T11:02:46.010Z</time>
      </trkpt>
      <trkpt lat="44.68857" lon="6.93412">
        <ele>2794.782218352</ele>
        <time>2020-02-17T11:07:23.010Z</time>
      </trkpt>
      <trkpt lat="44.68856" lon="6.93428">
        <ele>2793.98200064</ele>
        <time>2020-02-17T11:08:21.010Z</time>
      </trkpt>
      <trkpt lat="44.68864" lon="6.9344">
        <ele>2793.63500032</ele>
        <time>2020-02-17T11:08:24.480Z</time>
      </trkpt>
      <trkpt lat="44.68878" lon="6.93458">
        <ele>2793.13500032</ele>
        <time>2020-02-17T11:08:29.480Z</time>
      </trkpt>
      <trkpt lat="44.68886" lon="6.93467">
        <ele>2789.93201664</ele>
        <time>2020-02-17T11:08:32.010Z</time>
      </trkpt>
      <trkpt lat="44.68898" lon="6.93468">
        <ele>2782.13201664</ele>
        <time>2020-02-17T11:08:35.010Z</time>
      </trkpt>
      <trkpt lat="44.68905" lon="6.93455">
        <ele>2776.93201664</ele>
        <time>2020-02-17T11:08:37.010Z</time>
      </trkpt>
      <trkpt lat="44.68914" lon="6.93448">
        <ele>2763.50200704</ele>
        <time>2020-02-17T11:08:44.010Z</time>
      </trkpt>
      <trkpt lat="44.68917" lon="6.93463">
        <ele>2755.94600192</ele>
        <time>2020-02-17T11:08:51.010Z</time>
      </trkpt>
      <trkpt lat="44.68917" lon="6.93448">
        <ele>2753</ele>
        <time>2020-02-17T11:09:16.010Z</time>
      </trkpt>
      <trkpt lat="44.68931" lon="6.93456">
        <ele>2748.9351449944</ele>
        <time>2020-02-17T11:09:23.040Z</time>
      </trkpt>
      <trkpt lat="44.68937" lon="6.93469">
        <ele>2743.4724192751</ele>
        <time>2020-02-17T11:09:26.010Z</time>
      </trkpt>
      <trkpt lat="44.68953" lon="6.93469">
        <ele>2733.7690723173</ele>
        <time>2020-02-17T11:09:31.480Z</time>
      </trkpt>
      <trkpt lat="44.68965" lon="6.93467">
        <ele>2729.0567066018</ele>
        <time>2020-02-17T11:09:38.010Z</time>
      </trkpt>
      <trkpt lat="44.68976" lon="6.93465">
        <ele>2724.9187604152</ele>
        <time>2020-02-17T11:09:45.010Z</time>
      </trkpt>
      <trkpt lat="44.68986" lon="6.93467">
        <ele>2720.72800256</ele>
        <time>2020-02-17T11:09:54.010Z</time>
      </trkpt>
      <trkpt lat="44.68995" lon="6.93463">
        <ele>2717.88200064</ele>
        <time>2020-02-17T11:10:02.010Z</time>
      </trkpt>
      <trkpt lat="44.69004" lon="6.93471">
        <ele>2717.08200064</ele>
        <time>2020-02-17T11:10:10.010Z</time>
      </trkpt>
      <trkpt lat="44.69013" lon="6.93479">
        <ele>2710.3320163248</ele>
        <time>2020-02-17T11:10:15.010Z</time>
      </trkpt>
      <trkpt lat="44.69021" lon="6.93489">
        <ele>2702.3559470848</ele>
        <time>2020-02-17T11:10:20.010Z</time>
      </trkpt>
      <trkpt lat="44.69031" lon="6.93496">
        <ele>2697.9809553399</ele>
        <time>2020-02-17T11:10:23.010Z</time>
      </trkpt>
      <trkpt lat="44.69038" lon="6.93508">
        <ele>2689.5556768082</ele>
        <time>2020-02-17T11:10:29.010Z</time>
      </trkpt>
      <trkpt lat="44.69042" lon="6.93524">
        <ele>2683.18400768</ele>
        <time>2020-02-17T11:10:34.010Z</time>
      </trkpt>
      <trkpt lat="44.69044" lon="6.93537">
        <ele>2679.58400768</ele>
        <time>2020-02-17T11:10:37.010Z</time>
      </trkpt>
      <trkpt lat="44.69049" lon="6.9355">
        <ele>2674.80200704</ele>
        <time>2020-02-17T11:10:41.010Z</time>
      </trkpt>
      <trkpt lat="44.69057" lon="6.93559">
        <ele>2671.50200704</ele>
        <time>2020-02-17T11:10:44.010Z</time>
      </trkpt>
      <trkpt lat="44.69064" lon="6.9357">
        <ele>2668.20200704</ele>
        <time>2020-02-17T11:10:47.010Z</time>
      </trkpt>
      <trkpt lat="44.69069" lon="6.93581">
        <ele>2664.90200704</ele>
        <time>2020-02-17T11:10:50.010Z</time>
      </trkpt>
      <trkpt lat="44.69075" lon="6.93593">
        <ele>2663.0600995248</ele>
        <time>2020-02-17T11:10:54.010Z</time>
      </trkpt>
      <trkpt lat="44.69089" lon="6.93587">
        <ele>2660.5695409678</ele>
        <time>2020-02-17T11:11:02.040Z</time>
      </trkpt>
      <trkpt lat="44.69101" lon="6.93566">
        <ele>2660.163449993</ele>
        <time>2020-02-17T11:11:03.040Z</time>
      </trkpt>
      <trkpt lat="44.69112" lon="6.93568">
        <ele>2659.3634520722</ele>
        <time>2020-02-17T11:11:05.010Z</time>
      </trkpt>
      <trkpt lat="44.69123" lon="6.93576">
        <ele>2658.1451791478</ele>
        <time>2020-02-17T11:11:08.010Z</time>
      </trkpt>
      <trkpt lat="44.69132" lon="6.93577">
        <ele>2657.3329971983</ele>
        <time>2020-02-17T11:11:10.010Z</time>
      </trkpt>
      <trkpt lat="44.69141" lon="6.93582">
        <ele>2656.1748293866</ele>
        <time>2020-02-17T11:11:12.010Z</time>
      </trkpt>
      <trkpt lat="44.69148" lon="6.93592">
        <ele>2654.076926618</ele>
        <time>2020-02-17T11:11:15.010Z</time>
      </trkpt>
      <trkpt lat="44.69156" lon="6.93598">
        <ele>2651.9790238494</ele>
        <time>2020-02-17T11:11:18.010Z</time>
      </trkpt>
      <trkpt lat="44.6915" lon="6.93612">
        <ele>2650</ele>
        <time>2020-02-17T11:11:31.040Z</time>
      </trkpt>
      <trkpt lat="44.69139" lon="6.93616">
        <ele>2650</ele>
        <time>2020-02-17T11:11:32.040Z</time>
      </trkpt>
      <trkpt lat="44.69131" lon="6.93606">
        <ele>2650</ele>
        <time>2020-02-17T11:11:35.010Z</time>
      </trkpt>
      <trkpt lat="44.6912" lon="6.93606">
        <ele>2650</ele>
        <time>2020-02-17T11:11:37.010Z</time>
      </trkpt>
      <trkpt lat="44.69107" lon="6.93608">
        <ele>2650</ele>
        <time>2020-02-17T11:11:49.010Z</time>
      </trkpt>
      <trkpt lat="44.69098" lon="6.93603">
        <ele>2650</ele>
        <time>2020-02-17T11:11:51.010Z</time>
      </trkpt>
      <trkpt lat="44.6911" lon="6.93579">
        <ele>2650</ele>
        <time>2020-02-17T11:11:59.010Z</time>
      </trkpt>
      <trkpt lat="44.69119" lon="6.93585">
        <ele>2651</ele>
        <time>2020-02-17T11:12:14.010Z</time>
      </trkpt>
      <trkpt lat="44.69127" lon="6.93601">
        <ele>2651</ele>
        <time>2020-02-17T11:12:18.010Z</time>
      </trkpt>
      <trkpt lat="44.69117" lon="6.93604">
        <ele>2651</ele>
        <time>2020-02-17T11:12:26.240Z</time>
      </trkpt>
      <trkpt lat="44.69125" lon="6.93612">
        <ele>2651</ele>
        <time>2020-02-17T11:12:39.010Z</time>
      </trkpt>
      <trkpt lat="44.69133" lon="6.93605">
        <ele>2651</ele>
        <time>2020-02-17T11:12:46.010Z</time>
      </trkpt>
      <trkpt lat="44.69145" lon="6.93605">
        <ele>2651</ele>
        <time>2020-02-17T11:12:55.010Z</time>
      </trkpt>
      <trkpt lat="44.69156" lon="6.93603">
        <ele>2649</ele>
        <time>2020-02-17T11:13:46.010Z</time>
      </trkpt>
      <trkpt lat="44.69152" lon="6.93592">
        <ele>2649.31799936</ele>
        <time>2020-02-17T11:13:54.010Z</time>
      </trkpt>
      <trkpt lat="44.69147" lon="6.93606">
        <ele>2649.88200064</ele>
        <time>2020-02-17T11:14:02.010Z</time>
      </trkpt>
      <trkpt lat="44.69138" lon="6.93609">
        <ele>2649.68200064</ele>
        <time>2020-02-17T11:14:04.010Z</time>
      </trkpt>
      <trkpt lat="44.69129" lon="6.93609">
        <ele>2649.48200064</ele>
        <time>2020-02-17T11:14:06.010Z</time>
      </trkpt>
      <trkpt lat="44.69118" lon="6.9361">
        <ele>2649.11799936</ele>
        <time>2020-02-17T11:14:12.010Z</time>
      </trkpt>
      <trkpt lat="44.69102" lon="6.93603">
        <ele>2650</ele>
        <time>2020-02-17T11:14:32.010Z</time>
      </trkpt>
      <trkpt lat="44.69091" lon="6.93598">
        <ele>2650</ele>
        <time>2020-02-17T11:14:34.010Z</time>
      </trkpt>
      <trkpt lat="44.69083" lon="6.9359">
        <ele>2650</ele>
        <time>2020-02-17T11:14:39.010Z</time>
      </trkpt>
      <trkpt lat="44.69075" lon="6.93582">
        <ele>2650.58200064</ele>
        <time>2020-02-17T11:15:15.010Z</time>
      </trkpt>
      <trkpt lat="44.69065" lon="6.9358">
        <ele>2651</ele>
        <time>2020-02-17T11:15:34.010Z</time>
      </trkpt>
      <trkpt lat="44.69058" lon="6.93589">
        <ele>2651</ele>
        <time>2020-02-17T11:16:28.010Z</time>
      </trkpt>
      <trkpt lat="44.69065" lon="6.93577">
        <ele>2652</ele>
        <time>2020-02-17T11:17:06.010Z</time>
      </trkpt>
      <trkpt lat="44.69055" lon="6.93573">
        <ele>2651.98200064</ele>
        <time>2020-02-17T11:17:21.010Z</time>
      </trkpt>
      <trkpt lat="44.69062" lon="6.93581">
        <ele>2651</ele>
        <time>2020-02-17T11:17:47.010Z</time>
      </trkpt>
      <trkpt lat="44.69054" lon="6.93576">
        <ele>2652</ele>
        <time>2020-02-17T11:19:23.010Z</time>
      </trkpt>
      <trkpt lat="44.69063" lon="6.93579">
        <ele>2652</ele>
        <time>2020-02-17T11:19:25.010Z</time>
      </trkpt>
      <trkpt lat="44.69073" lon="6.93594">
        <ele>2652</ele>
        <time>2020-02-17T11:22:21.010Z</time>
      </trkpt>
      <trkpt lat="44.69064" lon="6.9359">
        <ele>2652</ele>
        <time>2020-02-17T11:22:29.010Z</time>
      </trkpt>
      <trkpt lat="44.6906" lon="6.93578">
        <ele>2652</ele>
        <time>2020-02-17T11:23:55.010Z</time>
      </trkpt>
      <trkpt lat="44.69051" lon="6.93579">
        <ele>2657</ele>
        <time>2020-02-17T11:24:36.010Z</time>
      </trkpt>
      <trkpt lat="44.69042" lon="6.9358">
        <ele>2658.01799936</ele>
        <time>2020-02-17T11:24:51.010Z</time>
      </trkpt>
      <trkpt lat="44.69032" lon="6.93579">
        <ele>2663.91799936</ele>
        <time>2020-02-17T11:25:50.010Z</time>
      </trkpt>
      <trkpt lat="44.69025" lon="6.93588">
        <ele>2666.41699968</ele>
        <time>2020-02-17T11:26:15.010Z</time>
      </trkpt>
      <trkpt lat="44.69019" lon="6.93578">
        <ele>2670.0160320538</ele>
        <time>2020-02-17T11:26:51.010Z</time>
      </trkpt>
      <trkpt lat="44.69017" lon="6.93565">
        <ele>2671.43599872</ele>
        <time>2020-02-17T11:27:03.010Z</time>
      </trkpt>
      <trkpt lat="44.69018" lon="6.93552">
        <ele>2675.01799936</ele>
        <time>2020-02-17T11:27:21.010Z</time>
      </trkpt>
      <trkpt lat="44.69014" lon="6.9354">
        <ele>2676</ele>
        <time>2020-02-17T11:27:35.010Z</time>
      </trkpt>
      <trkpt lat="44.69005" lon="6.93539">
        <ele>2678.31799936</ele>
        <time>2020-02-17T11:27:54.010Z</time>
      </trkpt>
      <trkpt lat="44.68998" lon="6.93547">
        <ele>2682</ele>
        <time>2020-02-17T11:28:12.010Z</time>
      </trkpt>
      <trkpt lat="44.68992" lon="6.93557">
        <ele>2682.6937189739</ele>
        <time>2020-02-17T11:28:28.010Z</time>
      </trkpt>
      <trkpt lat="44.68984" lon="6.93563">
        <ele>2685.43599872</ele>
        <time>2020-02-17T11:28:48.010Z</time>
      </trkpt>
      <trkpt lat="44.68979" lon="6.93574">
        <ele>2687.83599872</ele>
        <time>2020-02-17T11:29:05.010Z</time>
      </trkpt>
      <trkpt lat="44.68973" lon="6.93584">
        <ele>2690.6172340731</ele>
        <time>2020-02-17T11:29:27.010Z</time>
      </trkpt>
      <trkpt lat="44.68966" lon="6.93592">
        <ele>2694</ele>
        <time>2020-02-17T11:29:44.010Z</time>
      </trkpt>
      <trkpt lat="44.68962" lon="6.93604">
        <ele>2694</ele>
        <time>2020-02-17T11:30:00.010Z</time>
      </trkpt>
      <trkpt lat="44.68955" lon="6.93614">
        <ele>2696</ele>
        <time>2020-02-17T11:30:16.010Z</time>
      </trkpt>
      <trkpt lat="44.68946" lon="6.9361">
        <ele>2696.35399808</ele>
        <time>2020-02-17T11:30:32.010Z</time>
      </trkpt>
      <trkpt lat="44.68941" lon="6.93599">
        <ele>2699</ele>
        <time>2020-02-17T11:30:47.010Z</time>
      </trkpt>
      <trkpt lat="44.68938" lon="6.93587">
        <ele>2703.41799936</ele>
        <time>2020-02-17T11:31:05.010Z</time>
      </trkpt>
      <trkpt lat="44.68934" lon="6.93576">
        <ele>2705.2172168273</ele>
        <time>2020-02-17T11:31:23.010Z</time>
      </trkpt>
      <trkpt lat="44.6893" lon="6.93563">
        <ele>2706.5982570682</ele>
        <time>2020-02-17T11:31:37.010Z</time>
      </trkpt>
      <trkpt lat="44.68933" lon="6.93551">
        <ele>2709.43599872</ele>
        <time>2020-02-17T11:31:58.010Z</time>
      </trkpt>
      <trkpt lat="44.68929" lon="6.93538">
        <ele>2712</ele>
        <time>2020-02-17T11:32:15.010Z</time>
      </trkpt>
      <trkpt lat="44.68924" lon="6.93549">
        <ele>2713.9170825709</ele>
        <time>2020-02-17T11:32:40.010Z</time>
      </trkpt>
      <trkpt lat="44.6892" lon="6.9356">
        <ele>2717.05399808</ele>
        <time>2020-02-17T11:33:01.010Z</time>
      </trkpt>
      <trkpt lat="44.68915" lon="6.93571">
        <ele>2720.83599872</ele>
        <time>2020-02-17T11:33:25.010Z</time>
      </trkpt>
      <trkpt lat="44.6891" lon="6.93582">
        <ele>2722.9170825709</ele>
        <time>2020-02-17T11:33:40.010Z</time>
      </trkpt>
      <trkpt lat="44.68905" lon="6.93593">
        <ele>2725.31799936</ele>
        <time>2020-02-17T11:33:54.010Z</time>
      </trkpt>
      <trkpt lat="44.68902" lon="6.93605">
        <ele>2726.71799936</ele>
        <time>2020-02-17T11:34:08.010Z</time>
      </trkpt>
      <trkpt lat="44.68898" lon="6.93617">
        <ele>2729.0328996904</ele>
        <time>2020-02-17T11:34:26.010Z</time>
      </trkpt>
      <trkpt lat="44.68893" lon="6.93628">
        <ele>2730</ele>
        <time>2020-02-17T11:34:40.010Z</time>
      </trkpt>
      <trkpt lat="44.68888" lon="6.93617">
        <ele>2731.8117884387</ele>
        <time>2020-02-17T11:34:59.010Z</time>
      </trkpt>
      <trkpt lat="44.68885" lon="6.93604">
        <ele>2733.8343305928</ele>
        <time>2020-02-17T11:35:15.010Z</time>
      </trkpt>
      <trkpt lat="44.68883" lon="6.93592">
        <ele>2736.71799936</ele>
        <time>2020-02-17T11:35:38.010Z</time>
      </trkpt>
      <trkpt lat="44.68875" lon="6.93597">
        <ele>2740.315946982</ele>
        <time>2020-02-17T11:36:04.010Z</time>
      </trkpt>
      <trkpt lat="44.68869" lon="6.93608">
        <ele>2741.6173821754</ele>
        <time>2020-02-17T11:36:17.010Z</time>
      </trkpt>
      <trkpt lat="44.68865" lon="6.93619">
        <ele>2746.187048448</ele>
        <time>2020-02-17T11:36:32.010Z</time>
      </trkpt>
      <trkpt lat="44.68862" lon="6.93631">
        <ele>2748</ele>
        <time>2020-02-17T11:36:46.010Z</time>
      </trkpt>
      <trkpt lat="44.68857" lon="6.93642">
        <ele>2749.2342335186</ele>
        <time>2020-02-17T11:37:02.010Z</time>
      </trkpt>
      <trkpt lat="44.68853" lon="6.93654">
        <ele>2752.03599872</ele>
        <time>2020-02-17T11:37:16.010Z</time>
      </trkpt>
      <trkpt lat="44.68848" lon="6.93665">
        <ele>2753</ele>
        <time>2020-02-17T11:37:35.010Z</time>
      </trkpt>
      <trkpt lat="44.68848" lon="6.93679">
        <ele>2753</ele>
        <time>2020-02-17T11:37:48.010Z</time>
      </trkpt>
      <trkpt lat="44.68846" lon="6.93692">
        <ele>2756.95399808</ele>
        <time>2020-02-17T11:38:14.010Z</time>
      </trkpt>
      <trkpt lat="44.68849" lon="6.93704">
        <ele>2759.9161676111</ele>
        <time>2020-02-17T11:38:30.010Z</time>
      </trkpt>
      <trkpt lat="44.6885" lon="6.93718">
        <ele>2761.4167489797</ele>
        <time>2020-02-17T11:38:45.010Z</time>
      </trkpt>
      <trkpt lat="44.6885" lon="6.93731">
        <ele>2765.43599872</ele>
        <time>2020-02-17T11:39:03.010Z</time>
      </trkpt>
      <trkpt lat="44.6885" lon="6.93744">
        <ele>2768.63599872</ele>
        <time>2020-02-17T11:39:19.010Z</time>
      </trkpt>
      <trkpt lat="44.6885" lon="6.93757">
        <ele>2770</ele>
        <time>2020-02-17T11:39:39.010Z</time>
      </trkpt>
      <trkpt lat="44.68852" lon="6.9377">
        <ele>2771.2154310442</ele>
        <time>2020-02-17T11:39:53.000Z</time>
      </trkpt>
      <trkpt lat="44.68844" lon="6.93775">
        <ele>2772.9152533072</ele>
        <time>2020-02-17T11:40:10.010Z</time>
      </trkpt>
      <trkpt lat="44.68842" lon="6.93788">
        <ele>2775.1497000557</ele>
        <time>2020-02-17T11:40:28.010Z</time>
      </trkpt>
      <trkpt lat="44.68842" lon="6.93801">
        <ele>2776</ele>
        <time>2020-02-17T11:40:45.010Z</time>
      </trkpt>
      <trkpt lat="44.68841" lon="6.93814">
        <ele>2777.6318820075</ele>
        <time>2020-02-17T11:41:03.010Z</time>
      </trkpt>
      <trkpt lat="44.6884" lon="6.93827">
        <ele>2780</ele>
        <time>2020-02-17T11:41:17.010Z</time>
      </trkpt>
      <trkpt lat="44.68839" lon="6.9384">
        <ele>2780</ele>
        <time>2020-02-17T11:41:30.010Z</time>
      </trkpt>
      <trkpt lat="44.68836" lon="6.93852">
        <ele>2782.5496465556</ele>
        <time>2020-02-17T11:41:46.010Z</time>
      </trkpt>
      <trkpt lat="44.68837" lon="6.93865">
        <ele>2783.0838323889</ele>
        <time>2020-02-17T11:42:00.010Z</time>
      </trkpt>
      <trkpt lat="44.68839" lon="6.93877">
        <ele>2787.8502986669</ele>
        <time>2020-02-17T11:42:17.010Z</time>
      </trkpt>
      <trkpt lat="44.68841" lon="6.9389">
        <ele>2788.78200064</ele>
        <time>2020-02-17T11:42:33.010Z</time>
      </trkpt>
      <trkpt lat="44.68836" lon="6.939">
        <ele>2790.4646028428</ele>
        <time>2020-02-17T11:42:47.010Z</time>
      </trkpt>
      <trkpt lat="44.68828" lon="6.93908">
        <ele>2793.55399808</ele>
        <time>2020-02-17T11:43:06.010Z</time>
      </trkpt>
      <trkpt lat="44.68824" lon="6.9392">
        <ele>2794.2164327269</ele>
        <time>2020-02-17T11:43:23.010Z</time>
      </trkpt>
      <trkpt lat="44.68815" lon="6.93925">
        <ele>2795.9161676111</ele>
        <time>2020-02-17T11:43:40.010Z</time>
      </trkpt>
      <trkpt lat="44.68806" lon="6.93928">
        <ele>2796.95399808</ele>
        <time>2020-02-17T11:43:54.010Z</time>
      </trkpt>
      <trkpt lat="44.68797" lon="6.93931">
        <ele>2799</ele>
        <time>2020-02-17T11:44:08.010Z</time>
      </trkpt>
      <trkpt lat="44.68788" lon="6.93929">
        <ele>2801</ele>
        <time>2020-02-17T11:44:26.010Z</time>
      </trkpt>
      <trkpt lat="44.68779" lon="6.93926">
        <ele>2804</ele>
        <time>2020-02-17T11:44:44.010Z</time>
      </trkpt>
      <trkpt lat="44.68778" lon="6.9394">
        <ele>2806.2156460472</ele>
        <time>2020-02-17T11:45:03.010Z</time>
      </trkpt>
      <trkpt lat="44.68781" lon="6.93952">
        <ele>2807</ele>
        <time>2020-02-17T11:45:15.010Z</time>
      </trkpt>
      <trkpt lat="44.68784" lon="6.93965">
        <ele>2807.9161676111</ele>
        <time>2020-02-17T11:45:30.010Z</time>
      </trkpt>
      <trkpt lat="44.68785" lon="6.93977">
        <ele>2809.5169657593</ele>
        <time>2020-02-17T11:45:46.010Z</time>
      </trkpt>
      <trkpt lat="44.68788" lon="6.9399">
        <ele>2812.01799936</ele>
        <time>2020-02-17T11:46:01.010Z</time>
      </trkpt>
      <trkpt lat="44.68791" lon="6.94003">
        <ele>2814.85399808</ele>
        <time>2020-02-17T11:46:17.010Z</time>
      </trkpt>
      <trkpt lat="44.68793" lon="6.94015">
        <ele>2816.3823829005</ele>
        <time>2020-02-17T11:46:37.010Z</time>
      </trkpt>
      <trkpt lat="44.68797" lon="6.94027">
        <ele>2817.2164327269</ele>
        <time>2020-02-17T11:46:53.010Z</time>
      </trkpt>
      <trkpt lat="44.68803" lon="6.94037">
        <ele>2818.61799936</ele>
        <time>2020-02-17T11:47:07.010Z</time>
      </trkpt>
      <trkpt lat="44.68811" lon="6.94045">
        <ele>2820.0029032342</ele>
        <time>2020-02-17T11:47:26.010Z</time>
      </trkpt>
      <trkpt lat="44.68818" lon="6.94052">
        <ele>2823.7456030625</ele>
        <time>2020-02-17T11:47:40.010Z</time>
      </trkpt>
      <trkpt lat="44.68826" lon="6.94057">
        <ele>2826</ele>
        <time>2020-02-17T11:48:07.010Z</time>
      </trkpt>
      <trkpt lat="44.68834" lon="6.94063">
        <ele>2826</ele>
        <time>2020-02-17T11:48:22.010Z</time>
      </trkpt>
      <trkpt lat="44.68832" lon="6.94075">
        <ele>2832.633266127</ele>
        <time>2020-02-17T11:48:44.010Z</time>
      </trkpt>
      <trkpt lat="44.68826" lon="6.94085">
        <ele>2834</ele>
        <time>2020-02-17T11:49:00.010Z</time>
      </trkpt>
      <trkpt lat="44.68818" lon="6.94093">
        <ele>2833.61799936</ele>
        <time>2020-02-17T11:49:17.010Z</time>
      </trkpt>
      <trkpt lat="44.68809" lon="6.94096">
        <ele>2840.11799936</ele>
        <time>2020-02-17T11:49:32.010Z</time>
      </trkpt>
      <trkpt lat="44.688" lon="6.941">
        <ele>2842.76400128</ele>
        <time>2020-02-17T11:49:52.010Z</time>
      </trkpt>
      <trkpt lat="44.68791" lon="6.94103">
        <ele>2841.71799936</ele>
        <time>2020-02-17T11:50:08.010Z</time>
      </trkpt>
      <trkpt lat="44.68783" lon="6.94106">
        <ele>2842.31799936</ele>
        <time>2020-02-17T11:50:24.010Z</time>
      </trkpt>
      <trkpt lat="44.68773" lon="6.94107">
        <ele>2843.6950625193</ele>
        <time>2020-02-17T11:50:38.010Z</time>
      </trkpt>
      <trkpt lat="44.68764" lon="6.94104">
        <ele>2847</ele>
        <time>2020-02-17T11:50:54.010Z</time>
      </trkpt>
      <trkpt lat="44.68761" lon="6.94116">
        <ele>2848.41799936</ele>
        <time>2020-02-17T11:51:35.010Z</time>
      </trkpt>
      <trkpt lat="44.68765" lon="6.94128">
        <ele>2851.4491014445</ele>
        <time>2020-02-17T11:51:49.010Z</time>
      </trkpt>
      <trkpt lat="44.68768" lon="6.9414">
        <ele>2855.5165488519</ele>
        <time>2020-02-17T11:52:16.010Z</time>
      </trkpt>
      <trkpt lat="44.6877" lon="6.94153">
        <ele>2856.71799936</ele>
        <time>2020-02-17T11:52:38.010Z</time>
      </trkpt>
      <trkpt lat="44.68772" lon="6.94166">
        <ele>2857.35399808</ele>
        <time>2020-02-17T11:52:52.010Z</time>
      </trkpt>
      <trkpt lat="44.68775" lon="6.94178">
        <ele>2860.31799936</ele>
        <time>2020-02-17T11:53:04.010Z</time>
      </trkpt>
      <trkpt lat="44.68768" lon="6.94186">
        <ele>2868.6138983784</ele>
        <time>2020-02-17T11:53:44.010Z</time>
      </trkpt>
      <trkpt lat="44.68759" lon="6.94181">
        <ele>2870.98200064</ele>
        <time>2020-02-17T11:54:01.010Z</time>
      </trkpt>
      <trkpt lat="44.6875" lon="6.94176">
        <ele>2870</ele>
        <time>2020-02-17T11:54:22.010Z</time>
      </trkpt>
      <trkpt lat="44.68741" lon="6.94171">
        <ele>2870.63599872</ele>
        <time>2020-02-17T11:54:34.010Z</time>
      </trkpt>
      <trkpt lat="44.68734" lon="6.94163">
        <ele>2872.9161676111</ele>
        <time>2020-02-17T11:54:50.010Z</time>
      </trkpt>
      <trkpt lat="44.68733" lon="6.94176">
        <ele>2876.6349033131</ele>
        <time>2020-02-17T11:55:29.010Z</time>
      </trkpt>
      <trkpt lat="44.68736" lon="6.94189">
        <ele>2878.31799936</ele>
        <time>2020-02-17T11:55:44.010Z</time>
      </trkpt>
      <trkpt lat="44.68738" lon="6.94202">
        <ele>2881.7457599216</ele>
        <time>2020-02-17T11:56:00.010Z</time>
      </trkpt>
      <trkpt lat="44.6874" lon="6.94215">
        <ele>2883.21799936</ele>
        <time>2020-02-17T11:56:23.010Z</time>
      </trkpt>
      <trkpt lat="44.68741" lon="6.94228">
        <ele>2885.8305066144</ele>
        <time>2020-02-17T11:56:40.010Z</time>
      </trkpt>
      <trkpt lat="44.68739" lon="6.9424">
        <ele>2887.7748758957</ele>
        <time>2020-02-17T11:56:58.010Z</time>
      </trkpt>
      <trkpt lat="44.68739" lon="6.94253">
        <ele>2889.58200064</ele>
        <time>2020-02-17T11:57:15.010Z</time>
      </trkpt>
      <trkpt lat="44.68739" lon="6.94266">
        <ele>2888.0838323889</ele>
        <time>2020-02-17T11:57:30.010Z</time>
      </trkpt>
      <trkpt lat="44.6874" lon="6.9428">
        <ele>2889.65399808</ele>
        <time>2020-02-17T11:57:43.010Z</time>
      </trkpt>
      <trkpt lat="44.68742" lon="6.94292">
        <ele>2892.81799936</ele>
        <time>2020-02-17T11:57:59.010Z</time>
      </trkpt>
      <trkpt lat="44.68743" lon="6.94305">
        <ele>2894</ele>
        <time>2020-02-17T11:58:17.010Z</time>
      </trkpt>
      <trkpt lat="44.68745" lon="6.94318">
        <ele>2895.1833154494</ele>
        <time>2020-02-17T11:58:42.010Z</time>
      </trkpt>
      <trkpt lat="44.68746" lon="6.94331">
        <ele>2898</ele>
        <time>2020-02-17T11:59:06.010Z</time>
      </trkpt>
      <trkpt lat="44.68737" lon="6.94328">
        <ele>2903</ele>
        <time>2020-02-17T11:59:38.010Z</time>
      </trkpt>
      <trkpt lat="44.68732" lon="6.94317">
        <ele>2905.31799936</ele>
        <time>2020-02-17T11:59:54.010Z</time>
      </trkpt>
      <trkpt lat="44.68726" lon="6.94306">
        <ele>2906.7895746718</ele>
        <time>2020-02-17T12:00:09.010Z</time>
      </trkpt>
      <trkpt lat="44.68719" lon="6.94297">
        <ele>2907.43599872</ele>
        <time>2020-02-17T12:00:23.010Z</time>
      </trkpt>
      <trkpt lat="44.68712" lon="6.94288">
        <ele>2910.2324647808</ele>
        <time>2020-02-17T12:00:42.010Z</time>
      </trkpt>
      <trkpt lat="44.68705" lon="6.9428">
        <ele>2915</ele>
        <time>2020-02-17T12:01:01.010Z</time>
      </trkpt>
      <trkpt lat="44.68697" lon="6.94274">
        <ele>2915</ele>
        <time>2020-02-17T12:01:16.010Z</time>
      </trkpt>
      <trkpt lat="44.6869" lon="6.94284">
        <ele>2917.43599872</ele>
        <time>2020-02-17T12:01:38.010Z</time>
      </trkpt>
      <trkpt lat="44.68689" lon="6.94298">
        <ele>2917.87199744</ele>
        <time>2020-02-17T12:02:03.010Z</time>
      </trkpt>
      <trkpt lat="44.68691" lon="6.94311">
        <ele>2923.23599872</ele>
        <time>2020-02-17T12:02:22.010Z</time>
      </trkpt>
      <trkpt lat="44.68691" lon="6.94323">
        <ele>2925</ele>
        <time>2020-02-17T12:02:43.010Z</time>
      </trkpt>
      <trkpt lat="44.68692" lon="6.94336">
        <ele>2926.83599872</ele>
        <time>2020-02-17T12:03:00.010Z</time>
      </trkpt>
      <trkpt lat="44.68694" lon="6.9435">
        <ele>2930.2551847303</ele>
        <time>2020-02-17T12:03:22.010Z</time>
      </trkpt>
      <trkpt lat="44.68695" lon="6.94363">
        <ele>2935</ele>
        <time>2020-02-17T12:03:41.010Z</time>
      </trkpt>
      <trkpt lat="44.68697" lon="6.94376">
        <ele>2935</ele>
        <time>2020-02-17T12:03:51.010Z</time>
      </trkpt>
      <trkpt lat="44.68698" lon="6.94389">
        <ele>2934.18200064</ele>
        <time>2020-02-17T12:04:09.010Z</time>
      </trkpt>
      <trkpt lat="44.68699" lon="6.94402">
        <ele>2936.5164498452</ele>
        <time>2020-02-17T12:04:26.010Z</time>
      </trkpt>
      <trkpt lat="44.68701" lon="6.94414">
        <ele>2937.0897275885</ele>
        <time>2020-02-17T12:04:41.010Z</time>
      </trkpt>
      <trkpt lat="44.68702" lon="6.94427">
        <ele>2942</ele>
        <time>2020-02-17T12:04:56.010Z</time>
      </trkpt>
      <trkpt lat="44.68704" lon="6.94441">
        <ele>2942</ele>
        <time>2020-02-17T12:05:09.010Z</time>
      </trkpt>
      <trkpt lat="44.68706" lon="6.94453">
        <ele>2947.43599872</ele>
        <time>2020-02-17T12:05:23.010Z</time>
      </trkpt>
      <trkpt lat="44.68708" lon="6.94466">
        <ele>2950.43599872</ele>
        <time>2020-02-17T12:05:38.010Z</time>
      </trkpt>
      <trkpt lat="44.68711" lon="6.94478">
        <ele>2951.91799936</ele>
        <time>2020-02-17T12:05:50.010Z</time>
      </trkpt>
      <trkpt lat="44.68712" lon="6.94491">
        <ele>2949.21799936</ele>
        <time>2020-02-17T12:06:03.010Z</time>
      </trkpt>
      <trkpt lat="44.68713" lon="6.94504">
        <ele>2950.51799936</ele>
        <time>2020-02-17T12:06:16.010Z</time>
      </trkpt>
      <trkpt lat="44.68711" lon="6.94517">
        <ele>2954.9593398519</ele>
        <time>2020-02-17T12:06:29.010Z</time>
      </trkpt>
      <trkpt lat="44.68713" lon="6.94529">
        <ele>2953.98200064</ele>
        <time>2020-02-17T12:06:41.010Z</time>
      </trkpt>
      <trkpt lat="44.68717" lon="6.94542">
        <ele>2953.83599872</ele>
        <time>2020-02-17T12:06:55.010Z</time>
      </trkpt>
      <trkpt lat="44.68717" lon="6.94555">
        <ele>2955.81799936</ele>
        <time>2020-02-17T12:07:09.010Z</time>
      </trkpt>
      <trkpt lat="44.6872" lon="6.94569">
        <ele>2963.01799936</ele>
        <time>2020-02-17T12:07:21.010Z</time>
      </trkpt>
      <trkpt lat="44.68722" lon="6.94581">
        <ele>2963.9280744625</ele>
        <time>2020-02-17T12:07:31.010Z</time>
      </trkpt>
      <trkpt lat="44.68725" lon="6.94594">
        <ele>2960.3316697164</ele>
        <time>2020-02-17T12:07:40.010Z</time>
      </trkpt>
      <trkpt lat="44.68726" lon="6.94608">
        <ele>2960.4676211199</ele>
        <time>2020-02-17T12:07:52.010Z</time>
      </trkpt>
      <trkpt lat="44.68728" lon="6.94621">
        <ele>2964.48200064</ele>
        <time>2020-02-17T12:08:06.010Z</time>
      </trkpt>
      <trkpt lat="44.68728" lon="6.94633">
        <ele>2965.63599872</ele>
        <time>2020-02-17T12:08:19.010Z</time>
      </trkpt>
      <trkpt lat="44.68731" lon="6.94647">
        <ele>2967.2707271195</ele>
        <time>2020-02-17T12:08:34.010Z</time>
      </trkpt>
      <trkpt lat="44.68738" lon="6.9464">
        <ele>2968.23599872</ele>
        <time>2020-02-17T12:11:27.010Z</time>
      </trkpt>
      <trkpt lat="44.68747" lon="6.94644">
        <ele>2967.56400128</ele>
        <time>2020-02-17T12:18:23.010Z</time>
      </trkpt>
      <trkpt lat="44.68739" lon="6.94637">
        <ele>2970</ele>
        <time>2020-02-17T12:22:09.000Z</time>
      </trkpt>
      <trkpt lat="44.68738" lon="6.94624">
        <ele>2970</ele>
        <time>2020-02-17T12:22:38.010Z</time>
      </trkpt>
      <trkpt lat="44.68738" lon="6.94608">
        <ele>2966.08200064</ele>
        <time>2020-02-17T12:23:30.010Z</time>
      </trkpt>
      <trkpt lat="44.68735" lon="6.94593">
        <ele>2966</ele>
        <time>2020-02-17T12:23:33.010Z</time>
      </trkpt>
      <trkpt lat="44.68731" lon="6.94578">
        <ele>2966</ele>
        <time>2020-02-17T12:23:36.010Z</time>
      </trkpt>
      <trkpt lat="44.6873" lon="6.94565">
        <ele>2966</ele>
        <time>2020-02-17T12:23:39.010Z</time>
      </trkpt>
      <trkpt lat="44.68726" lon="6.94553">
        <ele>2964.03800576</ele>
        <time>2020-02-17T12:23:43.010Z</time>
      </trkpt>
      <trkpt lat="44.68727" lon="6.94536">
        <ele>2956.83800576</ele>
        <time>2020-02-17T12:23:51.010Z</time>
      </trkpt>
      <trkpt lat="44.68724" lon="6.94519">
        <ele>2954.13800576</ele>
        <time>2020-02-17T12:23:54.010Z</time>
      </trkpt>
      <trkpt lat="44.68722" lon="6.94506">
        <ele>2952.33800576</ele>
        <time>2020-02-17T12:23:56.010Z</time>
      </trkpt>
      <trkpt lat="44.68724" lon="6.94492">
        <ele>2949.63800576</ele>
        <time>2020-02-17T12:23:59.010Z</time>
      </trkpt>
      <trkpt lat="44.68725" lon="6.94478">
        <ele>2947.88200064</ele>
        <time>2020-02-17T12:24:02.010Z</time>
      </trkpt>
      <trkpt lat="44.68724" lon="6.94464">
        <ele>2946.58200064</ele>
        <time>2020-02-17T12:24:15.010Z</time>
      </trkpt>
      <trkpt lat="44.68724" lon="6.9445">
        <ele>2946.28200064</ele>
        <time>2020-02-17T12:24:18.010Z</time>
      </trkpt>
      <trkpt lat="44.68724" lon="6.94436">
        <ele>2946</ele>
        <time>2020-02-17T12:24:23.010Z</time>
      </trkpt>
      <trkpt lat="44.68727" lon="6.94421">
        <ele>2946</ele>
        <time>2020-02-17T12:24:26.010Z</time>
      </trkpt>
      <trkpt lat="44.68727" lon="6.94406">
        <ele>2946</ele>
        <time>2020-02-17T12:24:29.010Z</time>
      </trkpt>
      <trkpt lat="44.68723" lon="6.9439">
        <ele>2941.0010132798</ele>
        <time>2020-02-17T12:24:33.010Z</time>
      </trkpt>
      <trkpt lat="44.68733" lon="6.94392">
        <ele>2934.1216535604</ele>
        <time>2020-02-17T12:24:36.010Z</time>
      </trkpt>
      <trkpt lat="44.6874" lon="6.94399">
        <ele>2927.2422938409</ele>
        <time>2020-02-17T12:24:39.010Z</time>
      </trkpt>
      <trkpt lat="44.68749" lon="6.94402">
        <ele>2922.3681060359</ele>
        <time>2020-02-17T12:24:44.010Z</time>
      </trkpt>
      <trkpt lat="44.68748" lon="6.94387">
        <ele>2921.5656985567</ele>
        <time>2020-02-17T12:24:48.010Z</time>
      </trkpt>
      <trkpt lat="44.68746" lon="6.94375">
        <ele>2921.01799936</ele>
        <time>2020-02-17T12:24:51.010Z</time>
      </trkpt>
      <trkpt lat="44.68757" lon="6.94374">
        <ele>2921.61799936</ele>
        <time>2020-02-17T12:24:57.010Z</time>
      </trkpt>
      <trkpt lat="44.68766" lon="6.94379">
        <ele>2921.91799936</ele>
        <time>2020-02-17T12:25:00.010Z</time>
      </trkpt>
      <trkpt lat="44.68764" lon="6.94361">
        <ele>2915.00401408</ele>
        <time>2020-02-17T12:25:04.010Z</time>
      </trkpt>
      <trkpt lat="44.68761" lon="6.94349">
        <ele>2910.60401408</ele>
        <time>2020-02-17T12:25:06.010Z</time>
      </trkpt>
      <trkpt lat="44.68759" lon="6.94335">
        <ele>2906.20401408</ele>
        <time>2020-02-17T12:25:08.010Z</time>
      </trkpt>
      <trkpt lat="44.68758" lon="6.94321">
        <ele>2901.80401408</ele>
        <time>2020-02-17T12:25:10.010Z</time>
      </trkpt>
      <trkpt lat="44.68756" lon="6.94305">
        <ele>2898.8200064</ele>
        <time>2020-02-17T12:25:12.010Z</time>
      </trkpt>
      <trkpt lat="44.68753" lon="6.94288">
        <ele>2895.8200064</ele>
        <time>2020-02-17T12:25:15.010Z</time>
      </trkpt>
      <trkpt lat="44.68754" lon="6.9427">
        <ele>2892.8200064</ele>
        <time>2020-02-17T12:25:18.010Z</time>
      </trkpt>
      <trkpt lat="44.68752" lon="6.94252">
        <ele>2889.8608745551</ele>
        <time>2020-02-17T12:25:21.010Z</time>
      </trkpt>
      <trkpt lat="44.68763" lon="6.94253">
        <ele>2882.1314083458</ele>
        <time>2020-02-17T12:25:31.010Z</time>
      </trkpt>
      <trkpt lat="44.68767" lon="6.9424">
        <ele>2877.1316105721</ele>
        <time>2020-02-17T12:25:39.010Z</time>
      </trkpt>
      <trkpt lat="44.68763" lon="6.94228">
        <ele>2875.58200064</ele>
        <time>2020-02-17T12:25:45.010Z</time>
      </trkpt>
      <trkpt lat="44.68764" lon="6.94213">
        <ele>2876</ele>
        <time>2020-02-17T12:26:19.010Z</time>
      </trkpt>
      <trkpt lat="44.68769" lon="6.94199">
        <ele>2874.4250048</ele>
        <time>2020-02-17T12:26:24.010Z</time>
      </trkpt>
      <trkpt lat="44.68767" lon="6.94183">
        <ele>2872.9250048</ele>
        <time>2020-02-17T12:26:27.010Z</time>
      </trkpt>
      <trkpt lat="44.68763" lon="6.94166">
        <ele>2871.4250048</ele>
        <time>2020-02-17T12:26:30.010Z</time>
      </trkpt>
      <trkpt lat="44.68768" lon="6.94154">
        <ele>2863.4172724308</ele>
        <time>2020-02-17T12:26:34.010Z</time>
      </trkpt>
      <trkpt lat="44.68776" lon="6.94145">
        <ele>2856.1956051179</ele>
        <time>2020-02-17T12:26:37.010Z</time>
      </trkpt>
      <trkpt lat="44.68784" lon="6.94135">
        <ele>2848.9739378051</ele>
        <time>2020-02-17T12:26:40.010Z</time>
      </trkpt>
      <trkpt lat="44.68794" lon="6.94132">
        <ele>2845.25600512</ele>
        <time>2020-02-17T12:26:43.010Z</time>
      </trkpt>
      <trkpt lat="44.68803" lon="6.94124">
        <ele>2841.25600512</ele>
        <time>2020-02-17T12:26:48.010Z</time>
      </trkpt>
      <trkpt lat="44.68812" lon="6.94122">
        <ele>2838.8200064</ele>
        <time>2020-02-17T12:26:51.010Z</time>
      </trkpt>
      <trkpt lat="44.68823" lon="6.94123">
        <ele>2835.8200064</ele>
        <time>2020-02-17T12:26:54.010Z</time>
      </trkpt>
      <trkpt lat="44.68831" lon="6.94111">
        <ele>2832.8200064</ele>
        <time>2020-02-17T12:26:57.010Z</time>
      </trkpt>
      <trkpt lat="44.6884" lon="6.94104">
        <ele>2830.8200064</ele>
        <time>2020-02-17T12:26:59.010Z</time>
      </trkpt>
      <trkpt lat="44.6885" lon="6.94097">
        <ele>2828.78400768</ele>
        <time>2020-02-17T12:27:01.010Z</time>
      </trkpt>
      <trkpt lat="44.68857" lon="6.94089">
        <ele>2826.38400768</ele>
        <time>2020-02-17T12:27:03.010Z</time>
      </trkpt>
      <trkpt lat="44.68861" lon="6.94073">
        <ele>2822.78400768</ele>
        <time>2020-02-17T12:27:06.010Z</time>
      </trkpt>
      <trkpt lat="44.68866" lon="6.94058">
        <ele>2819.18400768</ele>
        <time>2020-02-17T12:27:09.010Z</time>
      </trkpt>
      <trkpt lat="44.68873" lon="6.94042">
        <ele>2816.52800256</ele>
        <time>2020-02-17T12:27:12.010Z</time>
      </trkpt>
      <trkpt lat="44.68879" lon="6.94029">
        <ele>2815.72800256</ele>
        <time>2020-02-17T12:27:14.010Z</time>
      </trkpt>
      <trkpt lat="44.68883" lon="6.94018">
        <ele>2814.52800256</ele>
        <time>2020-02-17T12:27:17.010Z</time>
      </trkpt>
      <trkpt lat="44.68886" lon="6.94006">
        <ele>2811.58200064</ele>
        <time>2020-02-17T12:27:45.010Z</time>
      </trkpt>
      <trkpt lat="44.68874" lon="6.94003">
        <ele>2814</ele>
        <time>2020-02-17T12:29:09.010Z</time>
      </trkpt>
      <trkpt lat="44.68866" lon="6.93988">
        <ele>2810.94800896</ele>
        <time>2020-02-17T12:29:13.010Z</time>
      </trkpt>
      <trkpt lat="44.68864" lon="6.93973">
        <ele>2808.14800896</ele>
        <time>2020-02-17T12:29:15.010Z</time>
      </trkpt>
      <trkpt lat="44.68866" lon="6.93956">
        <ele>2803.94800896</ele>
        <time>2020-02-17T12:29:18.010Z</time>
      </trkpt>
      <trkpt lat="44.6886" lon="6.93942">
        <ele>2801.14800896</ele>
        <time>2020-02-17T12:29:20.010Z</time>
      </trkpt>
      <trkpt lat="44.68861" lon="6.93929">
        <ele>2797.16801536</ele>
        <time>2020-02-17T12:29:22.010Z</time>
      </trkpt>
      <trkpt lat="44.68859" lon="6.93917">
        <ele>2792.36801536</ele>
        <time>2020-02-17T12:29:24.010Z</time>
      </trkpt>
      <trkpt lat="44.68862" lon="6.939">
        <ele>2785.16801536</ele>
        <time>2020-02-17T12:29:27.010Z</time>
      </trkpt>
      <trkpt lat="44.68862" lon="6.93884">
        <ele>2780.36801536</ele>
        <time>2020-02-17T12:29:29.010Z</time>
      </trkpt>
      <trkpt lat="44.68863" lon="6.9387">
        <ele>2775.80200704</ele>
        <time>2020-02-17T12:29:31.010Z</time>
      </trkpt>
      <trkpt lat="44.68861" lon="6.93858">
        <ele>2773.60200704</ele>
        <time>2020-02-17T12:29:33.010Z</time>
      </trkpt>
      <trkpt lat="44.68861" lon="6.93845">
        <ele>2771.40200704</ele>
        <time>2020-02-17T12:29:35.010Z</time>
      </trkpt>
      <trkpt lat="44.68863" lon="6.93832">
        <ele>2769.20200704</ele>
        <time>2020-02-17T12:29:37.010Z</time>
      </trkpt>
      <trkpt lat="44.68861" lon="6.93819">
        <ele>2767.00200704</ele>
        <time>2020-02-17T12:29:39.010Z</time>
      </trkpt>
      <trkpt lat="44.68862" lon="6.93806">
        <ele>2764.92800256</ele>
        <time>2020-02-17T12:29:41.010Z</time>
      </trkpt>
      <trkpt lat="44.68859" lon="6.93791">
        <ele>2763.72800256</ele>
        <time>2020-02-17T12:29:44.010Z</time>
      </trkpt>
      <trkpt lat="44.68854" lon="6.93775">
        <ele>2762.52800256</ele>
        <time>2020-02-17T12:29:47.010Z</time>
      </trkpt>
      <trkpt lat="44.68852" lon="6.93757">
        <ele>2761.32800256</ele>
        <time>2020-02-17T12:29:50.010Z</time>
      </trkpt>
      <trkpt lat="44.6885" lon="6.93744">
        <ele>2760.17400448</ele>
        <time>2020-02-17T12:29:52.010Z</time>
      </trkpt>
      <trkpt lat="44.68849" lon="6.9373">
        <ele>2758.77400448</ele>
        <time>2020-02-17T12:29:54.010Z</time>
      </trkpt>
      <trkpt lat="44.68848" lon="6.93715">
        <ele>2756.67400448</ele>
        <time>2020-02-17T12:29:57.010Z</time>
      </trkpt>
      <trkpt lat="44.68857" lon="6.9372">
        <ele>2753.25600512</ele>
        <time>2020-02-17T12:30:13.010Z</time>
      </trkpt>
      <trkpt lat="44.68868" lon="6.93721">
        <ele>2749.25600512</ele>
        <time>2020-02-17T12:30:18.010Z</time>
      </trkpt>
      <trkpt lat="44.68877" lon="6.93726">
        <ele>2742.8200064</ele>
        <time>2020-02-17T12:30:25.010Z</time>
      </trkpt>
      <trkpt lat="44.68885" lon="6.93717">
        <ele>2738.8200064</ele>
        <time>2020-02-17T12:30:29.010Z</time>
      </trkpt>
      <trkpt lat="44.68884" lon="6.93703">
        <ele>2736.17400448</ele>
        <time>2020-02-17T12:30:32.010Z</time>
      </trkpt>
      <trkpt lat="44.68881" lon="6.9369">
        <ele>2734.07400448</ele>
        <time>2020-02-17T12:30:35.010Z</time>
      </trkpt>
      <trkpt lat="44.6889" lon="6.93693">
        <ele>2729.83800576</ele>
        <time>2020-02-17T12:30:41.010Z</time>
      </trkpt>
      <trkpt lat="44.68898" lon="6.93684">
        <ele>2724.43800576</ele>
        <time>2020-02-17T12:30:47.010Z</time>
      </trkpt>
      <trkpt lat="44.68904" lon="6.93672">
        <ele>2717.29200384</ele>
        <time>2020-02-17T12:30:57.010Z</time>
      </trkpt>
      <trkpt lat="44.68913" lon="6.93682">
        <ele>2713.69200384</ele>
        <time>2020-02-17T12:31:03.010Z</time>
      </trkpt>
      <trkpt lat="44.68918" lon="6.93695">
        <ele>2711.89200384</ele>
        <time>2020-02-17T12:31:06.010Z</time>
      </trkpt>
      <trkpt lat="44.68923" lon="6.9371">
        <ele>2710.09200384</ele>
        <time>2020-02-17T12:31:09.010Z</time>
      </trkpt>
      <trkpt lat="44.68928" lon="6.93723">
        <ele>2708.76600832</ele>
        <time>2020-02-17T12:31:11.010Z</time>
      </trkpt>
      <trkpt lat="44.68937" lon="6.93736">
        <ele>2706.16600832</ele>
        <time>2020-02-17T12:31:13.010Z</time>
      </trkpt>
      <trkpt lat="44.68946" lon="6.93749">
        <ele>2703.56600832</ele>
        <time>2020-02-17T12:31:15.010Z</time>
      </trkpt>
      <trkpt lat="44.68958" lon="6.93761">
        <ele>2700.96600832</ele>
        <time>2020-02-17T12:31:17.010Z</time>
      </trkpt>
      <trkpt lat="44.6897" lon="6.93771">
        <ele>2698.36600832</ele>
        <time>2020-02-17T12:31:19.010Z</time>
      </trkpt>
      <trkpt lat="44.68983" lon="6.93779">
        <ele>2695.80200704</ele>
        <time>2020-02-17T12:31:21.010Z</time>
      </trkpt>
      <trkpt lat="44.68998" lon="6.93783">
        <ele>2693.60200704</ele>
        <time>2020-02-17T12:31:23.010Z</time>
      </trkpt>
      <trkpt lat="44.69008" lon="6.93782">
        <ele>2692.50200704</ele>
        <time>2020-02-17T12:31:24.010Z</time>
      </trkpt>
      <trkpt lat="44.69019" lon="6.93781">
        <ele>2691.40200704</ele>
        <time>2020-02-17T12:31:25.010Z</time>
      </trkpt>
      <trkpt lat="44.69029" lon="6.9378">
        <ele>2690.30200704</ele>
        <time>2020-02-17T12:31:26.010Z</time>
      </trkpt>
      <trkpt lat="44.69038" lon="6.93779">
        <ele>2689.20200704</ele>
        <time>2020-02-17T12:31:27.010Z</time>
      </trkpt>
      <trkpt lat="44.69052" lon="6.93777">
        <ele>2687.00200704</ele>
        <time>2020-02-17T12:31:29.010Z</time>
      </trkpt>
      <trkpt lat="44.6906" lon="6.93772">
        <ele>2685</ele>
        <time>2020-02-17T12:31:37.010Z</time>
      </trkpt>
      <trkpt lat="44.69067" lon="6.93762">
        <ele>2685</ele>
        <time>2020-02-17T12:31:58.010Z</time>
      </trkpt>
      <trkpt lat="44.69075" lon="6.93757">
        <ele>2685</ele>
        <time>2020-02-17T12:32:06.010Z</time>
      </trkpt>
      <trkpt lat="44.69083" lon="6.9375">
        <ele>2683.0150441773</ele>
        <time>2020-02-17T12:33:01.010Z</time>
      </trkpt>
      <trkpt lat="44.69093" lon="6.93748">
        <ele>2684</ele>
        <time>2020-02-17T12:33:30.010Z</time>
      </trkpt>
      <trkpt lat="44.69096" lon="6.93761">
        <ele>2682</ele>
        <time>2020-02-17T12:33:58.010Z</time>
      </trkpt>
      <trkpt lat="44.69093" lon="6.93774">
        <ele>2673.73800576</ele>
        <time>2020-02-17T12:34:10.010Z</time>
      </trkpt>
      <trkpt lat="44.69095" lon="6.93787">
        <ele>2673</ele>
        <time>2020-02-17T12:34:19.010Z</time>
      </trkpt>
      <trkpt lat="44.69092" lon="6.93801">
        <ele>2670.49200384</ele>
        <time>2020-02-17T12:34:25.010Z</time>
      </trkpt>
      <trkpt lat="44.69099" lon="6.93809">
        <ele>2662.8642739253</ele>
        <time>2020-02-17T12:34:36.010Z</time>
      </trkpt>
      <trkpt lat="44.69105" lon="6.93819">
        <ele>2647.5270313514</ele>
        <time>2020-02-17T12:34:53.010Z</time>
      </trkpt>
      <trkpt lat="44.69097" lon="6.93839">
        <ele>2646.17568</ele>
        <time>2020-02-17T12:34:55.010Z</time>
      </trkpt>
      <trkpt lat="44.69102" lon="6.93852">
        <ele>2639.952286805</ele>
        <time>2020-02-17T12:35:04.010Z</time>
      </trkpt>
      <trkpt lat="44.69105" lon="6.93866">
        <ele>2637.0477224896</ele>
        <time>2020-02-17T12:35:08.010Z</time>
      </trkpt>
      <trkpt lat="44.69113" lon="6.93875">
        <ele>2635</ele>
        <time>2020-02-17T12:35:40.010Z</time>
      </trkpt>
      <trkpt lat="44.69111" lon="6.93887">
        <ele>2635.5836659761</ele>
        <time>2020-02-17T12:36:05.010Z</time>
      </trkpt>
      <trkpt lat="44.6912" lon="6.93888">
        <ele>2635</ele>
        <time>2020-02-17T12:36:18.010Z</time>
      </trkpt>
      <trkpt lat="44.69131" lon="6.9389">
        <ele>2628.3320163248</ele>
        <time>2020-02-17T12:36:25.010Z</time>
      </trkpt>
      <trkpt lat="44.6914" lon="6.93889">
        <ele>2623.5463747808</ele>
        <time>2020-02-17T12:36:28.010Z</time>
      </trkpt>
      <trkpt lat="44.69149" lon="6.93895">
        <ele>2616.8456996205</ele>
        <time>2020-02-17T12:36:33.010Z</time>
      </trkpt>
      <trkpt lat="44.69159" lon="6.93897">
        <ele>2611.8356763676</ele>
        <time>2020-02-17T12:36:38.010Z</time>
      </trkpt>
      <trkpt lat="44.69159" lon="6.93909">
        <ele>2608.5655663454</ele>
        <time>2020-02-17T12:36:43.010Z</time>
      </trkpt>
      <trkpt lat="44.69168" lon="6.93911">
        <ele>2606.68200064</ele>
        <time>2020-02-17T12:36:54.010Z</time>
      </trkpt>
      <trkpt lat="44.69177" lon="6.93907">
        <ele>2606.18200064</ele>
        <time>2020-02-17T12:36:59.010Z</time>
      </trkpt>
      <trkpt lat="44.69175" lon="6.93923">
        <ele>2601.40200704</ele>
        <time>2020-02-17T12:37:05.010Z</time>
      </trkpt>
      <trkpt lat="44.69173" lon="6.93937">
        <ele>2597.00200704</ele>
        <time>2020-02-17T12:37:09.010Z</time>
      </trkpt>
      <trkpt lat="44.69177" lon="6.93948">
        <ele>2590.69200384</ele>
        <time>2020-02-17T12:37:18.010Z</time>
      </trkpt>
      <trkpt lat="44.69186" lon="6.93952">
        <ele>2586.07400448</ele>
        <time>2020-02-17T12:37:25.010Z</time>
      </trkpt>
      <trkpt lat="44.69196" lon="6.93954">
        <ele>2583.97400448</ele>
        <time>2020-02-17T12:37:28.010Z</time>
      </trkpt>
      <trkpt lat="44.69206" lon="6.93953">
        <ele>2582.57400448</ele>
        <time>2020-02-17T12:37:30.010Z</time>
      </trkpt>
      <trkpt lat="44.69216" lon="6.93948">
        <ele>2581.88200064</ele>
        <time>2020-02-17T12:37:32.010Z</time>
      </trkpt>
      <trkpt lat="44.69226" lon="6.93942">
        <ele>2581.58200064</ele>
        <time>2020-02-17T12:37:35.010Z</time>
      </trkpt>
      <trkpt lat="44.69236" lon="6.93951">
        <ele>2575.9960194785</ele>
        <time>2020-02-17T12:38:33.010Z</time>
      </trkpt>
      <trkpt lat="44.69243" lon="6.93959">
        <ele>2571.405198183</ele>
        <time>2020-02-17T12:38:35.010Z</time>
      </trkpt>
      <trkpt lat="44.69247" lon="6.93973">
        <ele>2566.8143768874</ele>
        <time>2020-02-17T12:38:37.010Z</time>
      </trkpt>
      <trkpt lat="44.69254" lon="6.93982">
        <ele>2559.9281449441</ele>
        <time>2020-02-17T12:38:40.010Z</time>
      </trkpt>
      <trkpt lat="44.69247" lon="6.93997">
        <ele>2554.5170363017</ele>
        <time>2020-02-17T12:38:44.010Z</time>
      </trkpt>
      <trkpt lat="44.69254" lon="6.94012">
        <ele>2550.1082214937</ele>
        <time>2020-02-17T12:38:48.010Z</time>
      </trkpt>
      <trkpt lat="44.69265" lon="6.94022">
        <ele>2546.87400448</ele>
        <time>2020-02-17T12:38:51.010Z</time>
      </trkpt>
      <trkpt lat="44.69274" lon="6.94028">
        <ele>2544.77400448</ele>
        <time>2020-02-17T12:38:54.010Z</time>
      </trkpt>
      <trkpt lat="44.69279" lon="6.9404">
        <ele>2539.8922193324</ele>
        <time>2020-02-17T12:39:01.010Z</time>
      </trkpt>
      <trkpt lat="44.69286" lon="6.94048">
        <ele>2537.4970082216</ele>
        <time>2020-02-17T12:39:05.010Z</time>
      </trkpt>
      <trkpt lat="44.69294" lon="6.94059">
        <ele>2534.5029943333</ele>
        <time>2020-02-17T12:39:10.010Z</time>
      </trkpt>
      <trkpt lat="44.69287" lon="6.94067">
        <ele>2532.1002016191</ele>
        <time>2020-02-17T12:39:14.010Z</time>
      </trkpt>
      <trkpt lat="44.69281" lon="6.94077">
        <ele>2528.4929895035</ele>
        <time>2020-02-17T12:39:20.010Z</time>
      </trkpt>
      <trkpt lat="44.69288" lon="6.94086">
        <ele>2526.32800256</ele>
        <time>2020-02-17T12:39:25.010Z</time>
      </trkpt>
      <trkpt lat="44.693" lon="6.94085">
        <ele>2524.72800256</ele>
        <time>2020-02-17T12:39:29.010Z</time>
      </trkpt>
      <trkpt lat="44.6931" lon="6.94086">
        <ele>2523.56400128</ele>
        <time>2020-02-17T12:39:33.010Z</time>
      </trkpt>
      <trkpt lat="44.69321" lon="6.94086">
        <ele>2522.76400128</ele>
        <time>2020-02-17T12:39:37.010Z</time>
      </trkpt>
      <trkpt lat="44.69331" lon="6.94085">
        <ele>2521.8921116938</ele>
        <time>2020-02-17T12:39:41.010Z</time>
      </trkpt>
      <trkpt lat="44.69338" lon="6.94093">
        <ele>2518.2957069477</ele>
        <time>2020-02-17T12:39:47.010Z</time>
      </trkpt>
      <trkpt lat="44.69345" lon="6.94102">
        <ele>2516.4975045746</ele>
        <time>2020-02-17T12:39:50.010Z</time>
      </trkpt>
      <trkpt lat="44.69353" lon="6.94114">
        <ele>2512.9589644175</ele>
        <time>2020-02-17T12:39:53.010Z</time>
      </trkpt>
      <trkpt lat="44.6936" lon="6.94124">
        <ele>2510.1561625125</ele>
        <time>2020-02-17T12:39:55.010Z</time>
      </trkpt>
      <trkpt lat="44.69366" lon="6.94133">
        <ele>2507.3533606075</ele>
        <time>2020-02-17T12:39:57.010Z</time>
      </trkpt>
      <trkpt lat="44.69375" lon="6.94144">
        <ele>2503.14915775</ele>
        <time>2020-02-17T12:40:00.010Z</time>
      </trkpt>
      <trkpt lat="44.69385" lon="6.9415">
        <ele>2498.94800896</ele>
        <time>2020-02-17T12:40:03.010Z</time>
      </trkpt>
      <trkpt lat="44.69394" lon="6.94157">
        <ele>2493.34800896</ele>
        <time>2020-02-17T12:40:07.010Z</time>
      </trkpt>
      <trkpt lat="44.69392" lon="6.94173">
        <ele>2487.89200384</ele>
        <time>2020-02-17T12:40:11.010Z</time>
      </trkpt>
      <trkpt lat="44.69384" lon="6.94183">
        <ele>2486.69200384</ele>
        <time>2020-02-17T12:40:13.010Z</time>
      </trkpt>
      <trkpt lat="44.69372" lon="6.94193">
        <ele>2485.49200384</ele>
        <time>2020-02-17T12:40:15.010Z</time>
      </trkpt>
      <trkpt lat="44.69362" lon="6.94204">
        <ele>2484.29200384</ele>
        <time>2020-02-17T12:40:17.010Z</time>
      </trkpt>
      <trkpt lat="44.69354" lon="6.94216">
        <ele>2483.09200384</ele>
        <time>2020-02-17T12:40:19.010Z</time>
      </trkpt>
      <trkpt lat="44.69349" lon="6.94228">
        <ele>2481.96400128</ele>
        <time>2020-02-17T12:40:21.010Z</time>
      </trkpt>
      <trkpt lat="44.6934" lon="6.94207">
        <ele>2479</ele>
        <time>2020-02-17T12:41:24.010Z</time>
      </trkpt>
      <trkpt lat="44.69372" lon="6.94217">
        <ele>2479</ele>
        <time>2020-02-17T12:41:31.010Z</time>
      </trkpt>
      <trkpt lat="44.69401" lon="6.94199">
        <ele>2479</ele>
        <time>2020-02-17T12:41:33.010Z</time>
      </trkpt>
      <trkpt lat="44.69405" lon="6.94211">
        <ele>2479</ele>
        <time>2020-02-17T12:41:36.010Z</time>
      </trkpt>
      <trkpt lat="44.69399" lon="6.94232">
        <ele>2479</ele>
        <time>2020-02-17T12:41:40.010Z</time>
      </trkpt>
      <trkpt lat="44.69408" lon="6.94229">
        <ele>2476.88200064</ele>
        <time>2020-02-17T12:42:02.010Z</time>
      </trkpt>
      <trkpt lat="44.69418" lon="6.94234">
        <ele>2476.8564358584</ele>
        <time>2020-02-17T12:42:31.010Z</time>
      </trkpt>
      <trkpt lat="44.69425" lon="6.94249">
        <ele>2474.4636150864</ele>
        <time>2020-02-17T12:42:34.010Z</time>
      </trkpt>
      <trkpt lat="44.69433" lon="6.94262">
        <ele>2471.2731873904</ele>
        <time>2020-02-17T12:42:38.010Z</time>
      </trkpt>
      <trkpt lat="44.69439" lon="6.94271">
        <ele>2466.1966013871</ele>
        <time>2020-02-17T12:42:43.010Z</time>
      </trkpt>
      <trkpt lat="44.6944" lon="6.94285">
        <ele>2457.0692163111</ele>
        <time>2020-02-17T12:42:50.010Z</time>
      </trkpt>
      <trkpt lat="44.69439" lon="6.94298">
        <ele>2449.13800576</ele>
        <time>2020-02-17T12:43:04.010Z</time>
      </trkpt>
      <trkpt lat="44.69438" lon="6.94312">
        <ele>2444.63800576</ele>
        <time>2020-02-17T12:43:09.010Z</time>
      </trkpt>
      <trkpt lat="44.69434" lon="6.94325">
        <ele>2440.07400448</ele>
        <time>2020-02-17T12:43:15.010Z</time>
      </trkpt>
      <trkpt lat="44.6944" lon="6.94337">
        <ele>2433.60200704</ele>
        <time>2020-02-17T12:43:23.010Z</time>
      </trkpt>
      <trkpt lat="44.69438" lon="6.9435">
        <ele>2430.30200704</ele>
        <time>2020-02-17T12:43:26.010Z</time>
      </trkpt>
      <trkpt lat="44.69439" lon="6.94364">
        <ele>2427.00200704</ele>
        <time>2020-02-17T12:43:29.010Z</time>
      </trkpt>
      <trkpt lat="44.6944" lon="6.94378">
        <ele>2422.60200704</ele>
        <time>2020-02-17T12:43:33.010Z</time>
      </trkpt>
      <trkpt lat="44.69423" lon="6.94344">
        <ele>2418.20200704</ele>
        <time>2020-02-17T12:43:37.010Z</time>
      </trkpt>
      <trkpt lat="44.69428" lon="6.94369">
        <ele>2416.00200704</ele>
        <time>2020-02-17T12:43:39.010Z</time>
      </trkpt>
      <trkpt lat="44.69435" lon="6.94379">
        <ele>2409.31100288</ele>
        <time>2020-02-17T12:43:46.040Z</time>
      </trkpt>
      <trkpt lat="44.6945" lon="6.94394">
        <ele>2407.53800576</ele>
        <time>2020-02-17T12:43:48.010Z</time>
      </trkpt>
      <trkpt lat="44.69455" lon="6.94407">
        <ele>2402.16600832</ele>
        <time>2020-02-17T12:43:53.010Z</time>
      </trkpt>
      <trkpt lat="44.69461" lon="6.94422">
        <ele>2395.66600832</ele>
        <time>2020-02-17T12:43:58.010Z</time>
      </trkpt>
      <trkpt lat="44.6947" lon="6.9443">
        <ele>2385.78400768</ele>
        <time>2020-02-17T12:44:06.010Z</time>
      </trkpt>
      <trkpt lat="44.6948" lon="6.94426">
        <ele>2377.13800576</ele>
        <time>2020-02-17T12:44:14.010Z</time>
      </trkpt>
      <trkpt lat="44.69484" lon="6.94439">
        <ele>2371.73800576</ele>
        <time>2020-02-17T12:44:20.010Z</time>
      </trkpt>
      <trkpt lat="44.69491" lon="6.9445">
        <ele>2365.5850648963</ele>
        <time>2020-02-17T12:44:37.010Z</time>
      </trkpt>
      <trkpt lat="44.695" lon="6.94451">
        <ele>2359.86600832</ele>
        <time>2020-02-17T12:44:44.010Z</time>
      </trkpt>
      <trkpt lat="44.69509" lon="6.94456">
        <ele>2350.9100032</ele>
        <time>2020-02-17T12:44:51.010Z</time>
      </trkpt>
      <trkpt lat="44.69548" lon="6.94401">
        <ele>2348.9100032</ele>
        <time>2020-02-17T12:44:55.010Z</time>
      </trkpt>
      <trkpt lat="44.69547" lon="6.94415">
        <ele>2345.0838323889</ele>
        <time>2020-02-17T12:45:10.010Z</time>
      </trkpt>
      <trkpt lat="44.69558" lon="6.94413">
        <ele>2333.5531135531</ele>
        <time>2020-02-17T12:45:19.010Z</time>
      </trkpt>
      <trkpt lat="44.69567" lon="6.94409">
        <ele>2330.410592419</ele>
        <time>2020-02-17T12:45:22.010Z</time>
      </trkpt>
      <trkpt lat="44.69575" lon="6.94417">
        <ele>2326.4145871455</ele>
        <time>2020-02-17T12:45:30.010Z</time>
      </trkpt>
      <trkpt lat="44.69586" lon="6.94417">
        <ele>2320.4414461048</ele>
        <time>2020-02-17T12:45:37.010Z</time>
      </trkpt>
      <trkpt lat="44.69585" lon="6.94435">
        <ele>2314.45600512</ele>
        <time>2020-02-17T12:45:44.010Z</time>
      </trkpt>
      <trkpt lat="44.69592" lon="6.94445">
        <ele>2308.85600512</ele>
        <time>2020-02-17T12:45:51.010Z</time>
      </trkpt>
      <trkpt lat="44.69597" lon="6.94455">
        <ele>2306.45600512</ele>
        <time>2020-02-17T12:45:54.010Z</time>
      </trkpt>
      <trkpt lat="44.69607" lon="6.94452">
        <ele>2303.25600512</ele>
        <time>2020-02-17T12:45:58.010Z</time>
      </trkpt>
      <trkpt lat="44.69614" lon="6.94461">
        <ele>2298.9100032</ele>
        <time>2020-02-17T12:46:05.010Z</time>
      </trkpt>
      <trkpt lat="44.69617" lon="6.94473">
        <ele>2296.9100032</ele>
        <time>2020-02-17T12:46:09.010Z</time>
      </trkpt>
      <trkpt lat="44.69623" lon="6.94464">
        <ele>2295.34600192</ele>
        <time>2020-02-17T12:46:13.010Z</time>
      </trkpt>
      <trkpt lat="44.69632" lon="6.94472">
        <ele>2293.24600192</ele>
        <time>2020-02-17T12:46:20.010Z</time>
      </trkpt>
      <trkpt lat="44.69633" lon="6.94487">
        <ele>2290.8300032</ele>
        <time>2020-02-17T12:46:23.000Z</time>
      </trkpt>
      <trkpt lat="44.69635" lon="6.945">
        <ele>2287.8200064</ele>
        <time>2020-02-17T12:46:26.010Z</time>
      </trkpt>
      <trkpt lat="44.6964" lon="6.94486">
        <ele>2282.85600512</ele>
        <time>2020-02-17T12:46:31.010Z</time>
      </trkpt>
      <trkpt lat="44.69646" lon="6.945">
        <ele>2277.25600512</ele>
        <time>2020-02-17T12:46:38.010Z</time>
      </trkpt>
      <trkpt lat="44.69654" lon="6.94494">
        <ele>2274.29200384</ele>
        <time>2020-02-17T12:46:42.010Z</time>
      </trkpt>
      <trkpt lat="44.69663" lon="6.945">
        <ele>2271.89200384</ele>
        <time>2020-02-17T12:46:46.010Z</time>
      </trkpt>
      <trkpt lat="44.69672" lon="6.94499">
        <ele>2269.6829518858</ele>
        <time>2020-02-17T12:47:04.010Z</time>
      </trkpt>
      <trkpt lat="44.69684" lon="6.94492">
        <ele>2269.0857433824</ele>
        <time>2020-02-17T12:47:10.000Z</time>
      </trkpt>
      <trkpt lat="44.69693" lon="6.94491">
        <ele>2265.3340171985</ele>
        <time>2020-02-17T12:47:13.010Z</time>
      </trkpt>
      <trkpt lat="44.69704" lon="6.94486">
        <ele>2260.2186695185</ele>
        <time>2020-02-17T12:47:16.010Z</time>
      </trkpt>
      <trkpt lat="44.69713" lon="6.94493">
        <ele>2255.1033218386</ele>
        <time>2020-02-17T12:47:19.010Z</time>
      </trkpt>
      <trkpt lat="44.69722" lon="6.94488">
        <ele>2249.77400448</ele>
        <time>2020-02-17T12:47:24.010Z</time>
      </trkpt>
      <trkpt lat="44.69728" lon="6.94478">
        <ele>2246.97400448</ele>
        <time>2020-02-17T12:47:28.010Z</time>
      </trkpt>
      <trkpt lat="44.69737" lon="6.94476">
        <ele>2244.8606051069</ele>
        <time>2020-02-17T12:47:31.010Z</time>
      </trkpt>
      <trkpt lat="44.69749" lon="6.94473">
        <ele>2242.5372742807</ele>
        <time>2020-02-17T12:47:34.010Z</time>
      </trkpt>
      <trkpt lat="44.69759" lon="6.94468">
        <ele>2240.9883870632</ele>
        <time>2020-02-17T12:47:36.010Z</time>
      </trkpt>
      <trkpt lat="44.69769" lon="6.94468">
        <ele>2238.665056237</ele>
        <time>2020-02-17T12:47:39.010Z</time>
      </trkpt>
      <trkpt lat="44.69779" lon="6.9446">
        <ele>2236.2088967251</ele>
        <time>2020-02-17T12:47:42.010Z</time>
      </trkpt>
      <trkpt lat="44.69791" lon="6.94459">
        <ele>2233.4167570079</ele>
        <time>2020-02-17T12:47:45.010Z</time>
      </trkpt>
      <trkpt lat="44.698" lon="6.94457">
        <ele>2231.5553305298</ele>
        <time>2020-02-17T12:47:47.010Z</time>
      </trkpt>
      <trkpt lat="44.69811" lon="6.94457">
        <ele>2229.6939040517</ele>
        <time>2020-02-17T12:47:49.010Z</time>
      </trkpt>
      <trkpt lat="44.69822" lon="6.94454">
        <ele>2227.85600512</ele>
        <time>2020-02-17T12:47:51.010Z</time>
      </trkpt>
      <trkpt lat="44.69831" lon="6.94444">
        <ele>2226.25600512</ele>
        <time>2020-02-17T12:47:53.010Z</time>
      </trkpt>
      <trkpt lat="44.69841" lon="6.94434">
        <ele>2224.65600512</ele>
        <time>2020-02-17T12:47:55.010Z</time>
      </trkpt>
      <trkpt lat="44.69853" lon="6.94426">
        <ele>2223.05600512</ele>
        <time>2020-02-17T12:47:57.010Z</time>
      </trkpt>
      <trkpt lat="44.69866" lon="6.94422">
        <ele>2221.45600512</ele>
        <time>2020-02-17T12:47:59.010Z</time>
      </trkpt>
      <trkpt lat="44.69875" lon="6.9442">
        <ele>2219.9281462216</ele>
        <time>2020-02-17T12:48:01.010Z</time>
      </trkpt>
      <trkpt lat="44.69885" lon="6.94421">
        <ele>2218.7305406662</ele>
        <time>2020-02-17T12:48:04.010Z</time>
      </trkpt>
      <trkpt lat="44.69894" lon="6.94419">
        <ele>2216.7345314073</ele>
        <time>2020-02-17T12:48:09.010Z</time>
      </trkpt>
      <trkpt lat="44.69891" lon="6.94432">
        <ele>2217</ele>
        <time>2020-02-17T12:48:48.010Z</time>
      </trkpt>
      <trkpt lat="44.69889" lon="6.94444">
        <ele>2217</ele>
        <time>2020-02-17T12:49:17.010Z</time>
      </trkpt>
      <trkpt lat="44.69888" lon="6.94457">
        <ele>2217</ele>
        <time>2020-02-17T12:49:53.010Z</time>
      </trkpt>
      <trkpt lat="44.69898" lon="6.94465">
        <ele>2217</ele>
        <time>2020-02-17T12:50:11.040Z</time>
      </trkpt>
      <trkpt lat="44.69897" lon="6.94482">
        <ele>2217</ele>
        <time>2020-02-17T12:50:13.010Z</time>
      </trkpt>
      <trkpt lat="44.69888" lon="6.94492">
        <ele>2217</ele>
        <time>2020-02-17T12:50:17.010Z</time>
      </trkpt>
      <trkpt lat="44.6988" lon="6.94485">
        <ele>2217</ele>
        <time>2020-02-17T12:50:18.010Z</time>
      </trkpt>
      <trkpt lat="44.69885" lon="6.94505">
        <ele>2217</ele>
        <time>2020-02-17T12:50:25.040Z</time>
      </trkpt>
      <trkpt lat="44.6988" lon="6.94516">
        <ele>2218.404646166</ele>
        <time>2020-02-17T12:50:45.010Z</time>
      </trkpt>
      <trkpt lat="44.69886" lon="6.94507">
        <ele>2219</ele>
        <time>2020-02-17T12:50:52.010Z</time>
      </trkpt>
      <trkpt lat="44.69887" lon="6.94493">
        <ele>2219</ele>
        <time>2020-02-17T12:51:27.000Z</time>
      </trkpt>
      <trkpt lat="44.6991" lon="6.94436">
        <ele>2219.31799936</ele>
        <time>2020-02-17T12:51:44.010Z</time>
      </trkpt>
      <trkpt lat="44.69925" lon="6.94428">
        <ele>2219.41799936</ele>
        <time>2020-02-17T12:51:45.010Z</time>
      </trkpt>
      <trkpt lat="44.69916" lon="6.94424">
        <ele>2221</ele>
        <time>2020-02-17T12:52:16.010Z</time>
      </trkpt>
      <trkpt lat="44.69907" lon="6.94436">
        <ele>2220.1904760643</ele>
        <time>2020-02-17T12:52:53.010Z</time>
      </trkpt>
      <trkpt lat="44.69916" lon="6.94432">
        <ele>2221.8351638234</ele>
        <time>2020-02-17T12:53:05.010Z</time>
      </trkpt>
      <trkpt lat="44.69907" lon="6.94441">
        <ele>2222.2922287394</ele>
        <time>2020-02-17T12:54:08.010Z</time>
      </trkpt>
      <trkpt lat="44.69897" lon="6.94443">
        <ele>2240.38200064</ele>
        <time>2020-02-17T13:05:37.010Z</time>
      </trkpt>
      <trkpt lat="44.69906" lon="6.94437">
        <ele>2241.3950367255</ele>
        <time>2020-02-17T13:06:47.010Z</time>
      </trkpt>
      <trkpt lat="44.69914" lon="6.94443">
        <ele>2241</ele>
        <time>2020-02-17T13:11:21.010Z</time>
      </trkpt>
      <trkpt lat="44.6991" lon="6.94431">
        <ele>2240</ele>
        <time>2020-02-17T13:13:20.010Z</time>
      </trkpt>
      <trkpt lat="44.69904" lon="6.94442">
        <ele>2240</ele>
        <time>2020-02-17T13:14:58.010Z</time>
      </trkpt>
      <trkpt lat="44.69903" lon="6.94428">
        <ele>2239</ele>
        <time>2020-02-17T13:17:59.010Z</time>
      </trkpt>
      <trkpt lat="44.69904" lon="6.94415">
        <ele>2239</ele>
        <time>2020-02-17T13:18:06.010Z</time>
      </trkpt>
      <trkpt lat="44.69903" lon="6.944">
        <ele>2239</ele>
        <time>2020-02-17T13:18:14.010Z</time>
      </trkpt>
      <trkpt lat="44.69904" lon="6.94383">
        <ele>2239</ele>
        <time>2020-02-17T13:18:21.010Z</time>
      </trkpt>
      <trkpt lat="44.6991" lon="6.9437">
        <ele>2239</ele>
        <time>2020-02-17T13:18:23.010Z</time>
      </trkpt>
      <trkpt lat="44.69915" lon="6.94358">
        <ele>2239</ele>
        <time>2020-02-17T13:18:25.010Z</time>
      </trkpt>
      <trkpt lat="44.6992" lon="6.94346">
        <ele>2239</ele>
        <time>2020-02-17T13:18:27.010Z</time>
      </trkpt>
      <trkpt lat="44.69924" lon="6.94333">
        <ele>2237.7292728805</ele>
        <time>2020-02-17T13:18:34.010Z</time>
      </trkpt>
      <trkpt lat="44.69929" lon="6.94322">
        <ele>2235.6346337907</ele>
        <time>2020-02-17T13:18:44.010Z</time>
      </trkpt>
      <trkpt lat="44.69935" lon="6.94312">
        <ele>2237</ele>
        <time>2020-02-17T13:18:59.010Z</time>
      </trkpt>
      <trkpt lat="44.69944" lon="6.94307">
        <ele>2237</ele>
        <time>2020-02-17T13:19:11.010Z</time>
      </trkpt>
      <trkpt lat="44.69953" lon="6.94303">
        <ele>2237</ele>
        <time>2020-02-17T13:19:17.010Z</time>
      </trkpt>
      <trkpt lat="44.69961" lon="6.94296">
        <ele>2237</ele>
        <time>2020-02-17T13:19:23.010Z</time>
      </trkpt>
      <trkpt lat="44.6997" lon="6.9429">
        <ele>2237</ele>
        <time>2020-02-17T13:19:29.010Z</time>
      </trkpt>
      <trkpt lat="44.69977" lon="6.94281">
        <ele>2237</ele>
        <time>2020-02-17T13:19:41.010Z</time>
      </trkpt>
      <trkpt lat="44.69982" lon="6.94271">
        <ele>2238.4348688193</ele>
        <time>2020-02-17T13:19:58.010Z</time>
      </trkpt>
      <trkpt lat="44.69985" lon="6.94257">
        <ele>2239</ele>
        <time>2020-02-17T13:20:06.010Z</time>
      </trkpt>
      <trkpt lat="44.69988" lon="6.94242">
        <ele>2239</ele>
        <time>2020-02-17T13:20:10.010Z</time>
      </trkpt>
      <trkpt lat="44.69989" lon="6.94227">
        <ele>2239</ele>
        <time>2020-02-17T13:20:14.010Z</time>
      </trkpt>
      <trkpt lat="44.69991" lon="6.94211">
        <ele>2239</ele>
        <time>2020-02-17T13:20:18.010Z</time>
      </trkpt>
      <trkpt lat="44.69993" lon="6.94198">
        <ele>2239</ele>
        <time>2020-02-17T13:20:21.010Z</time>
      </trkpt>
      <trkpt lat="44.69995" lon="6.94186">
        <ele>2239</ele>
        <time>2020-02-17T13:20:24.010Z</time>
      </trkpt>
      <trkpt lat="44.7" lon="6.9417">
        <ele>2239</ele>
        <time>2020-02-17T13:20:28.010Z</time>
      </trkpt>
      <trkpt lat="44.70004" lon="6.94157">
        <ele>2238.88200064</ele>
        <time>2020-02-17T13:20:32.010Z</time>
      </trkpt>
      <trkpt lat="44.70008" lon="6.94145">
        <ele>2238.48200064</ele>
        <time>2020-02-17T13:20:36.010Z</time>
      </trkpt>
      <trkpt lat="44.70012" lon="6.94132">
        <ele>2238</ele>
        <time>2020-02-17T13:20:41.010Z</time>
      </trkpt>
      <trkpt lat="44.70016" lon="6.94118">
        <ele>2238</ele>
        <time>2020-02-17T13:20:46.010Z</time>
      </trkpt>
      <trkpt lat="44.70021" lon="6.94104">
        <ele>2238</ele>
        <time>2020-02-17T13:20:51.010Z</time>
      </trkpt>
      <trkpt lat="44.70026" lon="6.94094">
        <ele>2238</ele>
        <time>2020-02-17T13:20:55.010Z</time>
      </trkpt>
      <trkpt lat="44.70032" lon="6.94081">
        <ele>2238</ele>
        <time>2020-02-17T13:20:59.010Z</time>
      </trkpt>
      <trkpt lat="44.70037" lon="6.94068">
        <ele>2237.52800256</ele>
        <time>2020-02-17T13:21:02.010Z</time>
      </trkpt>
      <trkpt lat="44.70044" lon="6.94052">
        <ele>2236.32800256</ele>
        <time>2020-02-17T13:21:05.010Z</time>
      </trkpt>
      <trkpt lat="44.70049" lon="6.94038">
        <ele>2235.52800256</ele>
        <time>2020-02-17T13:21:07.010Z</time>
      </trkpt>
      <trkpt lat="44.70055" lon="6.94023">
        <ele>2234.72800256</ele>
        <time>2020-02-17T13:21:09.010Z</time>
      </trkpt>
      <trkpt lat="44.70062" lon="6.94006">
        <ele>2233.89200384</ele>
        <time>2020-02-17T13:21:11.010Z</time>
      </trkpt>
      <trkpt lat="44.70069" lon="6.93988">
        <ele>2232.69200384</ele>
        <time>2020-02-17T13:21:13.010Z</time>
      </trkpt>
      <trkpt lat="44.70077" lon="6.9397">
        <ele>2231.49200384</ele>
        <time>2020-02-17T13:21:15.010Z</time>
      </trkpt>
      <trkpt lat="44.70086" lon="6.93951">
        <ele>2230.29200384</ele>
        <time>2020-02-17T13:21:17.010Z</time>
      </trkpt>
      <trkpt lat="44.70095" lon="6.93934">
        <ele>2229.09200384</ele>
        <time>2020-02-17T13:21:19.010Z</time>
      </trkpt>
      <trkpt lat="44.70107" lon="6.93919">
        <ele>2227.74800896</ele>
        <time>2020-02-17T13:21:21.010Z</time>
      </trkpt>
      <trkpt lat="44.7012" lon="6.93903">
        <ele>2224.94800896</ele>
        <time>2020-02-17T13:21:23.010Z</time>
      </trkpt>
      <trkpt lat="44.70134" lon="6.93887">
        <ele>2222.14800896</ele>
        <time>2020-02-17T13:21:25.010Z</time>
      </trkpt>
      <trkpt lat="44.70142" lon="6.93878">
        <ele>2220.74800896</ele>
        <time>2020-02-17T13:21:26.010Z</time>
      </trkpt>
      <trkpt lat="44.70149" lon="6.9387">
        <ele>2219.34800896</ele>
        <time>2020-02-17T13:21:27.010Z</time>
      </trkpt>
      <trkpt lat="44.7016" lon="6.93854">
        <ele>2216.54800896</ele>
        <time>2020-02-17T13:21:29.010Z</time>
      </trkpt>
      <trkpt lat="44.7017" lon="6.93835">
        <ele>2213.89200384</ele>
        <time>2020-02-17T13:21:31.010Z</time>
      </trkpt>
      <trkpt lat="44.7018" lon="6.93818">
        <ele>2212.69200384</ele>
        <time>2020-02-17T13:21:33.010Z</time>
      </trkpt>
      <trkpt lat="44.70191" lon="6.938">
        <ele>2211.49200384</ele>
        <time>2020-02-17T13:21:35.010Z</time>
      </trkpt>
      <trkpt lat="44.70203" lon="6.93783">
        <ele>2210.29200384</ele>
        <time>2020-02-17T13:21:37.010Z</time>
      </trkpt>
      <trkpt lat="44.70216" lon="6.93767">
        <ele>2209.09200384</ele>
        <time>2020-02-17T13:21:39.010Z</time>
      </trkpt>
      <trkpt lat="44.70227" lon="6.93752">
        <ele>2207.89200384</ele>
        <time>2020-02-17T13:21:41.010Z</time>
      </trkpt>
      <trkpt lat="44.70236" lon="6.93738">
        <ele>2206.69200384</ele>
        <time>2020-02-17T13:21:43.010Z</time>
      </trkpt>
      <trkpt lat="44.70246" lon="6.93724">
        <ele>2205.49200384</ele>
        <time>2020-02-17T13:21:45.010Z</time>
      </trkpt>
      <trkpt lat="44.70255" lon="6.93712">
        <ele>2204.29200384</ele>
        <time>2020-02-17T13:21:47.010Z</time>
      </trkpt>
      <trkpt lat="44.70264" lon="6.93697">
        <ele>2203.09200384</ele>
        <time>2020-02-17T13:21:49.010Z</time>
      </trkpt>
      <trkpt lat="44.70274" lon="6.93684">
        <ele>2201.92800256</ele>
        <time>2020-02-17T13:21:51.010Z</time>
      </trkpt>
      <trkpt lat="44.70284" lon="6.93671">
        <ele>2201.12800256</ele>
        <time>2020-02-17T13:21:53.010Z</time>
      </trkpt>
      <trkpt lat="44.70293" lon="6.93659">
        <ele>2200.32800256</ele>
        <time>2020-02-17T13:21:55.010Z</time>
      </trkpt>
      <trkpt lat="44.70302" lon="6.93645">
        <ele>2199.52800256</ele>
        <time>2020-02-17T13:21:57.010Z</time>
      </trkpt>
      <trkpt lat="44.7031" lon="6.93629">
        <ele>2198.72800256</ele>
        <time>2020-02-17T13:21:59.010Z</time>
      </trkpt>
      <trkpt lat="44.70318" lon="6.93613">
        <ele>2197.87400448</ele>
        <time>2020-02-17T13:22:01.010Z</time>
      </trkpt>
      <trkpt lat="44.70325" lon="6.93598">
        <ele>2196.47400448</ele>
        <time>2020-02-17T13:22:03.010Z</time>
      </trkpt>
      <trkpt lat="44.70331" lon="6.93583">
        <ele>2195.07400448</ele>
        <time>2020-02-17T13:22:05.010Z</time>
      </trkpt>
      <trkpt lat="44.70338" lon="6.93567">
        <ele>2193.67400448</ele>
        <time>2020-02-17T13:22:07.010Z</time>
      </trkpt>
      <trkpt lat="44.70344" lon="6.93552">
        <ele>2192.27400448</ele>
        <time>2020-02-17T13:22:09.010Z</time>
      </trkpt>
      <trkpt lat="44.7035" lon="6.93535">
        <ele>2190.92800256</ele>
        <time>2020-02-17T13:22:11.010Z</time>
      </trkpt>
      <trkpt lat="44.70355" lon="6.93519">
        <ele>2190.12800256</ele>
        <time>2020-02-17T13:22:13.010Z</time>
      </trkpt>
      <trkpt lat="44.70359" lon="6.93504">
        <ele>2189.32800256</ele>
        <time>2020-02-17T13:22:15.010Z</time>
      </trkpt>
      <trkpt lat="44.70364" lon="6.93489">
        <ele>2188.52800256</ele>
        <time>2020-02-17T13:22:17.010Z</time>
      </trkpt>
      <trkpt lat="44.70369" lon="6.93473">
        <ele>2187.72800256</ele>
        <time>2020-02-17T13:22:19.010Z</time>
      </trkpt>
      <trkpt lat="44.70375" lon="6.93456">
        <ele>2186.9476762791</ele>
        <time>2020-02-17T13:22:21.010Z</time>
      </trkpt>
      <trkpt lat="44.70383" lon="6.9344">
        <ele>2186.3662809302</ele>
        <time>2020-02-17T13:22:23.010Z</time>
      </trkpt>
      <trkpt lat="44.70391" lon="6.93422">
        <ele>2185.7848855814</ele>
        <time>2020-02-17T13:22:25.010Z</time>
      </trkpt>
      <trkpt lat="44.70401" lon="6.93404">
        <ele>2185.2034902326</ele>
        <time>2020-02-17T13:22:27.010Z</time>
      </trkpt>
      <trkpt lat="44.70409" lon="6.93386">
        <ele>2184.6220948837</ele>
        <time>2020-02-17T13:22:29.010Z</time>
      </trkpt>
      <trkpt lat="44.70419" lon="6.93367">
        <ele>2184.0406995349</ele>
        <time>2020-02-17T13:22:31.010Z</time>
      </trkpt>
      <trkpt lat="44.70427" lon="6.93347">
        <ele>2182.0785190083</ele>
        <time>2020-02-17T13:22:33.010Z</time>
      </trkpt>
      <trkpt lat="44.70434" lon="6.93326">
        <ele>2180.0124033058</ele>
        <time>2020-02-17T13:22:35.010Z</time>
      </trkpt>
      <trkpt lat="44.7044" lon="6.93307">
        <ele>2177.9462876033</ele>
        <time>2020-02-17T13:22:37.010Z</time>
      </trkpt>
      <trkpt lat="44.70447" lon="6.93288">
        <ele>2175.8801719008</ele>
        <time>2020-02-17T13:22:39.010Z</time>
      </trkpt>
      <trkpt lat="44.70457" lon="6.9327">
        <ele>2173.87400448</ele>
        <time>2020-02-17T13:22:41.010Z</time>
      </trkpt>
      <trkpt lat="44.70466" lon="6.93252">
        <ele>2172.47400448</ele>
        <time>2020-02-17T13:22:43.010Z</time>
      </trkpt>
      <trkpt lat="44.70474" lon="6.93234">
        <ele>2171.07400448</ele>
        <time>2020-02-17T13:22:45.010Z</time>
      </trkpt>
      <trkpt lat="44.70482" lon="6.93217">
        <ele>2169.67400448</ele>
        <time>2020-02-17T13:22:47.010Z</time>
      </trkpt>
      <trkpt lat="44.7049" lon="6.93199">
        <ele>2168.27400448</ele>
        <time>2020-02-17T13:22:49.010Z</time>
      </trkpt>
      <trkpt lat="44.70501" lon="6.93182">
        <ele>2166.89200384</ele>
        <time>2020-02-17T13:22:51.010Z</time>
      </trkpt>
      <trkpt lat="44.70513" lon="6.93169">
        <ele>2165.69200384</ele>
        <time>2020-02-17T13:22:53.010Z</time>
      </trkpt>
      <trkpt lat="44.70526" lon="6.93157">
        <ele>2164.49200384</ele>
        <time>2020-02-17T13:22:55.010Z</time>
      </trkpt>
      <trkpt lat="44.70537" lon="6.93145">
        <ele>2163.29200384</ele>
        <time>2020-02-17T13:22:57.010Z</time>
      </trkpt>
      <trkpt lat="44.70547" lon="6.93129">
        <ele>2162.09200384</ele>
        <time>2020-02-17T13:22:59.010Z</time>
      </trkpt>
      <trkpt lat="44.70555" lon="6.93112">
        <ele>2160.92800256</ele>
        <time>2020-02-17T13:23:01.010Z</time>
      </trkpt>
      <trkpt lat="44.70561" lon="6.93093">
        <ele>2160.12800256</ele>
        <time>2020-02-17T13:23:03.010Z</time>
      </trkpt>
      <trkpt lat="44.70567" lon="6.93074">
        <ele>2159.32800256</ele>
        <time>2020-02-17T13:23:05.010Z</time>
      </trkpt>
      <trkpt lat="44.70573" lon="6.93057">
        <ele>2158.52800256</ele>
        <time>2020-02-17T13:23:07.010Z</time>
      </trkpt>
      <trkpt lat="44.70578" lon="6.93041">
        <ele>2157.72800256</ele>
        <time>2020-02-17T13:23:09.010Z</time>
      </trkpt>
      <trkpt lat="44.70582" lon="6.93026">
        <ele>2157</ele>
        <time>2020-02-17T13:23:11.010Z</time>
      </trkpt>
      <trkpt lat="44.70587" lon="6.93012">
        <ele>2157</ele>
        <time>2020-02-17T13:23:13.010Z</time>
      </trkpt>
      <trkpt lat="44.70593" lon="6.92999">
        <ele>2157</ele>
        <time>2020-02-17T13:23:15.010Z</time>
      </trkpt>
      <trkpt lat="44.70599" lon="6.92982">
        <ele>2157</ele>
        <time>2020-02-17T13:23:18.010Z</time>
      </trkpt>
      <trkpt lat="44.70605" lon="6.92971">
        <ele>2157</ele>
        <time>2020-02-17T13:23:20.010Z</time>
      </trkpt>
      <trkpt lat="44.7061" lon="6.92959">
        <ele>2156.8821184838</ele>
        <time>2020-02-17T13:23:22.010Z</time>
      </trkpt>
      <trkpt lat="44.70616" lon="6.92946">
        <ele>2156.6823182201</ele>
        <time>2020-02-17T13:23:24.010Z</time>
      </trkpt>
      <trkpt lat="44.70625" lon="6.92935">
        <ele>2156.4825179565</ele>
        <time>2020-02-17T13:23:26.010Z</time>
      </trkpt>
      <trkpt lat="44.70632" lon="6.92925">
        <ele>2156.2827176928</ele>
        <time>2020-02-17T13:23:28.010Z</time>
      </trkpt>
      <trkpt lat="44.7064" lon="6.92915">
        <ele>2156.0829174291</ele>
        <time>2020-02-17T13:23:30.010Z</time>
      </trkpt>
      <trkpt lat="44.70647" lon="6.92906">
        <ele>2155.5315329629</ele>
        <time>2020-02-17T13:23:32.010Z</time>
      </trkpt>
      <trkpt lat="44.70657" lon="6.92892">
        <ele>2154.3303321464</ele>
        <time>2020-02-17T13:23:35.010Z</time>
      </trkpt>
      <trkpt lat="44.70668" lon="6.92883">
        <ele>2153.12913133</ele>
        <time>2020-02-17T13:23:38.010Z</time>
      </trkpt>
      <trkpt lat="44.70677" lon="6.92871">
        <ele>2152</ele>
        <time>2020-02-17T13:23:41.010Z</time>
      </trkpt>
      <trkpt lat="44.70682" lon="6.92861">
        <ele>2152</ele>
        <time>2020-02-17T13:23:43.010Z</time>
      </trkpt>
      <trkpt lat="44.70689" lon="6.92847">
        <ele>2152</ele>
        <time>2020-02-17T13:23:46.010Z</time>
      </trkpt>
      <trkpt lat="44.70693" lon="6.92835">
        <ele>2152</ele>
        <time>2020-02-17T13:23:49.010Z</time>
      </trkpt>
      <trkpt lat="44.70697" lon="6.9282">
        <ele>2151.78200064</ele>
        <time>2020-02-17T13:23:53.010Z</time>
      </trkpt>
      <trkpt lat="44.70699" lon="6.92803">
        <ele>2151.38200064</ele>
        <time>2020-02-17T13:23:57.010Z</time>
      </trkpt>
      <trkpt lat="44.70702" lon="6.92789">
        <ele>2151</ele>
        <time>2020-02-17T13:24:01.010Z</time>
      </trkpt>
      <trkpt lat="44.70706" lon="6.92775">
        <ele>2151</ele>
        <time>2020-02-17T13:24:04.010Z</time>
      </trkpt>
      <trkpt lat="44.70711" lon="6.92761">
        <ele>2151</ele>
        <time>2020-02-17T13:24:07.010Z</time>
      </trkpt>
      <trkpt lat="44.70717" lon="6.92747">
        <ele>2151</ele>
        <time>2020-02-17T13:24:10.010Z</time>
      </trkpt>
      <trkpt lat="44.7072" lon="6.92733">
        <ele>2151</ele>
        <time>2020-02-17T13:24:13.010Z</time>
      </trkpt>
      <trkpt lat="44.70724" lon="6.9272">
        <ele>2151</ele>
        <time>2020-02-17T13:24:16.010Z</time>
      </trkpt>
      <trkpt lat="44.70728" lon="6.92703">
        <ele>2151</ele>
        <time>2020-02-17T13:24:19.010Z</time>
      </trkpt>
      <trkpt lat="44.7073" lon="6.92686">
        <ele>2150.52800256</ele>
        <time>2020-02-17T13:24:22.010Z</time>
      </trkpt>
      <trkpt lat="44.70733" lon="6.92669">
        <ele>2149.32800256</ele>
        <time>2020-02-17T13:24:25.010Z</time>
      </trkpt>
      <trkpt lat="44.70738" lon="6.92651">
        <ele>2148.12800256</ele>
        <time>2020-02-17T13:24:28.010Z</time>
      </trkpt>
      <trkpt lat="44.70742" lon="6.92639">
        <ele>2147.32800256</ele>
        <time>2020-02-17T13:24:30.010Z</time>
      </trkpt>
      <trkpt lat="44.70747" lon="6.92625">
        <ele>2146.4288509363</ele>
        <time>2020-02-17T13:24:32.010Z</time>
      </trkpt>
      <trkpt lat="44.70752" lon="6.92611">
        <ele>2145.4607964254</ele>
        <time>2020-02-17T13:24:34.010Z</time>
      </trkpt>
      <trkpt lat="44.70757" lon="6.92596">
        <ele>2144.4927419145</ele>
        <time>2020-02-17T13:24:36.010Z</time>
      </trkpt>
      <trkpt lat="44.70763" lon="6.92582">
        <ele>2143.5246874036</ele>
        <time>2020-02-17T13:24:38.010Z</time>
      </trkpt>
      <trkpt lat="44.70771" lon="6.92568">
        <ele>2142.5566328927</ele>
        <time>2020-02-17T13:24:40.010Z</time>
      </trkpt>
      <trkpt lat="44.70778" lon="6.92552">
        <ele>2141.4725978167</ele>
        <time>2020-02-17T13:24:42.010Z</time>
      </trkpt>
      <trkpt lat="44.70785" lon="6.92536">
        <ele>2140.2316468313</ele>
        <time>2020-02-17T13:24:44.010Z</time>
      </trkpt>
      <trkpt lat="44.70793" lon="6.9252">
        <ele>2138.9906958459</ele>
        <time>2020-02-17T13:24:46.010Z</time>
      </trkpt>
      <trkpt lat="44.708" lon="6.92504">
        <ele>2137.7497448605</ele>
        <time>2020-02-17T13:24:48.010Z</time>
      </trkpt>
      <trkpt lat="44.70808" lon="6.92487">
        <ele>2136.5087938751</ele>
        <time>2020-02-17T13:24:50.010Z</time>
      </trkpt>
      <trkpt lat="44.70816" lon="6.9247">
        <ele>2135.17400448</ele>
        <time>2020-02-17T13:24:52.010Z</time>
      </trkpt>
      <trkpt lat="44.70824" lon="6.92453">
        <ele>2133.77400448</ele>
        <time>2020-02-17T13:24:54.010Z</time>
      </trkpt>
      <trkpt lat="44.70832" lon="6.92435">
        <ele>2132.37400448</ele>
        <time>2020-02-17T13:24:56.010Z</time>
      </trkpt>
      <trkpt lat="44.7084" lon="6.92418">
        <ele>2130.97400448</ele>
        <time>2020-02-17T13:24:58.010Z</time>
      </trkpt>
      <trkpt lat="44.70848" lon="6.92404">
        <ele>2129.57400448</ele>
        <time>2020-02-17T13:25:00.010Z</time>
      </trkpt>
      <trkpt lat="44.70857" lon="6.9239">
        <ele>2127.93800576</ele>
        <time>2020-02-17T13:25:02.010Z</time>
      </trkpt>
      <trkpt lat="44.70867" lon="6.92376">
        <ele>2126.13800576</ele>
        <time>2020-02-17T13:25:04.010Z</time>
      </trkpt>
      <trkpt lat="44.70876" lon="6.9236">
        <ele>2124.33800576</ele>
        <time>2020-02-17T13:25:06.010Z</time>
      </trkpt>
      <trkpt lat="44.70886" lon="6.92344">
        <ele>2122.53800576</ele>
        <time>2020-02-17T13:25:08.010Z</time>
      </trkpt>
      <trkpt lat="44.70897" lon="6.92326">
        <ele>2120.73800576</ele>
        <time>2020-02-17T13:25:10.010Z</time>
      </trkpt>
      <trkpt lat="44.70903" lon="6.92316">
        <ele>2119.7300096</ele>
        <time>2020-02-17T13:25:11.010Z</time>
      </trkpt>
      <trkpt lat="44.7091" lon="6.92306">
        <ele>2118.2300096</ele>
        <time>2020-02-17T13:25:12.010Z</time>
      </trkpt>
      <trkpt lat="44.70918" lon="6.92297">
        <ele>2116.7300096</ele>
        <time>2020-02-17T13:25:13.010Z</time>
      </trkpt>
      <trkpt lat="44.70926" lon="6.9229">
        <ele>2115.2300096</ele>
        <time>2020-02-17T13:25:14.010Z</time>
      </trkpt>
      <trkpt lat="44.70935" lon="6.92282">
        <ele>2113.7300096</ele>
        <time>2020-02-17T13:25:15.010Z</time>
      </trkpt>
      <trkpt lat="44.70945" lon="6.92275">
        <ele>2112.2300096</ele>
        <time>2020-02-17T13:25:16.010Z</time>
      </trkpt>
      <trkpt lat="44.70955" lon="6.92269">
        <ele>2110.7300096</ele>
        <time>2020-02-17T13:25:17.010Z</time>
      </trkpt>
      <trkpt lat="44.70965" lon="6.92266">
        <ele>2109.2300096</ele>
        <time>2020-02-17T13:25:18.010Z</time>
      </trkpt>
      <trkpt lat="44.70976" lon="6.92262">
        <ele>2107.7300096</ele>
        <time>2020-02-17T13:25:19.010Z</time>
      </trkpt>
      <trkpt lat="44.70986" lon="6.92259">
        <ele>2106.2300096</ele>
        <time>2020-02-17T13:25:20.010Z</time>
      </trkpt>
      <trkpt lat="44.70997" lon="6.92256">
        <ele>2104.8200064</ele>
        <time>2020-02-17T13:25:21.010Z</time>
      </trkpt>
      <trkpt lat="44.71008" lon="6.92253">
        <ele>2103.8200064</ele>
        <time>2020-02-17T13:25:22.010Z</time>
      </trkpt>
      <trkpt lat="44.71018" lon="6.9225">
        <ele>2102.8200064</ele>
        <time>2020-02-17T13:25:23.010Z</time>
      </trkpt>
      <trkpt lat="44.71028" lon="6.92246">
        <ele>2101.8200064</ele>
        <time>2020-02-17T13:25:24.010Z</time>
      </trkpt>
      <trkpt lat="44.71037" lon="6.92241">
        <ele>2100.8200064</ele>
        <time>2020-02-17T13:25:25.010Z</time>
      </trkpt>
      <trkpt lat="44.71047" lon="6.92237">
        <ele>2099.8200064</ele>
        <time>2020-02-17T13:25:26.010Z</time>
      </trkpt>
      <trkpt lat="44.71056" lon="6.92231">
        <ele>2098.8200064</ele>
        <time>2020-02-17T13:25:27.010Z</time>
      </trkpt>
      <trkpt lat="44.71066" lon="6.92224">
        <ele>2097.8200064</ele>
        <time>2020-02-17T13:25:28.010Z</time>
      </trkpt>
      <trkpt lat="44.71075" lon="6.92217">
        <ele>2096.8200064</ele>
        <time>2020-02-17T13:25:29.010Z</time>
      </trkpt>
      <trkpt lat="44.71084" lon="6.92208">
        <ele>2095.8200064</ele>
        <time>2020-02-17T13:25:30.010Z</time>
      </trkpt>
      <trkpt lat="44.71092" lon="6.92199">
        <ele>2094.8257563836</ele>
        <time>2020-02-17T13:25:31.010Z</time>
      </trkpt>
      <trkpt lat="44.711" lon="6.9219">
        <ele>2093.8577018727</ele>
        <time>2020-02-17T13:25:32.010Z</time>
      </trkpt>
      <trkpt lat="44.71107" lon="6.92181">
        <ele>2092.8896473618</ele>
        <time>2020-02-17T13:25:33.010Z</time>
      </trkpt>
      <trkpt lat="44.71114" lon="6.92172">
        <ele>2091.9215928508</ele>
        <time>2020-02-17T13:25:34.010Z</time>
      </trkpt>
      <trkpt lat="44.71121" lon="6.92163">
        <ele>2090.9535383399</ele>
        <time>2020-02-17T13:25:35.010Z</time>
      </trkpt>
      <trkpt lat="44.71128" lon="6.92153">
        <ele>2089.985483829</ele>
        <time>2020-02-17T13:25:36.010Z</time>
      </trkpt>
      <trkpt lat="44.71135" lon="6.92145">
        <ele>2089.0174293181</ele>
        <time>2020-02-17T13:25:37.010Z</time>
      </trkpt>
      <trkpt lat="44.71148" lon="6.92128">
        <ele>2087.0813202962</ele>
        <time>2020-02-17T13:25:39.010Z</time>
      </trkpt>
      <trkpt lat="44.7116" lon="6.92112">
        <ele>2085.1452112744</ele>
        <time>2020-02-17T13:25:41.010Z</time>
      </trkpt>
      <trkpt lat="44.71172" lon="6.92099">
        <ele>2084.0444231405</ele>
        <time>2020-02-17T13:25:43.010Z</time>
      </trkpt>
      <trkpt lat="44.71183" lon="6.92085">
        <ele>2083.0113652893</ele>
        <time>2020-02-17T13:25:45.010Z</time>
      </trkpt>
      <trkpt lat="44.71193" lon="6.9207">
        <ele>2081.978307438</ele>
        <time>2020-02-17T13:25:47.010Z</time>
      </trkpt>
      <trkpt lat="44.71202" lon="6.92057">
        <ele>2080.9452495868</ele>
        <time>2020-02-17T13:25:49.010Z</time>
      </trkpt>
      <trkpt lat="44.71212" lon="6.92044">
        <ele>2079.931933235</ele>
        <time>2020-02-17T13:25:51.010Z</time>
      </trkpt>
      <trkpt lat="44.71221" lon="6.92031">
        <ele>2079.1311326907</ele>
        <time>2020-02-17T13:25:53.010Z</time>
      </trkpt>
      <trkpt lat="44.71229" lon="6.92018">
        <ele>2078.3303321464</ele>
        <time>2020-02-17T13:25:55.010Z</time>
      </trkpt>
      <trkpt lat="44.71237" lon="6.92006">
        <ele>2077.5295316022</ele>
        <time>2020-02-17T13:25:57.010Z</time>
      </trkpt>
      <trkpt lat="44.71244" lon="6.91992">
        <ele>2076.7287310579</ele>
        <time>2020-02-17T13:25:59.010Z</time>
      </trkpt>
      <trkpt lat="44.7125" lon="6.9198">
        <ele>2075.98200064</ele>
        <time>2020-02-17T13:26:01.010Z</time>
      </trkpt>
      <trkpt lat="44.71256" lon="6.91966">
        <ele>2075.78200064</ele>
        <time>2020-02-17T13:26:03.010Z</time>
      </trkpt>
      <trkpt lat="44.71261" lon="6.91953">
        <ele>2075.58200064</ele>
        <time>2020-02-17T13:26:05.010Z</time>
      </trkpt>
      <trkpt lat="44.71264" lon="6.9194">
        <ele>2075.38200064</ele>
        <time>2020-02-17T13:26:07.010Z</time>
      </trkpt>
      <trkpt lat="44.7127" lon="6.91923">
        <ele>2075.08200064</ele>
        <time>2020-02-17T13:26:10.010Z</time>
      </trkpt>
      <trkpt lat="44.71274" lon="6.91911">
        <ele>2074.7642369676</ele>
        <time>2020-02-17T13:26:12.010Z</time>
      </trkpt>
      <trkpt lat="44.71278" lon="6.91899">
        <ele>2074.3646364402</ele>
        <time>2020-02-17T13:26:14.010Z</time>
      </trkpt>
      <trkpt lat="44.71284" lon="6.91888">
        <ele>2073.9650359129</ele>
        <time>2020-02-17T13:26:16.010Z</time>
      </trkpt>
      <trkpt lat="44.71291" lon="6.91876">
        <ele>2073.5654353855</ele>
        <time>2020-02-17T13:26:18.010Z</time>
      </trkpt>
      <trkpt lat="44.71298" lon="6.91864">
        <ele>2073.1658348582</ele>
        <time>2020-02-17T13:26:20.010Z</time>
      </trkpt>
      <trkpt lat="44.71306" lon="6.91853">
        <ele>2072.6486497221</ele>
        <time>2020-02-17T13:26:22.010Z</time>
      </trkpt>
      <trkpt lat="44.71315" lon="6.91841">
        <ele>2072.0480493139</ele>
        <time>2020-02-17T13:26:24.010Z</time>
      </trkpt>
      <trkpt lat="44.71323" lon="6.9183">
        <ele>2071.4474489057</ele>
        <time>2020-02-17T13:26:26.010Z</time>
      </trkpt>
      <trkpt lat="44.71332" lon="6.9182">
        <ele>2070.8468484975</ele>
        <time>2020-02-17T13:26:28.010Z</time>
      </trkpt>
      <trkpt lat="44.71341" lon="6.91811">
        <ele>2070.2462480893</ele>
        <time>2020-02-17T13:26:30.010Z</time>
      </trkpt>
      <trkpt lat="44.71351" lon="6.91802">
        <ele>2069.52800256</ele>
        <time>2020-02-17T13:26:32.010Z</time>
      </trkpt>
      <trkpt lat="44.71359" lon="6.91793">
        <ele>2068.72800256</ele>
        <time>2020-02-17T13:26:34.010Z</time>
      </trkpt>
      <trkpt lat="44.71366" lon="6.91785">
        <ele>2067.92800256</ele>
        <time>2020-02-17T13:26:36.010Z</time>
      </trkpt>
      <trkpt lat="44.71373" lon="6.91777">
        <ele>2067.12800256</ele>
        <time>2020-02-17T13:26:38.010Z</time>
      </trkpt>
      <trkpt lat="44.71382" lon="6.91766">
        <ele>2066</ele>
        <time>2020-02-17T13:26:41.010Z</time>
      </trkpt>
      <trkpt lat="44.71389" lon="6.91758">
        <ele>2066</ele>
        <time>2020-02-17T13:26:43.010Z</time>
      </trkpt>
      <trkpt lat="44.71398" lon="6.91744">
        <ele>2066</ele>
        <time>2020-02-17T13:26:46.010Z</time>
      </trkpt>
      <trkpt lat="44.71407" lon="6.91732">
        <ele>2066</ele>
        <time>2020-02-17T13:26:49.010Z</time>
      </trkpt>
      <trkpt lat="44.71415" lon="6.91719">
        <ele>2065.8828832407</ele>
        <time>2020-02-17T13:26:52.010Z</time>
      </trkpt>
      <trkpt lat="44.71422" lon="6.91706">
        <ele>2065.5825830366</ele>
        <time>2020-02-17T13:26:55.010Z</time>
      </trkpt>
      <trkpt lat="44.71431" lon="6.91694">
        <ele>2065.2822828325</ele>
        <time>2020-02-17T13:26:58.010Z</time>
      </trkpt>
      <trkpt lat="44.71439" lon="6.91684">
        <ele>2064.98200064</ele>
        <time>2020-02-17T13:27:01.010Z</time>
      </trkpt>
      <trkpt lat="44.71448" lon="6.91674">
        <ele>2064.68200064</ele>
        <time>2020-02-17T13:27:04.010Z</time>
      </trkpt>
      <trkpt lat="44.71456" lon="6.91664">
        <ele>2064.38200064</ele>
        <time>2020-02-17T13:27:07.010Z</time>
      </trkpt>
      <trkpt lat="44.71463" lon="6.91653">
        <ele>2064.08200064</ele>
        <time>2020-02-17T13:27:10.010Z</time>
      </trkpt>
      <trkpt lat="44.71472" lon="6.91644">
        <ele>2064</ele>
        <time>2020-02-17T13:27:13.010Z</time>
      </trkpt>
      <trkpt lat="44.7148" lon="6.91633">
        <ele>2064</ele>
        <time>2020-02-17T13:27:16.010Z</time>
      </trkpt>
      <trkpt lat="44.71488" lon="6.91623">
        <ele>2064</ele>
        <time>2020-02-17T13:27:19.010Z</time>
      </trkpt>
      <trkpt lat="44.71496" lon="6.91613">
        <ele>2063.8828832407</ele>
        <time>2020-02-17T13:27:22.010Z</time>
      </trkpt>
      <trkpt lat="44.71504" lon="6.91603">
        <ele>2063.5825830366</ele>
        <time>2020-02-17T13:27:25.010Z</time>
      </trkpt>
      <trkpt lat="44.71511" lon="6.9159">
        <ele>2063.1821827645</ele>
        <time>2020-02-17T13:27:29.010Z</time>
      </trkpt>
      <trkpt lat="44.71516" lon="6.91575">
        <ele>2063</ele>
        <time>2020-02-17T13:27:33.010Z</time>
      </trkpt>
      <trkpt lat="44.71521" lon="6.91563">
        <ele>2063</ele>
        <time>2020-02-17T13:27:37.010Z</time>
      </trkpt>
      <trkpt lat="44.71524" lon="6.91551">
        <ele>2063</ele>
        <time>2020-02-17T13:27:41.010Z</time>
      </trkpt>
      <trkpt lat="44.71528" lon="6.91536">
        <ele>2063</ele>
        <time>2020-02-17T13:27:46.010Z</time>
      </trkpt>
      <trkpt lat="44.71529" lon="6.91523">
        <ele>2063</ele>
        <time>2020-02-17T13:27:49.010Z</time>
      </trkpt>
      <trkpt lat="44.71532" lon="6.91507">
        <ele>2063</ele>
        <time>2020-02-17T13:27:53.010Z</time>
      </trkpt>
      <trkpt lat="44.71536" lon="6.91495">
        <ele>2063</ele>
        <time>2020-02-17T13:27:56.010Z</time>
      </trkpt>
      <trkpt lat="44.71541" lon="6.91484">
        <ele>2063</ele>
        <time>2020-02-17T13:27:59.010Z</time>
      </trkpt>
      <trkpt lat="44.71548" lon="6.91472">
        <ele>2063</ele>
        <time>2020-02-17T13:28:02.010Z</time>
      </trkpt>
      <trkpt lat="44.71555" lon="6.91458">
        <ele>2063</ele>
        <time>2020-02-17T13:28:05.010Z</time>
      </trkpt>
      <trkpt lat="44.7156" lon="6.91447">
        <ele>2063</ele>
        <time>2020-02-17T13:28:07.010Z</time>
      </trkpt>
      <trkpt lat="44.71566" lon="6.91435">
        <ele>2063</ele>
        <time>2020-02-17T13:28:09.010Z</time>
      </trkpt>
      <trkpt lat="44.71573" lon="6.91423">
        <ele>2062.9100032</ele>
        <time>2020-02-17T13:28:11.010Z</time>
      </trkpt>
      <trkpt lat="44.71581" lon="6.9141">
        <ele>2061.9100032</ele>
        <time>2020-02-17T13:28:13.010Z</time>
      </trkpt>
      <trkpt lat="44.71591" lon="6.91397">
        <ele>2060.9100032</ele>
        <time>2020-02-17T13:28:15.010Z</time>
      </trkpt>
      <trkpt lat="44.71602" lon="6.91383">
        <ele>2059.9100032</ele>
        <time>2020-02-17T13:28:17.010Z</time>
      </trkpt>
      <trkpt lat="44.71613" lon="6.91371">
        <ele>2058.9100032</ele>
        <time>2020-02-17T13:28:19.010Z</time>
      </trkpt>
      <trkpt lat="44.71624" lon="6.91356">
        <ele>2057.80200704</ele>
        <time>2020-02-17T13:28:21.010Z</time>
      </trkpt>
      <trkpt lat="44.71634" lon="6.91338">
        <ele>2055.60200704</ele>
        <time>2020-02-17T13:28:23.010Z</time>
      </trkpt>
      <trkpt lat="44.71641" lon="6.91319">
        <ele>2053.40200704</ele>
        <time>2020-02-17T13:28:25.010Z</time>
      </trkpt>
      <trkpt lat="44.71648" lon="6.91299">
        <ele>2051.20200704</ele>
        <time>2020-02-17T13:28:27.010Z</time>
      </trkpt>
      <trkpt lat="44.71654" lon="6.9128">
        <ele>2049.00200704</ele>
        <time>2020-02-17T13:28:29.010Z</time>
      </trkpt>
      <trkpt lat="44.7166" lon="6.91262">
        <ele>2046.94600192</ele>
        <time>2020-02-17T13:28:31.010Z</time>
      </trkpt>
      <trkpt lat="44.71665" lon="6.91246">
        <ele>2046.34600192</ele>
        <time>2020-02-17T13:28:33.010Z</time>
      </trkpt>
      <trkpt lat="44.71669" lon="6.9123">
        <ele>2045.74600192</ele>
        <time>2020-02-17T13:28:35.010Z</time>
      </trkpt>
      <trkpt lat="44.71672" lon="6.91215">
        <ele>2045.14600192</ele>
        <time>2020-02-17T13:28:37.010Z</time>
      </trkpt>
      <trkpt lat="44.71676" lon="6.91201">
        <ele>2044.54600192</ele>
        <time>2020-02-17T13:28:39.010Z</time>
      </trkpt>
      <trkpt lat="44.71679" lon="6.91189">
        <ele>2043.9825756384</ele>
        <time>2020-02-17T13:28:41.010Z</time>
      </trkpt>
      <trkpt lat="44.71684" lon="6.91173">
        <ele>2043.6921592851</ele>
        <time>2020-02-17T13:28:44.010Z</time>
      </trkpt>
      <trkpt lat="44.71691" lon="6.91159">
        <ele>2043.4017429318</ele>
        <time>2020-02-17T13:28:47.010Z</time>
      </trkpt>
      <trkpt lat="44.71696" lon="6.91148">
        <ele>2043.1113265785</ele>
        <time>2020-02-17T13:28:50.010Z</time>
      </trkpt>
      <trkpt lat="44.71701" lon="6.91136">
        <ele>2042.617374108</ele>
        <time>2020-02-17T13:28:53.010Z</time>
      </trkpt>
      <trkpt lat="44.71708" lon="6.91121">
        <ele>2041.9968986153</ele>
        <time>2020-02-17T13:28:56.010Z</time>
      </trkpt>
      <trkpt lat="44.71716" lon="6.91108">
        <ele>2041.3764231226</ele>
        <time>2020-02-17T13:28:59.010Z</time>
      </trkpt>
      <trkpt lat="44.71724" lon="6.91095">
        <ele>2040.76400128</ele>
        <time>2020-02-17T13:29:02.010Z</time>
      </trkpt>
      <trkpt lat="44.7173" lon="6.91086">
        <ele>2040.36400128</ele>
        <time>2020-02-17T13:29:04.010Z</time>
      </trkpt>
      <trkpt lat="44.71737" lon="6.91076">
        <ele>2039.96400128</ele>
        <time>2020-02-17T13:29:06.010Z</time>
      </trkpt>
      <trkpt lat="44.71743" lon="6.91066">
        <ele>2039.56400128</ele>
        <time>2020-02-17T13:29:08.010Z</time>
      </trkpt>
      <trkpt lat="44.71753" lon="6.91052">
        <ele>2038.98200064</ele>
        <time>2020-02-17T13:29:11.010Z</time>
      </trkpt>
      <trkpt lat="44.71759" lon="6.91042">
        <ele>2038.78200064</ele>
        <time>2020-02-17T13:29:13.010Z</time>
      </trkpt>
      <trkpt lat="44.71768" lon="6.91027">
        <ele>2038.48200064</ele>
        <time>2020-02-17T13:29:16.010Z</time>
      </trkpt>
      <trkpt lat="44.71773" lon="6.91016">
        <ele>2038.28200064</ele>
        <time>2020-02-17T13:29:18.010Z</time>
      </trkpt>
      <trkpt lat="44.71778" lon="6.90998">
        <ele>2037.9282894024</ele>
        <time>2020-02-17T13:29:21.010Z</time>
      </trkpt>
      <trkpt lat="44.71782" lon="6.90987">
        <ele>2037.1314766534</ele>
        <time>2020-02-17T13:29:23.010Z</time>
      </trkpt>
      <trkpt lat="44.71786" lon="6.90969">
        <ele>2035.9362575299</ele>
        <time>2020-02-17T13:29:26.010Z</time>
      </trkpt>
      <trkpt lat="44.71789" lon="6.90957">
        <ele>2035.1394447809</ele>
        <time>2020-02-17T13:29:28.010Z</time>
      </trkpt>
      <trkpt lat="44.71792" lon="6.90943">
        <ele>2034.3426320319</ele>
        <time>2020-02-17T13:29:30.010Z</time>
      </trkpt>
      <trkpt lat="44.71795" lon="6.90931">
        <ele>2033.7710856225</ele>
        <time>2020-02-17T13:29:32.010Z</time>
      </trkpt>
      <trkpt lat="44.71799" lon="6.90915">
        <ele>2033.1686759839</ele>
        <time>2020-02-17T13:29:35.010Z</time>
      </trkpt>
      <trkpt lat="44.71803" lon="6.909">
        <ele>2032.5662663454</ele>
        <time>2020-02-17T13:29:38.010Z</time>
      </trkpt>
      <trkpt lat="44.71806" lon="6.90885">
        <ele>2031.9461096662</ele>
        <time>2020-02-17T13:29:41.010Z</time>
      </trkpt>
      <trkpt lat="44.7181" lon="6.90869">
        <ele>2031.0479054997</ele>
        <time>2020-02-17T13:29:44.010Z</time>
      </trkpt>
      <trkpt lat="44.71815" lon="6.90854">
        <ele>2030.1497013331</ele>
        <time>2020-02-17T13:29:47.010Z</time>
      </trkpt>
      <trkpt lat="44.71819" lon="6.9084">
        <ele>2029.2514971666</ele>
        <time>2020-02-17T13:29:50.010Z</time>
      </trkpt>
      <trkpt lat="44.71823" lon="6.90822">
        <ele>2029</ele>
        <time>2020-02-17T13:29:53.010Z</time>
      </trkpt>
      <trkpt lat="44.71825" lon="6.90806">
        <ele>2029</ele>
        <time>2020-02-17T13:29:56.010Z</time>
      </trkpt>
      <trkpt lat="44.71827" lon="6.90793">
        <ele>2029</ele>
        <time>2020-02-17T13:29:58.010Z</time>
      </trkpt>
      <trkpt lat="44.71828" lon="6.90779">
        <ele>2029</ele>
        <time>2020-02-17T13:30:00.010Z</time>
      </trkpt>
      <trkpt lat="44.71829" lon="6.90766">
        <ele>2028.17400448</ele>
        <time>2020-02-17T13:30:02.010Z</time>
      </trkpt>
      <trkpt lat="44.71831" lon="6.90753">
        <ele>2026.77400448</ele>
        <time>2020-02-17T13:30:04.010Z</time>
      </trkpt>
      <trkpt lat="44.71832" lon="6.90738">
        <ele>2025.37400448</ele>
        <time>2020-02-17T13:30:06.010Z</time>
      </trkpt>
      <trkpt lat="44.71833" lon="6.90724">
        <ele>2023.97400448</ele>
        <time>2020-02-17T13:30:08.010Z</time>
      </trkpt>
      <trkpt lat="44.71835" lon="6.90709">
        <ele>2022.57400448</ele>
        <time>2020-02-17T13:30:10.010Z</time>
      </trkpt>
      <trkpt lat="44.71837" lon="6.90695">
        <ele>2021.64600192</ele>
        <time>2020-02-17T13:30:12.010Z</time>
      </trkpt>
      <trkpt lat="44.71839" lon="6.90682">
        <ele>2021.04600192</ele>
        <time>2020-02-17T13:30:14.010Z</time>
      </trkpt>
      <trkpt lat="44.71842" lon="6.90669">
        <ele>2020.44600192</ele>
        <time>2020-02-17T13:30:16.010Z</time>
      </trkpt>
      <trkpt lat="44.71844" lon="6.90655">
        <ele>2019.84600192</ele>
        <time>2020-02-17T13:30:18.010Z</time>
      </trkpt>
      <trkpt lat="44.71847" lon="6.9064">
        <ele>2019.24600192</ele>
        <time>2020-02-17T13:30:20.010Z</time>
      </trkpt>
      <trkpt lat="44.71852" lon="6.90627">
        <ele>2018.76400128</ele>
        <time>2020-02-17T13:30:22.010Z</time>
      </trkpt>
      <trkpt lat="44.71856" lon="6.90616">
        <ele>2018.36400128</ele>
        <time>2020-02-17T13:30:24.010Z</time>
      </trkpt>
      <trkpt lat="44.7186" lon="6.90603">
        <ele>2017.96400128</ele>
        <time>2020-02-17T13:30:26.010Z</time>
      </trkpt>
      <trkpt lat="44.71865" lon="6.90592">
        <ele>2017.56400128</ele>
        <time>2020-02-17T13:30:28.010Z</time>
      </trkpt>
      <trkpt lat="44.7187" lon="6.90575">
        <ele>2016.96400128</ele>
        <time>2020-02-17T13:30:31.010Z</time>
      </trkpt>
      <trkpt lat="44.71874" lon="6.90563">
        <ele>2016.56400128</ele>
        <time>2020-02-17T13:30:33.010Z</time>
      </trkpt>
      <trkpt lat="44.71878" lon="6.90551">
        <ele>2016.16400128</ele>
        <time>2020-02-17T13:30:35.010Z</time>
      </trkpt>
      <trkpt lat="44.71885" lon="6.90535">
        <ele>2015.56400128</ele>
        <time>2020-02-17T13:30:38.010Z</time>
      </trkpt>
      <trkpt lat="44.71891" lon="6.9052">
        <ele>2014.9640372313</ele>
        <time>2020-02-17T13:30:41.010Z</time>
      </trkpt>
      <trkpt lat="44.71897" lon="6.90505">
        <ele>2014.3646364402</ele>
        <time>2020-02-17T13:30:44.010Z</time>
      </trkpt>
      <trkpt lat="44.71902" lon="6.90491">
        <ele>2013.7652356492</ele>
        <time>2020-02-17T13:30:47.010Z</time>
      </trkpt>
      <trkpt lat="44.71905" lon="6.90479">
        <ele>2013.1658348582</ele>
        <time>2020-02-17T13:30:50.010Z</time>
      </trkpt>
      <trkpt lat="44.71907" lon="6.90464">
        <ele>2012.3672665119</ele>
        <time>2020-02-17T13:30:54.010Z</time>
      </trkpt>
      <trkpt lat="44.71909" lon="6.9045">
        <ele>2011.3692631574</ele>
        <time>2020-02-17T13:30:59.010Z</time>
      </trkpt>
      <trkpt lat="44.71908" lon="6.90437">
        <ele>2010.5837520831</ele>
        <time>2020-02-17T13:31:05.010Z</time>
      </trkpt>
      <trkpt lat="44.71907" lon="6.90437">
        <ele>2025</ele>
        <time>2020-02-17T13:31:16.010Z</time>
      </trkpt>
    </trkseg>
  </trk>
</gpx>